Provisional Data: Hammer Creek near Route 322


Please select a monitoring station.
Please select start date.
Please select start date.

Toggle Unit: C/F Toggle Unit: C/F
Sample Time Temperature (C) Temperature (F) Specific Conductivity (mS/cm) pH   Turbidity (NTU+) DO (mg/L)
8/1/2022 12:00:00 AM 20.38 68.684 0.499 8.01 12.53 7.91
8/1/2022 12:15:00 AM 20.29 68.522 0.498 8.01 17.47 7.92
8/1/2022 12:30:00 AM 20.17 68.306 0.498 8.01 15.42 7.96
8/1/2022 12:45:00 AM 20.05 68.09 0.496 8 14.42 8
8/1/2022 1:00:00 AM 19.91 67.838 0.49 8 17.34 8.07
8/1/2022 1:15:00 AM 19.79 67.622 0.488 7.98 21.7 8.07
8/1/2022 1:30:00 AM 19.68 67.424 0.488 7.98 21.46 8.08
8/1/2022 1:45:00 AM 19.56 67.208 0.487 7.98 21.59 8.1
8/1/2022 2:00:00 AM 19.44 66.992 0.488 7.98 22.87 8.16
8/1/2022 2:15:00 AM 19.32 66.776 0.488 7.97 21.76 8.2
8/1/2022 2:30:00 AM 19.2 66.56 0.488 7.97 22.79 8.22
8/1/2022 2:45:00 AM 19.08 66.344 0.488 7.96 22.68 8.25
8/1/2022 3:00:00 AM 18.96 66.128 0.487 7.96 24.57 8.28
8/1/2022 3:15:00 AM 18.84 65.912 0.488 7.96 24.13 8.32
8/1/2022 3:30:00 AM 18.73 65.714 0.49 7.96 26.4 8.36
8/1/2022 3:45:00 AM 18.62 65.516 0.492 7.95 22.48 8.4
8/1/2022 4:00:00 AM 18.52 65.336 0.492 7.96 22.14 8.43
8/1/2022 4:15:00 AM 18.43 65.174 0.492 7.96 22.66 8.46
8/1/2022 4:30:00 AM 18.34 65.012 0.49 7.96 24.23 8.49
8/1/2022 4:45:00 AM 18.25 64.85 0.487 7.95 23.14 8.5
8/1/2022 5:00:00 AM 18.17 64.706 0.485 7.95 23.73 8.53
8/1/2022 5:15:00 AM 18.1 64.58 0.484 7.94 22.99 8.54
8/1/2022 5:30:00 AM 18.03 64.454 0.484 7.94 26.11 8.54
8/1/2022 5:45:00 AM 17.97 64.346 0.484 7.94 26.7 8.53
8/1/2022 6:00:00 AM 17.92 64.256 0.484 7.93 26.97 8.53
8/1/2022 6:15:00 AM 17.87 64.166 0.483 7.93 26.81 8.53
8/1/2022 6:30:00 AM 17.83 64.094 0.481 7.92 25.52 8.54
8/1/2022 6:45:00 AM 17.79 64.022 0.478 7.92 23.96 8.55
8/1/2022 7:00:00 AM 17.76 63.968 0.476 7.9 23.6 8.53
8/1/2022 7:15:00 AM 17.72 63.896 0.476 7.91 21.48 8.52
8/1/2022 7:30:00 AM 17.69 63.842 0.476 7.9 20.67 8.53
8/1/2022 7:45:00 AM 17.67 63.806 0.476 7.9 19.36 8.57
8/1/2022 8:00:00 AM 17.65 63.77 0.477 7.89 17.26 8.61
8/1/2022 8:15:00 AM 17.64 63.752 0.478 7.9 18.47 8.66
8/1/2022 8:30:00 AM 17.57 63.626 0.476 7.63 13.74 8.74
8/1/2022 8:45:00 AM 17.56 63.608 0.475 7.7 12.57 8.81
8/1/2022 9:00:00 AM 17.56 63.608 0.478 7.73 11.08 8.91
8/1/2022 9:15:00 AM 17.55 63.59 0.478 7.76 10.15 8.99
8/1/2022 9:30:00 AM 17.54 63.572 0.48 7.77 8.8 9.02
8/1/2022 9:45:00 AM 17.54 63.572 0.481 7.79 8.18 9.11
8/1/2022 10:00:00 AM 17.56 63.608 0.482 7.8 7.86 9.26
8/1/2022 10:15:00 AM 17.59 63.662 0.482 7.82 7.23 9.37
8/1/2022 10:30:00 AM 17.62 63.716 0.482 7.84 7.08 9.47
8/1/2022 10:45:00 AM 17.66 63.788 0.481 7.85 6.65 9.59
8/1/2022 11:00:00 AM 17.7 63.86 0.479 7.87 5.83 9.68
8/1/2022 11:15:00 AM 17.76 63.968 0.477 7.89 5.74 9.81
8/1/2022 11:30:00 AM 17.8 64.04 0.473 7.9 5.26 9.88
8/1/2022 11:45:00 AM 17.87 64.166 0.469 7.92 5.22 9.97
8/1/2022 12:00:00 PM 17.99 64.382 0.465 7.94 5.05 10.14
8/1/2022 12:15:00 PM 18.11 64.598 0.461 7.96 5.64 10.3
8/1/2022 12:30:00 PM 18.25 64.85 0.457 7.99 5.34 10.44
8/1/2022 12:45:00 PM 18.35 65.03 0.453 8 5.25 10.52
8/1/2022 1:00:00 PM 18.39 65.102 0.45 8.01 5.34 10.46
8/1/2022 1:15:00 PM 18.45 65.21 0.448 8.01 5.34 10.4
8/1/2022 1:30:00 PM 18.5 65.3 0.445 8.02 5.26 10.39
8/1/2022 1:45:00 PM 18.55 65.39 0.442 8.03 5.14 10.4
8/1/2022 2:00:00 PM 18.63 65.534 0.44 8.04 4.95 10.44
8/1/2022 2:15:00 PM 18.7 65.66 0.438 8.06 4.74 10.5
8/1/2022 2:30:00 PM 18.81 65.858 0.436 8.08 4.58 10.6
8/1/2022 2:45:00 PM 18.9 66.02 0.434 8.09 4.6 10.62
8/1/2022 3:00:00 PM 19.03 66.254 0.433 8.11 4.53 10.69
8/1/2022 3:15:00 PM 19.17 66.506 0.432 8.13 4.66 10.73
8/1/2022 3:30:00 PM 19.21 66.578 0.432 8.13 4.42 10.53
8/1/2022 3:45:00 PM 19.26 66.668 0.432 8.13 4.49 10.41
8/1/2022 4:00:00 PM 19.36 66.848 0.432 8.15 4.53 10.4
8/1/2022 4:15:00 PM 19.47 67.046 0.432 8.16 4.22 10.44
8/1/2022 4:30:00 PM 19.59 67.262 0.433 8.16 4.4 10.3
8/1/2022 4:45:00 PM 19.73 67.514 0.434 8.16 4.36 10.25
8/1/2022 5:00:00 PM 19.73 67.514 0.435 8.15 4.23 10.09
8/1/2022 5:15:00 PM 19.75 67.55 0.437 8.14 4.38 9.94
8/1/2022 5:30:00 PM 19.77 67.586 0.438 8.13 4.61 9.83
8/1/2022 5:45:00 PM 19.81 67.658 0.44 8.11 4.62 9.67
8/1/2022 6:00:00 PM 19.87 67.766 0.442 8.1 4.57 9.51
8/1/2022 6:15:00 PM 19.91 67.838 0.444 8.08 4.54 9.35
8/1/2022 6:30:00 PM 19.92 67.856 0.446 8.06 4.53 9.21
8/1/2022 6:45:00 PM 19.93 67.874 0.448 8.04 4.7 9.08
8/1/2022 7:00:00 PM 19.94 67.892 0.45 8.03 4.72 8.96
8/1/2022 7:15:00 PM 19.98 67.964 0.451 8.01 4.77 8.86
8/1/2022 7:30:00 PM 20.03 68.054 0.453 8 4.83 8.78
8/1/2022 7:45:00 PM 20.08 68.144 0.455 7.99 4.68 8.7
8/1/2022 8:00:00 PM 20.12 68.216 0.456 7.97 4.82 8.61
8/1/2022 8:15:00 PM 20.14 68.252 0.458 7.95 4.75 8.49
8/1/2022 8:30:00 PM 20.15 68.27 0.46 7.93 5.34 8.4
8/1/2022 8:45:00 PM 20.14 68.252 0.462 7.91 5.59 8.32
8/1/2022 9:00:00 PM 20.14 68.252 0.464 7.89 6.59 8.25
8/1/2022 9:15:00 PM 20.13 68.234 0.465 7.88 7.08 8.2
8/1/2022 9:30:00 PM 20.12 68.216 0.466 7.88 7.36 8.16
8/1/2022 9:45:00 PM 20.1 68.18 0.468 7.87 7.5 8.13
8/1/2022 10:00:00 PM 20.08 68.144 0.469 7.86 8.18 8.1
8/1/2022 10:15:00 PM 20.06 68.108 0.47 7.85 8.29 8.08
8/1/2022 10:30:00 PM 20.04 68.07201 0.472 7.85 9.01 8.06
8/1/2022 10:45:00 PM 20.03 68.054 0.473 7.84 8.54 8.05
8/1/2022 11:00:00 PM 20.01 68.018 0.475 7.84 9.03 8.03
8/1/2022 11:15:00 PM 20 68 0.476 7.83 8.93 8.02
8/1/2022 11:30:00 PM 19.98 67.964 0.478 7.83 8.69 8
8/1/2022 11:45:00 PM 19.96 67.92799 0.479 7.82 9.25 7.99
8/2/2022 12:00:00 AM 19.94 67.892 0.48 7.82 9.85 7.99
8/2/2022 12:15:00 AM 19.92 67.856 0.481 7.82 9.07 7.98
8/2/2022 12:30:00 AM 19.9 67.82 0.482 7.81 10.62 7.99
8/2/2022 12:45:00 AM 19.88 67.784 0.483 7.81 9.55 8
8/2/2022 1:00:00 AM 19.85 67.73 0.484 7.81 10 8.01
8/2/2022 1:15:00 AM 19.82 67.676 0.484 7.81 10.17 8.02
8/2/2022 1:30:00 AM 19.79 67.622 0.485 7.8 10.26 8.04
8/2/2022 1:45:00 AM 19.75 67.55 0.486 7.8 10.72 8.06
8/2/2022 2:00:00 AM 19.71 67.478 0.487 7.8 11.7 8.07
8/2/2022 2:15:00 AM 19.66 67.388 0.487 7.8 11.44 8.09
8/2/2022 2:30:00 AM 19.59 67.262 0.488 7.8 11.49 8.12
8/2/2022 2:45:00 AM 19.51 67.118 0.489 7.8 11.34 8.15
8/2/2022 3:00:00 AM 19.43 66.974 0.49 7.8 11.94 8.17
8/2/2022 3:15:00 AM 19.35 66.83 0.491 7.8 11.42 8.2
8/2/2022 3:30:00 AM 19.25 66.65 0.492 7.8 11.13 8.23
8/2/2022 3:45:00 AM 19.14 66.452 0.493 7.79 12.64 8.26
8/2/2022 4:00:00 AM 19.04 66.272 0.493 7.79 12.73 8.28
8/2/2022 4:15:00 AM 18.92 66.056 0.494 7.79 11.73 8.3
8/2/2022 4:30:00 AM 18.82 65.876 0.495 7.79 13.47 8.34
8/2/2022 4:45:00 AM 18.71 65.67799 0.496 7.79 11.77 8.37
8/2/2022 5:00:00 AM 18.6 65.48 0.496 7.79 12.3 8.4
8/2/2022 5:15:00 AM 18.5 65.3 0.497 7.78 11.52 8.43
8/2/2022 5:30:00 AM 18.4 65.12 0.498 7.78 12.53 8.45
8/2/2022 5:45:00 AM 18.32 64.976 0.498 7.78 10.86 8.48
8/2/2022 6:00:00 AM 18.23 64.814 0.499 7.78 10.29 8.51
8/2/2022 6:15:00 AM 18.14 64.652 0.499 7.78 9.95 8.54
8/2/2022 6:30:00 AM 18.08 64.544 0.5 7.79 9.05 8.58
8/2/2022 6:45:00 AM 18.01 64.418 0.5 7.79 8.07 8.65
8/2/2022 7:00:00 AM 17.97 64.346 0.5 7.8 7.77 8.72
8/2/2022 7:15:00 AM 17.92 64.256 0.5 7.8 7.22 8.76
8/2/2022 7:30:00 AM 17.87 64.166 0.501 7.8 6.51 8.82
8/2/2022 7:45:00 AM 17.83 64.094 0.501 7.81 5.93 8.87
8/2/2022 8:00:00 AM 17.81 64.058 0.501 7.82 5.42 8.91
8/2/2022 8:15:00 AM 17.79 64.022 0.501 7.82 5.32 8.95
8/2/2022 8:30:00 AM 17.79 64.022 0.502 7.83 4.78 9.01
8/2/2022 8:45:00 AM 17.81 64.058 0.502 7.83 4.72 9.07
8/2/2022 9:00:00 AM 17.87 64.166 0.502 7.85 4.38 9.16
8/2/2022 9:15:00 AM 17.93 64.274 0.502 7.86 4.03 9.29
8/2/2022 9:30:00 AM 18.01 64.418 0.502 7.88 3.81 9.4
8/2/2022 9:45:00 AM 18.11 64.598 0.502 7.9 3.75 9.53
8/2/2022 10:00:00 AM 18.2 64.76 0.502 7.91 3.45 9.61
8/2/2022 10:15:00 AM 18.33 64.994 0.503 7.93 3.59 9.72
8/2/2022 10:30:00 AM 18.42 65.156 0.503 7.94 3.41 9.74
8/2/2022 10:45:00 AM 18.58 65.444 0.503 7.96 3.33 9.87
8/2/2022 11:00:00 AM 18.73 65.714 0.503 7.98 3.23 9.94
8/2/2022 11:15:00 AM 18.89 66.002 0.503 8 3.25 10.02
8/2/2022 11:30:00 AM 19.07 66.326 0.503 8.01 3.02 10.1
8/2/2022 11:45:00 AM 19.28 66.704 0.503 8.03 3.01 10.19
8/2/2022 12:00:00 PM 19.53 67.154 0.503 8.05 3.03 10.29
8/2/2022 12:15:00 PM 19.77 67.586 0.503 8.07 3.18 10.39
8/2/2022 12:30:00 PM 20.02 68.036 0.502 8.09 3.25 10.47
8/2/2022 12:45:00 PM 20.24 68.432 0.502 8.11 3.09 10.57
8/2/2022 1:00:00 PM 20.44 68.792 0.502 8.13 3.21 10.64
8/2/2022 1:15:00 PM 20.67 69.206 0.502 8.15 3.35 10.69
8/2/2022 1:30:00 PM 20.96 69.728 0.502 8.17 2.96 10.77
8/2/2022 1:45:00 PM 21.17 70.106 0.502 8.18 3.09 10.76
8/2/2022 2:00:00 PM 21.4 70.52 0.501 8.2 3.06 10.72
8/2/2022 2:15:00 PM 21.6 70.88 0.501 8.21 3.3 10.71
8/2/2022 2:30:00 PM 21.82 71.276 0.5 8.23 2.96 10.69
8/2/2022 2:45:00 PM 22.02 71.636 0.5 8.23 3.15 10.62
8/2/2022 3:00:00 PM 22.18 71.924 0.5 8.24 3.08 10.51
8/2/2022 3:15:00 PM 22.39 72.302 0.499 8.25 2.95 10.44
8/2/2022 3:30:00 PM 22.57 72.626 0.499 8.25 3.12 10.34
8/2/2022 3:45:00 PM 22.69 72.842 0.499 8.26 2.99 10.19
8/2/2022 4:00:00 PM 22.79 73.022 0.498 8.26 3.18 10.08
8/2/2022 4:15:00 PM 22.89 73.202 0.498 8.26 3.39 9.92
8/2/2022 4:30:00 PM 23.01 73.418 0.498 8.26 3.22 9.86
8/2/2022 4:45:00 PM 23.01 73.418 0.498 8.25 3.02 9.61
8/2/2022 5:00:00 PM 23.09 73.562 0.498 8.24 3.21 9.46
8/2/2022 5:15:00 PM 23.12 73.616 0.498 8.23 3.1 9.27
8/2/2022 5:30:00 PM 23.14 73.652 0.498 8.22 3.08 9.1
8/2/2022 5:45:00 PM 23.18 73.724 0.499 8.21 3.2 8.96
8/2/2022 6:00:00 PM 23.21 73.778 0.499 8.19 3.28 8.79
8/2/2022 6:15:00 PM 23.22 73.796 0.499 8.18 3.25 8.63
8/2/2022 6:30:00 PM 23.25 73.85 0.499 8.16 3.37 8.49
8/2/2022 6:45:00 PM 23.27 73.886 0.5 8.14 3.1 8.35
8/2/2022 7:00:00 PM 23.28 73.904 0.501 8.12 3.55 8.23
8/2/2022 7:15:00 PM 23.28 73.904 0.501 8.1 3.41 8.12
8/2/2022 7:30:00 PM 23.28 73.904 0.502 8.08 3.61 8.02
8/2/2022 7:45:00 PM 23.26 73.868 0.503 8.06 3.81 7.92
8/2/2022 8:00:00 PM 23.24 73.832 0.503 8.04 3.77 7.83
8/2/2022 8:15:00 PM 23.23 73.814 0.504 8.02 4.01 7.74
8/2/2022 8:30:00 PM 23.2 73.76 0.505 8 3.95 7.66
8/2/2022 8:45:00 PM 23.18 73.724 0.505 7.98 4.9 7.59
8/2/2022 9:00:00 PM 23.15 73.67 0.506 7.97 3258.1 7.54
8/2/2022 9:15:00 PM 23.12 73.616 0.506 7.96 5.37 7.5
8/2/2022 9:30:00 PM 23.09 73.562 0.507 7.95 5.05 7.47
8/2/2022 9:45:00 PM 23.05 73.49 0.507 7.94 6.38 7.44
8/2/2022 10:00:00 PM 23.01 73.418 0.507 7.93 5.74 7.42
8/2/2022 10:15:00 PM 22.96 73.328 0.507 7.92 5.89 7.42
8/2/2022 10:30:00 PM 22.91 73.238 0.508 7.91 7.9 7.4
8/2/2022 10:45:00 PM 22.85 73.13 0.508 7.9 7.44 7.37
8/2/2022 11:00:00 PM 22.78 73.004 0.509 7.89 7.2 7.35
8/2/2022 11:15:00 PM 22.71 72.878 0.509 7.88 7.27 7.35
8/2/2022 11:30:00 PM 22.62 72.716 0.509 7.88 6.56 7.39
8/2/2022 11:45:00 PM 22.53 72.554 0.509 7.88 6.95 7.44
8/3/2022 12:00:00 AM 22.43 72.374 0.509 7.88 6.95 7.48
8/3/2022 12:15:00 AM 22.32 72.176 0.509 7.88 7.4 7.51
8/3/2022 12:30:00 AM 22.2 71.96 0.509 7.88 7.23 7.54
8/3/2022 12:45:00 AM 22.07 71.726 0.509 7.88 7.61 7.57
8/3/2022 1:00:00 AM 21.94 71.492 0.509 7.88 8.58 7.61
8/3/2022 1:15:00 AM 21.79 71.222 0.508 7.87 8.68 7.64
8/3/2022 1:30:00 AM 21.65 70.97 0.508 7.87 8.05 7.68
8/3/2022 1:45:00 AM 21.51 70.718 0.507 7.87 8.25 7.71
8/3/2022 2:00:00 AM 21.36 70.448 0.507 7.86 8.57 7.75
8/3/2022 2:15:00 AM 21.21 70.17799 0.507 7.86 8.39 7.78
8/3/2022 2:30:00 AM 21.06 69.908 0.506 7.86 8.75 7.82
8/3/2022 2:45:00 AM 20.91 69.638 0.506 7.86 8.36 7.87
8/3/2022 3:00:00 AM 20.76 69.368 0.506 7.86 8.58 7.9
8/3/2022 3:15:00 AM 20.6 69.08 0.505 7.86 8.58 7.94
8/3/2022 3:30:00 AM 20.45 68.81 0.505 7.85 11.36 7.98
8/3/2022 3:45:00 AM 20.29 68.522 0.505 7.86 9.07 8.03
8/3/2022 4:00:00 AM 20.13 68.234 0.505 7.86 9.19 8.08
8/3/2022 4:15:00 AM 19.97 67.946 0.505 7.85 11.26 8.12
8/3/2022 4:30:00 AM 19.8 67.64 0.505 7.85 9.94 8.16
8/3/2022 4:45:00 AM 19.64 67.352 0.505 7.85 10 8.2
8/3/2022 5:00:00 AM 19.48 67.064 0.505 7.85 11.24 8.25
8/3/2022 5:15:00 AM 19.32 66.776 0.505 7.85 10.84 8.29
8/3/2022 5:30:00 AM 19.16 66.488 0.506 7.85 10.32 8.33
8/3/2022 5:45:00 AM 19.01 66.218 0.506 7.85 9.45 8.37
8/3/2022 6:00:00 AM 18.86 65.948 0.507 7.85 9.08 8.41
8/3/2022 6:15:00 AM 18.71 65.67799 0.508 7.85 8.66 8.46
8/3/2022 6:30:00 AM 18.57 65.426 0.508 7.85 7.45 8.51
8/3/2022 6:45:00 AM 18.44 65.192 0.509 7.85 7.1 8.58
8/3/2022 7:00:00 AM 18.32 64.976 0.51 7.85 6.17 8.63
8/3/2022 7:15:00 AM 18.21 64.778 0.51 7.85 5.66 8.69
8/3/2022 7:30:00 AM 18.1 64.58 0.511 7.86 5.26 8.74
8/3/2022 7:45:00 AM 18.02 64.436 0.512 7.86 4.72 8.79
8/3/2022 8:00:00 AM 17.94 64.292 0.512 7.86 4.29 8.86
8/3/2022 8:15:00 AM 17.89 64.202 0.512 7.87 3.88 8.92
8/3/2022 8:30:00 AM 17.86 64.148 0.513 7.88 3.77 9
8/3/2022 8:45:00 AM 17.85 64.13 0.513 7.88 3.61 9.08
8/3/2022 9:00:00 AM 17.85 64.13 0.513 7.89 3.38 9.17
8/3/2022 9:15:00 AM 17.87 64.166 0.513 7.9 3.33 9.25
8/3/2022 9:30:00 AM 17.9 64.22 0.513 7.91 3.16 9.36
8/3/2022 9:45:00 AM 17.95 64.31 0.513 7.92 2.95 9.47
8/3/2022 10:00:00 AM 18.01 64.418 0.514 7.93 2.88 9.56
8/3/2022 10:15:00 AM 18.1 64.58 0.513 7.95 2.69 9.64
8/3/2022 10:30:00 AM 18.18 64.724 0.514 7.96 2.81 9.72
8/3/2022 10:45:00 AM 18.28 64.904 0.514 7.97 2.63 9.81
8/3/2022 11:00:00 AM 18.44 65.192 0.514 7.99 2.76 9.91
8/3/2022 11:15:00 AM 18.58 65.444 0.514 8 2.63 10.02
8/3/2022 11:30:00 AM 18.75 65.75 0.514 8.02 2.8 10.16
8/3/2022 11:45:00 AM 18.91 66.038 0.514 8.05 2.78 10.34
8/3/2022 12:00:00 PM 19.11 66.398 0.513 8.07 2.64 10.52
8/3/2022 12:15:00 PM 19.33 66.794 0.513 8.09 2.58 10.61
8/3/2022 12:30:00 PM 19.51 67.118 0.513 8.1 2.59 10.62
8/3/2022 12:45:00 PM 19.71 67.478 0.513 8.11 2.59 10.68
8/3/2022 1:00:00 PM 19.97 67.946 0.513 8.13 2.46 10.77
8/3/2022 1:15:00 PM 20.14 68.252 0.513 8.15 2.53 10.8
8/3/2022 1:30:00 PM 20.39 68.702 0.512 8.17 2.42 10.88
8/3/2022 1:45:00 PM 20.59 69.062 0.512 8.18 2.41 10.88
8/3/2022 2:00:00 PM 20.8 69.44 0.511 8.2 2.66 10.86
8/3/2022 2:15:00 PM 20.97 69.746 0.511 8.21 2.58 10.86
8/3/2022 2:30:00 PM 21.21 70.17799 0.51 8.23 2.3 10.86
8/3/2022 2:45:00 PM 21.46 70.628 0.51 8.24 2.43 10.81
8/3/2022 3:00:00 PM 21.67 71.006 0.509 8.25 2.27 10.75
8/3/2022 3:15:00 PM 21.86 71.348 0.509 8.26 2.49 10.62
8/3/2022 3:30:00 PM 22.04 71.672 0.508 8.26 2.43 10.5
8/3/2022 3:45:00 PM 22.21 71.978 0.507 8.27 2.5 10.39
8/3/2022 4:00:00 PM 22.36 72.248 0.507 8.27 2.51 10.23
8/3/2022 4:15:00 PM 22.46 72.42799 0.507 8.27 2.61 10.05
8/3/2022 4:30:00 PM 22.56 72.608 0.507 8.27 2.58 9.91
8/3/2022 4:45:00 PM 22.63 72.734 0.506 8.26 2.59 9.75
8/3/2022 5:00:00 PM 22.68 72.824 0.506 8.25 2.9 9.58
8/3/2022 5:15:00 PM 22.69 72.842 0.506 8.24 2.78 9.39
8/3/2022 5:30:00 PM 22.72 72.896 0.506 8.23 2.85 9.23
8/3/2022 5:45:00 PM 22.74 72.932 0.506 8.22 2.91 9.07
8/3/2022 6:00:00 PM 22.77 72.986 0.506 8.21 2.73 8.91
8/3/2022 6:15:00 PM 22.78 73.004 0.506 8.19 2.88 8.77
8/3/2022 6:30:00 PM 22.79 73.022 0.506 8.18 2.9 8.63
8/3/2022 6:45:00 PM 22.79 73.022 0.507 8.16 2.87 8.49
8/3/2022 7:00:00 PM 22.78 73.004 0.507 8.14 3.07 8.38
8/3/2022 7:15:00 PM 22.77 72.986 0.508 8.12 2.91 8.29
8/3/2022 7:30:00 PM 22.74 72.932 0.508 8.11 3.08 8.2
8/3/2022 7:45:00 PM 22.72 72.896 0.508 8.09 2.8 8.11
8/3/2022 8:00:00 PM 22.69 72.842 0.509 8.07 2.96 8.02
8/3/2022 8:15:00 PM 22.66 72.788 0.509 8.05 3.24 7.93
8/3/2022 8:30:00 PM 22.64 72.752 0.51 8.03 3.35 7.85
8/3/2022 8:45:00 PM 22.61 72.698 0.51 8.02 3.69 7.78
8/3/2022 9:00:00 PM 22.59 72.662 0.511 8 4.28 7.73
8/3/2022 9:15:00 PM 22.58 72.644 0.511 7.99 4.68 7.68
8/3/2022 9:30:00 PM 22.56 72.608 0.511 7.98 4.73 7.65
8/3/2022 9:45:00 PM 22.54 72.57201 0.511 7.96 5.4 7.62
8/3/2022 10:00:00 PM 22.53 72.554 0.511 7.95 6.14 7.6
8/3/2022 10:15:00 PM 22.51 72.518 0.511 7.95 5.64 7.58
8/3/2022 10:30:00 PM 22.48 72.464 0.511 7.94 5.91 7.58
8/3/2022 10:45:00 PM 22.46 72.42799 0.512 7.93 5.91 7.57
8/3/2022 11:00:00 PM 22.43 72.374 0.512 7.93 5.57 7.57
8/3/2022 11:15:00 PM 22.39 72.302 0.512 7.92 5.87 7.57
8/3/2022 11:30:00 PM 22.35 72.23 0.512 7.92 5.99 7.57
8/3/2022 11:45:00 PM 22.31 72.158 0.513 7.91 6.5 7.58
8/4/2022 12:00:00 AM 22.25 72.05 0.513 7.91 6.91 7.59
8/4/2022 12:15:00 AM 22.18 71.924 0.512 7.91 6.51 7.61
8/4/2022 12:30:00 AM 22.11 71.798 0.513 7.9 6.63 7.63
8/4/2022 12:45:00 AM 22.03 71.654 0.513 7.9 6.42 7.64
8/4/2022 1:00:00 AM 21.95 71.51 0.514 7.9 7.22 7.66
8/4/2022 1:15:00 AM 21.86 71.348 0.514 7.89 7.36 7.68
8/4/2022 1:30:00 AM 21.76 71.168 0.514 7.89 6.82 7.71
8/4/2022 1:45:00 AM 21.66 70.988 0.515 7.89 7.62 7.73
8/4/2022 2:00:00 AM 21.56 70.808 0.515 7.88 7.54 7.76
8/4/2022 2:15:00 AM 21.45 70.61 0.515 7.88 7.62 7.79
8/4/2022 2:30:00 AM 21.33 70.394 0.515 7.88 7.66 7.82
8/4/2022 2:45:00 AM 21.21 70.17799 0.516 7.88 7.78 7.85
8/4/2022 3:00:00 AM 21.08 69.944 0.516 7.88 8.1 7.89
8/4/2022 3:15:00 AM 20.95 69.71 0.516 7.87 8.51 7.93
8/4/2022 3:30:00 AM 20.82 69.476 0.517 7.87 8.74 7.97
8/4/2022 3:45:00 AM 20.68 69.224 0.517 7.87 8.21 8.01
8/4/2022 4:00:00 AM 20.54 68.972 0.517 7.87 8.93 8.04
8/4/2022 4:15:00 AM 20.39 68.702 0.518 7.87 9.02 8.09
8/4/2022 4:30:00 AM 20.24 68.432 0.518 7.86 9.49 8.12
8/4/2022 4:45:00 AM 20.09 68.162 0.518 7.86 9.51 8.16
8/4/2022 5:00:00 AM 19.95 67.91 0.518 7.86 9.78 8.2
8/4/2022 5:15:00 AM 19.8 67.64 0.519 7.86 9.76 8.23
8/4/2022 5:30:00 AM 19.66 67.388 0.519 7.86 9.86 8.27
8/4/2022 5:45:00 AM 19.52 67.136 0.519 7.86 9.63 8.32
8/4/2022 6:00:00 AM 19.39 66.902 0.519 7.86 9.91 8.35
8/4/2022 6:15:00 AM 19.26 66.668 0.519 7.86 8.62 8.39
8/4/2022 6:30:00 AM 19.15 66.47 0.519 7.86 7.95 8.43
8/4/2022 6:45:00 AM 19.03 66.254 0.52 7.86 7.12 8.49
8/4/2022 7:00:00 AM 18.93 66.074 0.52 7.86 6.6 8.55
8/4/2022 7:15:00 AM 18.84 65.912 0.52 7.86 6.5 8.61
8/4/2022 7:30:00 AM 18.76 65.768 0.52 7.87 5.81 8.66
8/4/2022 7:45:00 AM 18.69 65.642 0.52 7.87 5.31 8.72
8/4/2022 8:00:00 AM 18.64 65.552 0.52 7.87 4.77 8.77
8/4/2022 8:15:00 AM 18.59 65.462 0.52 7.88 4.59 8.85
8/4/2022 8:30:00 AM 18.57 65.426 0.52 7.88 4.3 8.92
8/4/2022 8:45:00 AM 18.57 65.426 0.52 7.89 3.91 9
8/4/2022 9:00:00 AM 18.58 65.444 0.52 7.9 3.63 9.09
8/4/2022 9:15:00 AM 18.6 65.48 0.52 7.9 3.57 9.18
8/4/2022 9:30:00 AM 18.65 65.57 0.52 7.92 3.34 9.29
8/4/2022 9:45:00 AM 18.72 65.696 0.52 7.93 3.26 9.41
8/4/2022 10:00:00 AM 18.8 65.84 0.52 7.94 3.2 9.5
8/4/2022 10:15:00 AM 18.88 65.984 0.52 7.95 2.99 9.59
8/4/2022 10:30:00 AM 18.98 66.164 0.52 7.97 3.11 9.67
8/4/2022 10:45:00 AM 19.1 66.38 0.52 7.98 3.02 9.76
8/4/2022 11:00:00 AM 19.25 66.65 0.52 7.99 2.81 9.87
8/4/2022 11:15:00 AM 19.41 66.938 0.52 8.01 2.85 9.97
8/4/2022 11:30:00 AM 19.57 67.226 0.52 8.03 2.72 10.08
8/4/2022 11:45:00 AM 19.76 67.568 0.519 8.05 3.01 10.19
8/4/2022 12:00:00 PM 20 68 0.519 8.07 2.84 10.31
8/4/2022 12:15:00 PM 20.25 68.45 0.519 8.09 2.82 10.4
8/4/2022 12:30:00 PM 20.52 68.936 0.518 8.1 2.9 10.52
8/4/2022 12:45:00 PM 20.72 69.296 0.518 8.12 2.84 10.6
8/4/2022 1:00:00 PM 20.89 69.602 0.518 8.14 2.96 10.65
8/4/2022 1:15:00 PM 21.1 69.98 0.518 8.16 2.77 10.7
8/4/2022 1:30:00 PM -99999.99 -179968 -99999.99 -99999.99 -99999.99 -99999.99
8/4/2022 1:45:00 PM 21.56 70.808 0.517 8.19 2.65 10.78
8/4/2022 2:00:00 PM 21.81 71.258 0.516 8.21 2.62 10.8
8/4/2022 2:15:00 PM 22.05 71.69 0.516 8.22 2.74 10.79
8/4/2022 2:30:00 PM 22.26 72.068 0.515 8.23 2.64 10.74
8/4/2022 2:45:00 PM 22.5 72.5 0.514 8.25 2.75 10.7
8/4/2022 3:00:00 PM 22.72 72.896 0.513 8.26 2.76 10.65
8/4/2022 3:15:00 PM 22.93 73.274 0.512 8.27 2.64 10.54
8/4/2022 3:30:00 PM 23.12 73.616 0.512 8.28 2.78 10.43
8/4/2022 3:45:00 PM 23.32 73.976 0.511 8.28 2.64 10.32
8/4/2022 4:00:00 PM 23.5 74.3 0.51 8.29 2.69 10.18
8/4/2022 4:15:00 PM 23.66 74.588 0.509 8.29 2.58 10.01
8/4/2022 4:30:00 PM 23.84 74.912 0.508 8.29 2.91 9.94
8/4/2022 4:45:00 PM 23.93 75.074 0.508 8.29 2.66 9.76
8/4/2022 5:00:00 PM 24 75.2 0.507 8.28 2.85 9.59
8/4/2022 5:15:00 PM 23.93 75.074 0.508 8.26 2.69 9.17
8/4/2022 5:30:00 PM 23.88 74.984 0.507 8.25 2.82 9.03
8/4/2022 5:45:00 PM 23.89 75.002 0.507 8.25 2.87 8.94
8/4/2022 6:00:00 PM 23.88 74.984 0.507 8.24 2.96 8.83
8/4/2022 6:15:00 PM 23.86 74.948 0.507 8.23 2.89 8.68
8/4/2022 6:30:00 PM 23.85 74.93 0.506 8.22 2.88 8.59
8/4/2022 6:45:00 PM 23.84 74.912 0.506 8.2 3.3 8.49
8/4/2022 7:00:00 PM 23.81 74.858 0.506 8.18 3.05 8.36
8/4/2022 7:15:00 PM 23.78 74.804 0.506 8.16 3.22 8.25
8/4/2022 7:30:00 PM 23.75 74.75 0.507 8.15 3.83 8.12
8/4/2022 7:45:00 PM 23.72 74.696 0.507 8.12 3.19 8
8/4/2022 8:00:00 PM 23.68 74.624 0.508 8.1 3.17 7.88
8/4/2022 8:15:00 PM 23.63 74.534 0.509 8.08 3.59 7.77
8/4/2022 8:30:00 PM 23.59 74.462 0.51 8.05 4.57 7.69
8/4/2022 8:45:00 PM 23.55 74.39 0.511 8.03 4.25 7.64
8/4/2022 9:00:00 PM 23.51 74.318 0.511 8.02 4.88 7.59
8/4/2022 9:15:00 PM 23.48 74.264 0.512 8 4.42 7.55
8/4/2022 9:30:00 PM 23.45 74.21 0.512 7.99 4.89 7.52
8/4/2022 9:45:00 PM 23.43 74.174 0.513 7.98 4.97 7.49
8/4/2022 10:00:00 PM 23.39 74.102 0.513 7.97 4.91 7.47
8/4/2022 10:15:00 PM 23.36 74.048 0.513 7.96 5.26 7.45
8/4/2022 10:30:00 PM 23.33 73.994 0.514 7.95 5.81 7.44
8/4/2022 10:45:00 PM 23.28 73.904 0.514 7.94 6.06 7.43
8/4/2022 11:00:00 PM 23.23 73.814 0.515 7.93 6.37 7.42
8/4/2022 11:15:00 PM 23.18 73.724 0.515 7.92 6.57 7.44
8/4/2022 11:30:00 PM 23.13 73.634 0.515 7.92 7.22 7.44
8/4/2022 11:45:00 PM 23.07 73.526 0.515 7.91 6.32 7.45
8/5/2022 12:00:00 AM 23.01 73.418 0.515 7.91 6.58 7.46
8/5/2022 12:15:00 AM 22.95 73.31 0.515 7.91 6.94 7.48
8/5/2022 12:30:00 AM 22.87 73.166 0.516 7.9 7.21 7.5
8/5/2022 12:45:00 AM 22.79 73.022 0.516 7.9 6.9 7.52
8/5/2022 1:00:00 AM 22.7 72.86 0.516 7.9 7.08 7.54
8/5/2022 1:15:00 AM 22.6 72.68 0.516 7.9 7.19 7.57
8/5/2022 1:30:00 AM 22.49 72.482 0.516 7.89 6.75 7.6
8/5/2022 1:45:00 AM 22.37 72.266 0.517 7.89 7.31 7.64
8/5/2022 2:00:00 AM 22.24 72.032 0.517 7.89 7.41 7.66
8/5/2022 2:15:00 AM 22.1 71.78 0.517 7.88 7.25 7.7
8/5/2022 2:30:00 AM 21.96 71.528 0.518 7.88 7.95 7.73
8/5/2022 2:45:00 AM 21.83 71.294 0.518 7.88 7.59 7.77
8/5/2022 3:00:00 AM 21.69 71.042 0.519 7.88 7.21 7.81
8/5/2022 3:15:00 AM 21.55 70.79 0.519 7.88 8.76 7.85
8/5/2022 3:30:00 AM 21.41 70.538 0.519 7.88 10.11 7.89
8/5/2022 3:45:00 AM 21.27 70.286 0.52 7.88 8.72 7.93
8/5/2022 4:00:00 AM 21.14 70.052 0.52 7.88 8.79 7.96
8/5/2022 4:15:00 AM 21.01 69.818 0.52 7.87 8.81 8
8/5/2022 4:30:00 AM 20.88 69.584 0.52 7.87 8.66 8.03
8/5/2022 4:45:00 AM 20.75 69.35 0.521 7.88 8.94 8.07
8/5/2022 5:00:00 AM 20.63 69.134 0.521 7.88 8.9 8.1
8/5/2022 5:15:00 AM 20.51 68.918 0.521 7.87 8.72 8.13
8/5/2022 5:30:00 AM 20.38 68.684 0.521 7.87 8.65 8.16
8/5/2022 5:45:00 AM 20.27 68.486 0.521 7.87 9.06 8.18
8/5/2022 6:00:00 AM 20.15 68.27 0.522 7.87 9.1 8.22
8/5/2022 6:15:00 AM 20.04 68.07201 0.522 7.87 11.84 8.25
8/5/2022 6:30:00 AM 19.94 67.892 0.522 7.87 7.5 8.29
8/5/2022 6:45:00 AM 19.85 67.73 0.522 7.87 6.64 8.34
8/5/2022 7:00:00 AM 19.76 67.568 0.522 7.87 6.13 8.39
8/5/2022 7:15:00 AM 19.69 67.442 0.522 7.87 5.46 8.45
8/5/2022 7:30:00 AM 19.61 67.298 0.522 7.88 5.23 8.53
8/5/2022 7:45:00 AM 19.56 67.208 0.522 7.88 4.75 8.63
8/5/2022 8:00:00 AM 19.49 67.082 0.522 7.89 4.74 8.67
8/5/2022 8:15:00 AM 19.45 67.01 0.522 7.89 4.64 8.76
8/5/2022 8:30:00 AM 19.43 66.974 0.522 7.9 4.15 8.92
8/5/2022 8:45:00 AM 19.44 66.992 0.522 7.92 3.86 9.09
8/5/2022 9:00:00 AM 19.44 66.992 0.522 7.94 3.93 9.22
8/5/2022 9:15:00 AM 19.47 67.046 0.522 7.95 3.48 9.4
8/5/2022 9:30:00 AM 19.5 67.1 0.522 7.97 3.38 9.54
8/5/2022 9:45:00 AM 19.53 67.154 0.521 7.99 3.25 9.68
8/5/2022 10:00:00 AM 19.55 67.19 0.521 8 3.1 9.8
8/5/2022 10:15:00 AM 19.59 67.262 0.521 8.02 2.99 9.89
8/5/2022 10:30:00 AM 19.66 67.388 0.521 8.03 2.9 9.99
8/5/2022 10:45:00 AM 19.72 67.496 0.52 8.05 2.8 10.15
8/5/2022 11:00:00 AM 19.84 67.712 0.52 8.08 3.06 10.34
8/5/2022 11:15:00 AM 19.98 67.964 0.519 8.1 2.76 10.47
8/5/2022 11:30:00 AM 19.95 67.91 0.519 8.11 2.83 10.46
8/5/2022 11:45:00 AM 20.21 68.378 0.519 8.14 2.91 10.68
8/5/2022 12:00:00 PM 20.24 68.432 0.518 8.15 2.64 10.7
8/5/2022 12:15:00 PM 20.31 68.558 0.518 8.17 2.71 10.76
8/5/2022 12:30:00 PM 20.48 68.864 0.517 8.19 2.65 10.89
8/5/2022 12:45:00 PM 20.67 69.206 0.516 8.21 2.65 11.02
8/5/2022 1:00:00 PM 20.76 69.368 0.516 8.23 2.54 11.04
8/5/2022 1:15:00 PM 21.06 69.908 0.515 8.25 2.56 11.21
8/5/2022 1:30:00 PM 21.08 69.944 0.514 8.26 2.52 11.1
8/5/2022 1:45:00 PM 21.37 70.466 0.513 8.28 2.62 11.23
8/5/2022 2:00:00 PM 21.61 70.898 0.512 8.3 2.53 11.31
8/5/2022 2:15:00 PM 21.72 71.096 0.512 8.31 2.66 11.24
8/5/2022 2:30:00 PM 21.8 71.24 0.511 8.31 2.47 11.06
8/5/2022 2:45:00 PM 21.97 71.546 0.51 8.33 2.52 11.02
8/5/2022 3:00:00 PM 22.03 71.654 0.509 8.33 2.76 10.93
8/5/2022 3:15:00 PM 22.26 72.068 0.508 8.34 2.75 10.95
8/5/2022 3:30:00 PM 22.38 72.284 0.508 8.34 2.41 10.77
8/5/2022 3:45:00 PM 22.48 72.464 0.507 8.34 2.6 10.65
8/5/2022 4:00:00 PM 22.6 72.68 0.506 8.34 2.43 10.52
8/5/2022 4:15:00 PM 22.72 72.896 0.505 8.34 2.52 10.35
8/5/2022 4:30:00 PM 22.81 73.058 0.505 8.34 2.49 10.22
8/5/2022 4:45:00 PM 22.87 73.166 0.504 8.33 2.54 10.02
8/5/2022 5:00:00 PM 22.87 73.166 0.504 8.32 2.56 9.78
8/5/2022 5:15:00 PM 22.9 73.22 0.504 8.31 2.69 9.6
8/5/2022 5:30:00 PM 22.92 73.256 0.503 8.29 2.65 9.42
8/5/2022 5:45:00 PM 22.92 73.256 0.503 8.28 2.82 9.25
8/5/2022 6:00:00 PM 22.94 73.292 0.502 8.27 2.72 9.11
8/5/2022 6:15:00 PM 22.96 73.328 0.502 8.25 2.99 8.97
8/5/2022 6:30:00 PM 22.95 73.31 0.502 8.24 2.83 8.81
8/5/2022 6:45:00 PM 22.98 73.364 0.501 8.22 3.03 8.72
8/5/2022 7:00:00 PM 22.98 73.364 0.502 8.2 3.01 8.59
8/5/2022 7:15:00 PM 22.99 73.382 0.502 8.18 3.13 8.46
8/5/2022 7:30:00 PM 22.99 73.382 0.502 8.17 3.02 8.34
8/5/2022 7:45:00 PM 22.98 73.364 0.503 8.14 3.03 8.22
8/5/2022 8:00:00 PM 22.95 73.31 0.504 8.12 3.15 8.1
8/5/2022 8:15:00 PM 22.93 73.274 0.505 8.09 3.34 7.99
8/5/2022 8:30:00 PM 22.9 73.22 0.506 8.06 3.66 7.9
8/5/2022 8:45:00 PM 22.87 73.166 0.507 8.04 4.05 7.83
8/5/2022 9:00:00 PM 22.85 73.13 0.508 8.02 5.1 7.77
8/5/2022 9:15:00 PM 22.83 73.094 0.508 8.01 4.86 7.72
8/5/2022 9:30:00 PM 22.81 73.058 0.509 7.99 5.16 7.68
8/5/2022 9:45:00 PM 22.8 73.04 0.509 7.98 5.31 7.65
8/5/2022 10:00:00 PM 22.8 73.04 0.51 7.97 5.84 7.62
8/5/2022 10:15:00 PM 22.79 73.022 0.509 7.96 6.24 7.59
8/5/2022 10:30:00 PM 22.79 73.022 0.509 7.95 5.88 7.57
8/5/2022 10:45:00 PM 22.78 73.004 0.51 7.94 6.15 7.54
8/5/2022 11:00:00 PM 22.78 73.004 0.51 7.94 6.28 7.52
8/5/2022 11:15:00 PM 22.78 73.004 0.511 7.93 6.85 7.51
8/5/2022 11:30:00 PM 22.75 72.95 0.512 7.93 6.06 7.5
8/5/2022 11:45:00 PM 22.73 72.914 0.513 7.92 6.12 7.51
8/6/2022 12:00:00 AM 22.68 72.824 0.513 7.91 6.39 7.51
8/6/2022 12:15:00 AM 22.64 72.752 0.513 7.91 7.08 7.52
8/6/2022 12:30:00 AM 22.6 72.68 0.514 7.91 6.49 7.52
8/6/2022 12:45:00 AM 22.54 72.57201 0.514 7.9 6.45 7.52
8/6/2022 1:00:00 AM 22.48 72.464 0.513 7.9 6.61 7.53
8/6/2022 1:15:00 AM 22.42 72.356 0.513 7.89 6.73 7.54
8/6/2022 1:30:00 AM 22.35 72.23 0.513 7.89 6.68 7.56
8/6/2022 1:45:00 AM 22.28 72.104 0.513 7.89 7.34 7.58
8/6/2022 2:00:00 AM 22.2 71.96 0.513 7.88 12.32 7.6
8/6/2022 2:15:00 AM 22.11 71.798 0.513 7.88 9.72 7.62
8/6/2022 2:30:00 AM 22.02 71.636 0.514 7.88 9 7.65
8/6/2022 2:45:00 AM 21.92 71.456 0.515 7.88 8.59 7.68
8/6/2022 3:00:00 AM 21.81 71.258 0.515 7.88 8.93 7.71
8/6/2022 3:15:00 AM 21.69 71.042 0.516 7.88 8.51 7.76
8/6/2022 3:30:00 AM 21.57 70.826 0.516 7.87 8.7 7.79
8/6/2022 3:45:00 AM 21.45 70.61 0.517 7.87 8.67 7.83
8/6/2022 4:00:00 AM 21.34 70.412 0.517 7.87 9.44 7.86
8/6/2022 4:15:00 AM 21.21 70.17799 0.518 7.87 8.87 7.9
8/6/2022 4:30:00 AM 21.09 69.962 0.518 7.87 8.78 7.93
8/6/2022 4:45:00 AM 20.95 69.71 0.519 7.87 9.2 7.98
8/6/2022 5:00:00 AM 20.82 69.476 0.519 7.87 9.12 8.02
8/6/2022 5:15:00 AM 20.68 69.224 0.52 7.87 9.08 8.06
8/6/2022 5:30:00 AM 20.55 68.99 0.52 7.86 9.18 8.1
8/6/2022 5:45:00 AM 20.42 68.756 0.519 7.86 9.09 8.15
8/6/2022 6:00:00 AM 20.3 68.54 0.519 7.86 8.35 8.17
8/6/2022 6:15:00 AM 20.17 68.306 0.519 7.86 8.24 8.22
8/6/2022 6:30:00 AM 20.07 68.126 0.519 7.86 7.69 8.27
8/6/2022 6:45:00 AM 19.98 67.964 0.518 7.86 7.09 8.33
8/6/2022 7:00:00 AM 19.9 67.82 0.518 7.86 6.54 8.41
8/6/2022 7:15:00 AM 19.83 67.694 0.518 7.87 5.78 8.48
8/6/2022 7:30:00 AM 19.76 67.568 0.519 7.87 5.31 8.55
8/6/2022 7:45:00 AM 19.69 67.442 0.519 7.87 4.92 8.59
8/6/2022 8:00:00 AM 19.63 67.334 0.519 7.88 4.44 8.65
8/6/2022 8:15:00 AM 19.57 67.226 0.52 7.88 4.13 8.7
8/6/2022 8:30:00 AM 19.51 67.118 0.52 7.88 3.75 8.74
8/6/2022 8:45:00 AM 19.46 67.028 0.52 7.88 3.57 8.78
8/6/2022 9:00:00 AM 19.4 66.92 0.52 7.88 3.57 8.81
8/6/2022 9:15:00 AM 19.35 66.83 0.52 7.89 3.47 8.87
8/6/2022 9:30:00 AM 19.3 66.74 0.521 7.89 3.24 8.91
8/6/2022 9:45:00 AM 19.26 66.668 0.521 7.89 2.93 8.94
8/6/2022 10:00:00 AM 19.23 66.614 0.521 7.9 2.98 8.97
8/6/2022 10:15:00 AM 19.2 66.56 0.521 7.91 2.81 9.03
8/6/2022 10:30:00 AM 19.18 66.524 0.521 7.92 2.76 9.1
8/6/2022 10:45:00 AM 19.17 66.506 0.521 7.93 2.74 9.2
8/6/2022 11:00:00 AM 19.17 66.506 0.521 7.94 2.71 9.28
8/6/2022 11:15:00 AM 19.18 66.524 0.521 7.96 2.5 9.42
8/6/2022 11:30:00 AM 19.19 66.542 0.521 7.97 2.47 9.48
8/6/2022 11:45:00 AM 19.22 66.596 0.521 7.99 2.58 9.64
8/6/2022 12:00:00 PM 19.31 66.758 0.52 8.02 2.99 9.9
8/6/2022 12:15:00 PM 19.53 67.154 0.519 8.05 2.58 10.2
8/6/2022 12:30:00 PM 19.8 67.64 0.519 8.08 2.65 10.37
8/6/2022 12:45:00 PM 19.92 67.856 0.518 8.1 2.5 10.42
8/6/2022 1:00:00 PM 20.21 68.378 0.517 8.13 2.58 10.6
8/6/2022 1:15:00 PM 20.43 68.774 0.517 8.15 2.57 10.74
8/6/2022 1:30:00 PM 20.6 69.08 0.517 8.18 2.47 10.85
8/6/2022 1:45:00 PM 20.59 69.062 0.517 8.18 2.5 10.72
8/6/2022 2:00:00 PM 20.88 69.584 0.516 8.21 2.7 10.91
8/6/2022 2:15:00 PM 20.95 69.71 0.515 8.21 2.47 10.9
8/6/2022 2:30:00 PM 21.04 69.872 0.515 8.23 2.51 10.96
8/6/2022 2:45:00 PM 21.16 70.088 0.514 8.25 2.67 11.02
8/6/2022 3:00:00 PM 21.21 70.17799 0.514 8.27 2.81 11.01
8/6/2022 3:15:00 PM 21.25 70.25 0.513 8.26 2.53 10.92
8/6/2022 3:30:00 PM 21.34 70.412 0.512 8.27 2.48 10.83
8/6/2022 3:45:00 PM 21.44 70.592 0.512 8.28 2.57 10.65
8/6/2022 4:00:00 PM 21.53 70.754 0.512 8.28 2.83 10.49
8/6/2022 4:15:00 PM 21.66 70.988 0.511 8.29 2.66 10.45
8/6/2022 4:30:00 PM 21.79 71.222 0.51 8.29 2.54 10.35
8/6/2022 4:45:00 PM 21.82 71.276 0.509 8.29 2.5 10.14
8/6/2022 5:00:00 PM 21.82 71.276 0.509 8.28 2.54 9.94
8/6/2022 5:15:00 PM 21.87 71.366 0.509 8.27 2.9 9.87
8/6/2022 5:30:00 PM 21.98 71.564 0.508 8.27 2.73 9.86
8/6/2022 5:45:00 PM 22.02 71.636 0.508 8.27 2.76 9.75
8/6/2022 6:00:00 PM 22.07 71.726 0.508 8.27 2.85 9.69
8/6/2022 6:15:00 PM 22.15 71.87 0.508 8.26 2.79 9.65
8/6/2022 6:30:00 PM 22.12 71.816 0.508 8.25 2.93 9.47
8/6/2022 6:45:00 PM 22.09 71.762 0.509 8.23 2.9 9.24
8/6/2022 7:00:00 PM 22.06 71.708 0.509 8.21 3.8 9.08
8/6/2022 7:15:00 PM 22.03 71.654 0.51 8.19 4.32 8.93
8/6/2022 7:30:00 PM 22.01 71.618 0.51 8.18 3.64 8.81
8/6/2022 7:45:00 PM 21.99 71.582 0.51 8.16 3.39 8.69
8/6/2022 8:00:00 PM 21.99 71.582 0.511 8.14 3.2 8.55
8/6/2022 8:15:00 PM 21.98 71.564 0.511 8.11 3.49 8.41
8/6/2022 8:30:00 PM 21.98 71.564 0.511 8.09 3.43 8.28
8/6/2022 8:45:00 PM 22 71.6 0.511 8.07 7.96 8.19
8/6/2022 9:00:00 PM 22.03 71.654 0.511 8.05 4.93 8.11
8/6/2022 9:15:00 PM 22.06 71.708 0.511 8.03 4.68 8.03
8/6/2022 9:30:00 PM 22.1 71.78 0.511 8.01 5.07 7.97
8/6/2022 9:45:00 PM 22.14 71.852 0.511 8 5.68 7.91
8/6/2022 10:00:00 PM 22.17 71.906 0.512 7.98 5.54 7.87
8/6/2022 10:15:00 PM 22.2 71.96 0.512 7.97 8.46 7.82
8/6/2022 10:30:00 PM 22.23 72.014 0.512 7.96 6.17 7.79
8/6/2022 10:45:00 PM 22.25 72.05 0.512 7.95 5.9 7.76
8/6/2022 11:00:00 PM 22.26 72.068 0.513 7.93 6.71 7.74
8/6/2022 11:15:00 PM 22.26 72.068 0.513 7.92 6.84 7.72
8/6/2022 11:30:00 PM 22.26 72.068 0.513 7.91 6.96 7.69
8/6/2022 11:45:00 PM 22.25 72.05 0.514 7.9 6.9 7.69
8/7/2022 12:00:00 AM 22.24 72.032 0.514 7.89 7.12 7.68
8/7/2022 12:15:00 AM 22.22 71.996 0.514 7.88 7.07 7.68
8/7/2022 12:30:00 AM 22.2 71.96 0.515 7.88 6.76 7.68
8/7/2022 12:45:00 AM 22.17 71.906 0.515 7.87 7.18 7.69
8/7/2022 1:00:00 AM 22.13 71.834 0.515 7.87 7.36 7.7
8/7/2022 1:15:00 AM 22.08 71.744 0.516 7.86 7.95 7.71
8/7/2022 1:30:00 AM 22.03 71.654 0.516 7.86 8.36 7.72
8/7/2022 1:45:00 AM 21.97 71.546 0.516 7.85 7.78 7.74
8/7/2022 2:00:00 AM 21.9 71.42 0.516 7.85 8.27 7.76
8/7/2022 2:15:00 AM 21.83 71.294 0.516 7.85 8.23 7.78
8/7/2022 2:30:00 AM 21.75 71.15 0.516 7.85 8.95 7.8
8/7/2022 2:45:00 AM 21.67 71.006 0.517 7.84 8.93 7.82
8/7/2022 3:00:00 AM 21.57 70.826 0.517 7.84 9.62 7.85
8/7/2022 3:15:00 AM 21.48 70.664 0.518 7.84 9.84 7.89
8/7/2022 3:30:00 AM 21.37 70.466 0.518 7.84 9.7 7.91
8/7/2022 3:45:00 AM 21.27 70.286 0.518 7.84 9.48 7.94
8/7/2022 4:00:00 AM 21.16 70.088 0.519 7.83 9.63 7.97
8/7/2022 4:15:00 AM 21.04 69.872 0.519 7.84 9.92 8
8/7/2022 4:30:00 AM 20.91 69.638 0.519 7.84 9.78 8.03
8/7/2022 4:45:00 AM 20.79 69.422 0.52 7.84 9.99 8.07
8/7/2022 5:00:00 AM 20.66 69.188 0.52 7.84 10.43 8.1
8/7/2022 5:15:00 AM 20.54 68.972 0.521 7.83 10.89 8.12
8/7/2022 5:30:00 AM 20.41 68.738 0.521 7.83 10.15 8.16
8/7/2022 5:45:00 AM 20.29 68.522 0.521 7.83 9.86 8.19
8/7/2022 6:00:00 AM 20.17 68.306 0.521 7.83 10.26 8.22
8/7/2022 6:15:00 AM 20.06 68.108 0.521 7.84 9.88 8.26
8/7/2022 6:30:00 AM 19.97 67.946 0.521 7.84 8.86 8.3
8/7/2022 6:45:00 AM 19.87 67.766 0.521 7.84 7.68 8.34
8/7/2022 7:00:00 AM 19.79 67.622 0.521 7.85 7.37 8.4
8/7/2022 7:15:00 AM 19.72 67.496 0.521 7.85 6.81 8.47
8/7/2022 7:30:00 AM 19.67 67.406 0.521 7.86 6.06 8.55
8/7/2022 7:45:00 AM 19.62 67.316 0.521 7.87 5.58 8.64
8/7/2022 8:00:00 AM 19.58 67.244 0.521 7.88 4.98 8.72
8/7/2022 8:15:00 AM 19.55 67.19 0.521 7.88 4.88 8.79
8/7/2022 8:30:00 AM 19.54 67.172 0.52 7.9 4.55 8.94
8/7/2022 8:45:00 AM 19.55 67.19 0.52 7.91 4.01 9.03
8/7/2022 9:00:00 AM 19.56 67.208 0.52 7.92 3.97 9.12
8/7/2022 9:15:00 AM 19.63 67.334 0.52 7.93 3.75 9.26
8/7/2022 9:30:00 AM 19.7 67.46 0.52 7.95 3.7 9.31
8/7/2022 9:45:00 AM 19.8 67.64 0.519 7.96 3.73 9.41
8/7/2022 10:00:00 AM 19.91 67.838 0.519 7.98 3.38 9.54
8/7/2022 10:15:00 AM 19.96 67.92799 0.519 7.99 3.18 9.54
8/7/2022 10:30:00 AM 20.03 68.054 0.519 8.01 3.21 9.66
8/7/2022 10:45:00 AM 20.18 68.324 0.519 8.02 3.14 9.73
8/7/2022 11:00:00 AM 20.26 68.468 0.519 8.03 2.92 9.79
8/7/2022 11:15:00 AM 20.39 68.702 0.519 8.04 3.03 9.83
8/7/2022 11:30:00 AM 20.6 69.08 0.519 8.06 3.01 9.97
8/7/2022 11:45:00 AM 20.81 69.458 0.518 8.08 2.95 10.08
8/7/2022 12:00:00 PM 21.03 69.854 0.518 8.11 2.93 10.2
8/7/2022 12:15:00 PM 21.25 70.25 0.517 8.12 3.05 10.29
8/7/2022 12:30:00 PM 21.48 70.664 0.517 8.14 2.83 10.35
8/7/2022 12:45:00 PM 21.7 71.06 0.517 8.16 2.83 10.47
8/7/2022 1:00:00 PM 21.76 71.168 0.516 8.17 2.87 10.42
8/7/2022 1:15:00 PM 22.06 71.708 0.516 8.19 2.84 10.62
8/7/2022 1:30:00 PM 22.13 71.834 0.516 8.21 3 10.59
8/7/2022 1:45:00 PM 22.32 72.176 0.515 8.22 2.76 10.66
8/7/2022 2:00:00 PM 22.52 72.536 0.514 8.24 2.76 10.7
8/7/2022 2:15:00 PM 22.54 72.57201 0.514 8.25 2.75 10.57
8/7/2022 2:30:00 PM 22.76 72.968 0.513 8.26 2.82 10.55
8/7/2022 2:45:00 PM 23.01 73.418 0.512 8.28 2.85 10.65
8/7/2022 3:00:00 PM 23.08 73.544 0.512 8.28 2.82 10.48
8/7/2022 3:15:00 PM 23.06 73.508 0.511 8.28 2.77 10.18
8/7/2022 3:30:00 PM 23.01 73.418 0.504 8.27 4.44 9.67
8/7/2022 3:45:00 PM 23.12 73.616 0.503 8.27 4.02 9.75
8/7/2022 4:00:00 PM 23.27 73.886 0.502 8.27 3.84 9.69
8/7/2022 4:15:00 PM 23.45 74.21 0.503 8.28 3.31 9.71
8/7/2022 4:30:00 PM 23.6 74.48 0.502 8.28 3.18 9.69
8/7/2022 4:45:00 PM 23.6 74.48 0.502 8.27 3.16 9.48
8/7/2022 5:00:00 PM 23.59 74.462 0.501 8.26 3.02 9.28
8/7/2022 5:15:00 PM 23.6 74.48 0.5 8.25 3.27 9.12
8/7/2022 5:30:00 PM 23.6 74.48 0.5 8.23 3.31 8.93
8/7/2022 5:45:00 PM 23.71 74.67799 0.499 8.23 3.22 8.95
8/7/2022 6:00:00 PM 23.72 74.696 0.499 8.21 3.1 8.77
8/7/2022 6:15:00 PM 23.74 74.732 0.5 8.2 3.48 8.68
8/7/2022 6:30:00 PM 23.73 74.714 0.5 8.18 3.67 8.54
8/7/2022 6:45:00 PM 23.71 74.67799 0.5 8.17 3.59 8.4
8/7/2022 7:00:00 PM 23.7 74.66 0.501 8.15 3.52 8.24
8/7/2022 7:15:00 PM 23.71 74.67799 0.501 8.13 3.76 8.15
8/7/2022 7:30:00 PM 23.74 74.732 0.502 8.12 3.58 8.05
8/7/2022 7:45:00 PM 23.75 74.75 0.502 8.1 3.54 7.94
8/7/2022 8:00:00 PM 23.75 74.75 0.504 8.08 3.74 7.83
8/7/2022 8:15:00 PM 23.74 74.732 0.505 8.05 3.91 7.74
8/7/2022 8:30:00 PM 23.74 74.732 0.506 8.03 4.21 7.65
8/7/2022 8:45:00 PM 23.73 74.714 0.507 8 4.93 7.56
8/7/2022 9:00:00 PM 23.72 74.696 0.507 7.98 6.02 7.51
8/7/2022 9:15:00 PM 23.71 74.67799 0.508 7.96 5.79 7.47
8/7/2022 9:30:00 PM 23.71 74.67799 0.509 7.95 6.96 7.44
8/7/2022 9:45:00 PM 23.71 74.67799 0.511 7.93 6.18 7.41
8/7/2022 10:00:00 PM 23.7 74.66 0.512 7.92 6.34 7.39
8/7/2022 10:15:00 PM 23.68 74.624 0.513 7.91 6.65 7.38
8/7/2022 10:30:00 PM 23.64 74.552 0.513 7.9 7.2 7.38
8/7/2022 10:45:00 PM 23.6 74.48 0.514 7.89 6.95 7.39
8/7/2022 11:00:00 PM 23.54 74.372 0.514 7.88 7.02 7.39
8/7/2022 11:15:00 PM 23.49 74.282 0.514 7.87 7.1 7.4
8/7/2022 11:30:00 PM 23.42 74.156 0.515 7.87 7.14 7.41
8/7/2022 11:45:00 PM 23.35 74.03 0.515 7.87 8.09 7.42
8/8/2022 12:00:00 AM 23.27 73.886 0.516 7.86 7.8 7.44
8/8/2022 12:15:00 AM 23.19 73.742 0.516 7.86 8.05 7.46
8/8/2022 12:30:00 AM 23.11 73.598 0.517 7.86 7.53 7.47
8/8/2022 12:45:00 AM 23.03 73.454 0.517 7.85 7.49 7.49
8/8/2022 1:00:00 AM 22.94 73.292 0.518 7.85 7.99 7.51
8/8/2022 1:15:00 AM 22.86 73.148 0.518 7.85 7.92 7.52
8/8/2022 1:30:00 AM 22.78 73.004 0.518 7.85 8.65 7.55
8/8/2022 1:45:00 AM 22.69 72.842 0.519 7.85 31.5 7.57
8/8/2022 2:00:00 AM 22.6 72.68 0.519 7.85 8.62 7.58
8/8/2022 2:15:00 AM 22.51 72.518 0.519 7.84 8.34 7.61
8/8/2022 2:30:00 AM 22.42 72.356 0.519 7.85 8.33 7.64
8/8/2022 2:45:00 AM 22.32 72.176 0.52 7.85 8.42 7.67
8/8/2022 3:00:00 AM 22.21 71.978 0.52 7.84 8.71 7.7
8/8/2022 3:15:00 AM 22.1 71.78 0.52 7.84 9.44 7.73
8/8/2022 3:30:00 AM 21.99 71.582 0.52 7.84 9.41 7.76
8/8/2022 3:45:00 AM 21.88 71.384 0.52 7.84 10.14 7.79
8/8/2022 4:00:00 AM 21.76 71.168 0.52 7.84 10.44 7.82
8/8/2022 4:15:00 AM 21.64 70.952 0.52 7.84 9.42 7.85
8/8/2022 4:30:00 AM 21.52 70.736 0.521 7.84 10.24 7.88
8/8/2022 4:45:00 AM 21.4 70.52 0.52 7.83 10.08 7.92
8/8/2022 5:00:00 AM 21.29 70.32201 0.521 7.83 10.43 7.94
8/8/2022 5:15:00 AM 21.17 70.106 0.521 7.83 10.46 7.98
8/8/2022 5:30:00 AM 21.06 69.908 0.521 7.83 10.93 8
8/8/2022 5:45:00 AM 20.96 69.728 0.521 7.83 10.57 8.03
8/8/2022 6:00:00 AM 20.85 69.53 0.521 7.83 10.21 8.06
8/8/2022 6:15:00 AM 20.76 69.368 0.521 7.83 9.63 8.08
8/8/2022 6:30:00 AM 20.66 69.188 0.521 7.83 8.62 8.11
8/8/2022 6:45:00 AM 20.57 69.026 0.522 7.83 8.55 8.16
8/8/2022 7:00:00 AM 20.49 68.882 0.522 7.83 7.37 8.21
8/8/2022 7:15:00 AM 20.42 68.756 0.522 7.84 7.03 8.26
8/8/2022 7:30:00 AM 20.35 68.63 0.522 7.84 6.19 8.32
8/8/2022 7:45:00 AM 20.29 68.522 0.522 7.84 5.79 8.37
8/8/2022 8:00:00 AM 20.24 68.432 0.523 7.85 5.06 8.42
8/8/2022 8:15:00 AM 20.2 68.36 0.523 7.86 4.83 8.49
8/8/2022 8:30:00 AM 20.18 68.324 0.523 7.86 4.51 8.57
8/8/2022 8:45:00 AM 20.19 68.342 0.523 7.87 4.32 8.63
8/8/2022 9:00:00 AM 20.21 68.378 0.523 7.88 4.08 8.71
8/8/2022 9:15:00 AM 20.24 68.432 0.522 7.9 3.8 8.78
8/8/2022 9:30:00 AM 20.28 68.504 0.522 7.91 3.61 8.87
8/8/2022 9:45:00 AM 20.36 68.648 0.522 7.92 3.4 8.97
8/8/2022 10:00:00 AM 20.44 68.792 0.522 7.94 3.28 9.08
8/8/2022 10:15:00 AM 20.54 68.972 0.521 7.95 3.22 9.21
8/8/2022 10:30:00 AM 20.6 69.08 0.521 7.96 3.2 9.26
8/8/2022 10:45:00 AM 20.73 69.314 0.521 7.98 2.91 9.37
8/8/2022 11:00:00 AM 20.85 69.53 0.521 7.99 2.94 9.46
8/8/2022 11:15:00 AM 21 69.8 0.52 8.01 2.98 9.58
8/8/2022 11:30:00 AM 21.13 70.034 0.52 8.03 2.98 9.74
8/8/2022 11:45:00 AM 21.32 70.376 0.52 8.05 2.9 9.85
8/8/2022 12:00:00 PM 21.41 70.538 0.52 8.07 2.76 9.84
8/8/2022 12:15:00 PM 21.66 70.988 0.519 8.09 2.82 10.03
8/8/2022 12:30:00 PM 21.85 71.33 0.519 8.11 2.88 10.15
8/8/2022 12:45:00 PM 21.97 71.546 0.519 8.13 2.89 10.2
8/8/2022 1:00:00 PM 22.14 71.852 0.518 8.14 2.75 10.23
8/8/2022 1:15:00 PM 22.31 72.158 0.518 8.16 3.07 10.32
8/8/2022 1:30:00 PM 22.49 72.482 0.518 8.17 2.78 10.35
8/8/2022 1:45:00 PM 22.62 72.716 0.517 8.19 2.78 10.34
8/8/2022 2:00:00 PM 22.9 73.22 0.517 8.21 2.8 10.48
8/8/2022 2:15:00 PM 23.09 73.562 0.516 8.23 2.53 10.5
8/8/2022 2:30:00 PM 23.32 73.976 0.515 8.24 2.65 10.52
8/8/2022 2:45:00 PM 23.41 74.138 0.515 8.25 2.71 10.35
8/8/2022 3:00:00 PM 23.65 74.57 0.514 8.27 2.7 10.37
8/8/2022 3:15:00 PM 23.69 74.642 0.513 8.27 2.64 10.17
8/8/2022 3:30:00 PM 23.77 74.786 0.512 8.28 2.53 10.06
8/8/2022 3:45:00 PM 23.88 74.984 0.512 8.28 2.62 9.92
8/8/2022 4:00:00 PM 24 75.2 0.511 8.28 2.57 9.8
8/8/2022 4:15:00 PM 24.09 75.362 0.51 8.28 2.63 9.68
8/8/2022 4:30:00 PM 24.14 75.452 0.51 8.27 3.38 9.55
8/8/2022 4:45:00 PM 24.17 75.506 0.51 8.27 2.66 9.41
8/8/2022 5:00:00 PM 24.22 75.596 0.509 8.27 2.72 9.29
8/8/2022 5:15:00 PM 24.2 75.56 0.509 8.25 2.78 9.1
8/8/2022 5:30:00 PM 24.24 75.632 0.508 8.25 2.69 8.97
8/8/2022 5:45:00 PM 24.3 75.74 0.508 8.24 3 8.85
8/8/2022 6:00:00 PM 24.34 75.812 0.507 8.24 2.89 8.71
8/8/2022 6:15:00 PM 24.36 75.848 0.507 8.22 3.08 8.58
8/8/2022 6:30:00 PM 24.38 75.884 0.507 8.21 3.03 8.44
8/8/2022 6:45:00 PM 24.39 75.902 0.508 8.2 2.98 8.3
8/8/2022 7:00:00 PM 24.39 75.902 0.508 8.18 3.09 8.17
8/8/2022 7:15:00 PM 24.39 75.902 0.508 8.16 3.24 8.06
8/8/2022 7:30:00 PM 24.36 75.848 0.509 8.15 3.29 7.96
8/8/2022 7:45:00 PM 24.33 75.794 0.509 8.12 3.49 7.85
8/8/2022 8:00:00 PM 24.28 75.704 0.51 8.1 3.5 7.76
8/8/2022 8:15:00 PM 24.23 75.614 0.51 8.08 3.82 7.67
8/8/2022 8:30:00 PM 24.18 75.524 0.511 8.06 4.18 7.59
8/8/2022 8:45:00 PM 24.14 75.452 0.511 8.04 4.64 7.53
8/8/2022 9:00:00 PM 24.1 75.38 0.512 8.02 5.01 7.48
8/8/2022 9:15:00 PM 24.06 75.308 0.512 8.01 5.56 7.43
8/8/2022 9:30:00 PM 24.03 75.254 0.513 7.99 5.65 7.4
8/8/2022 9:45:00 PM 24 75.2 0.513 7.98 5.9 7.38
8/8/2022 10:00:00 PM 23.97 75.146 0.513 7.97 6.22 7.35
8/8/2022 10:15:00 PM 23.94 75.092 0.514 7.96 6.2 7.33
8/8/2022 10:30:00 PM 23.91 75.038 0.514 7.95 6.61 7.32
8/8/2022 10:45:00 PM 23.88 74.984 0.514 7.94 6.9 7.31
8/8/2022 11:00:00 PM 23.85 74.93 0.515 7.93 6.9 7.31
8/8/2022 11:15:00 PM 23.81 74.858 0.515 7.92 6.67 7.3
8/8/2022 11:30:00 PM 23.78 74.804 0.516 7.91 7.13 7.3
8/8/2022 11:45:00 PM 23.74 74.732 0.516 7.91 7.04 7.28
8/9/2022 12:00:00 AM 23.7 74.66 0.517 7.9 6.64 7.28
8/9/2022 12:15:00 AM 23.65 74.57 0.517 7.89 7.45 7.29
8/9/2022 12:30:00 AM 23.6 74.48 0.517 7.89 7.02 7.29
8/9/2022 12:45:00 AM 23.55 74.39 0.517 7.88 6.99 7.3
8/9/2022 1:00:00 AM 23.49 74.282 0.517 7.88 7 7.31
8/9/2022 1:15:00 AM 23.44 74.192 0.518 7.88 7.12 7.33
8/9/2022 1:30:00 AM 23.38 74.084 0.517 7.87 7.43 7.33
8/9/2022 1:45:00 AM 23.32 73.976 0.518 7.87 7.64 7.35
8/9/2022 2:00:00 AM 23.25 73.85 0.517 7.86 7.53 7.36
8/9/2022 2:15:00 AM 23.18 73.724 0.517 7.86 7.73 7.38
8/9/2022 2:30:00 AM 23.12 73.616 0.517 7.86 7.63 7.4
8/9/2022 2:45:00 AM 23.05 73.49 0.517 7.86 7.72 7.42
8/9/2022 3:00:00 AM 22.98 73.364 0.517 7.86 7.71 7.44
8/9/2022 3:15:00 AM 22.91 73.238 0.517 7.85 8.13 7.47
8/9/2022 3:30:00 AM 22.82 73.076 0.517 7.85 8.25 7.49
8/9/2022 3:45:00 AM 22.72 72.896 0.518 7.85 8.53 7.51
8/9/2022 4:00:00 AM 22.63 72.734 0.518 7.84 8.89 7.53
8/9/2022 4:15:00 AM 22.52 72.536 0.518 7.84 9.27 7.57
8/9/2022 4:30:00 AM 22.41 72.338 0.518 7.84 9.32 7.6
8/9/2022 4:45:00 AM 22.3 72.14 0.519 7.84 10.41 7.62
8/9/2022 5:00:00 AM 22.18 71.924 0.519 7.84 11.16 7.67
8/9/2022 5:15:00 AM 22.06 71.708 0.52 7.84 10.87 7.7
8/9/2022 5:30:00 AM 21.94 71.492 0.52 7.84 10.78 7.74
8/9/2022 5:45:00 AM 21.82 71.276 0.52 7.84 10.28 7.77
8/9/2022 6:00:00 AM 21.7 71.06 0.52 7.84 9.89 7.81
8/9/2022 6:15:00 AM 21.59 70.862 0.52 7.84 9.43 7.84
8/9/2022 6:30:00 AM 21.48 70.664 0.52 7.84 8.43 7.89
8/9/2022 6:45:00 AM 21.37 70.466 0.52 7.84 7.91 7.93
8/9/2022 7:00:00 AM 21.27 70.286 0.521 7.84 7.09 7.99
8/9/2022 7:15:00 AM 21.18 70.124 0.521 7.84 6.86 8.04
8/9/2022 7:30:00 AM 21.1 69.98 0.521 7.85 6.13 8.11
8/9/2022 7:45:00 AM 21.03 69.854 0.521 7.85 6.27 8.16
8/9/2022 8:00:00 AM 20.97 69.746 0.522 7.86 5.33 8.21
8/9/2022 8:15:00 AM 20.92 69.656 0.522 7.86 5.04 8.27
8/9/2022 8:30:00 AM 20.88 69.584 0.523 7.87 4.81 8.33
8/9/2022 8:45:00 AM 20.87 69.566 0.523 7.88 4.58 8.41
8/9/2022 9:00:00 AM 20.87 69.566 0.524 7.89 4.23 8.48
8/9/2022 9:15:00 AM 20.89 69.602 0.524 7.9 3.95 8.57
8/9/2022 9:30:00 AM 20.94 69.692 0.525 7.91 3.83 8.67
8/9/2022 9:45:00 AM 21.01 69.818 0.526 7.93 3.53 8.79
8/9/2022 10:00:00 AM 21.1 69.98 0.526 7.94 3.52 8.9
8/9/2022 10:15:00 AM 21.2 70.16 0.527 7.96 3.33 8.99
8/9/2022 10:30:00 AM 21.3 70.34 0.527 7.97 3.15 9.08
8/9/2022 10:45:00 AM 21.42 70.556 0.527 7.99 3.2 9.21
8/9/2022 11:00:00 AM 21.58 70.844 0.527 8.01 3.12 9.38
8/9/2022 11:15:00 AM 21.66 70.988 0.527 8.03 3.22 9.49
8/9/2022 11:30:00 AM 21.78 71.204 0.527 8.05 3.1 9.54
8/9/2022 11:45:00 AM 21.89 71.402 0.527 8.06 3.03 9.61
8/9/2022 12:00:00 PM 22.06 71.708 0.527 8.08 2.96 9.76
8/9/2022 12:15:00 PM 22.31 72.158 0.526 8.1 3.21 9.9
8/9/2022 12:30:00 PM 22.53 72.554 0.525 8.12 3.35 10.02
8/9/2022 12:45:00 PM 22.61 72.698 0.525 8.13 3.53 10.01
8/9/2022 1:00:00 PM 22.6 72.68 0.525 8.14 3.09 9.94
8/9/2022 1:15:00 PM 22.74 72.932 0.524 8.15 2.83 10.02
8/9/2022 1:30:00 PM 22.69 72.842 0.524 8.16 2.8 9.88
8/9/2022 1:45:00 PM 22.95 73.31 0.523 8.17 2.76 10.05
8/9/2022 2:00:00 PM 23.25 73.85 0.523 8.19 2.75 10.15
8/9/2022 2:15:00 PM 23.35 74.03 0.522 8.21 2.63 10.22
8/9/2022 2:30:00 PM 23.61 74.498 0.521 8.23 2.82 10.3
8/9/2022 2:45:00 PM 23.72 74.696 0.52 8.24 2.76 10.2
8/9/2022 3:00:00 PM 23.88 74.984 0.519 8.25 2.9 10.22
8/9/2022 3:15:00 PM 23.88 74.984 0.518 8.25 2.82 9.99
8/9/2022 3:30:00 PM 23.84 74.912 0.517 8.24 2.75 9.62
8/9/2022 3:45:00 PM 23.74 74.732 0.517 8.23 3.12 9.3
8/9/2022 4:00:00 PM 23.66 74.588 0.517 8.21 2.87 9
8/9/2022 4:15:00 PM 23.64 74.552 0.517 8.2 2.73 8.82
8/9/2022 4:30:00 PM 23.63 74.534 0.517 8.19 3.02 8.64
8/9/2022 4:45:00 PM 23.63 74.534 0.516 8.18 2.94 8.54
8/9/2022 5:00:00 PM 23.64 74.552 0.516 8.18 2.82 8.5
8/9/2022 5:15:00 PM 23.67 74.606 0.515 8.18 2.92 8.56
8/9/2022 5:30:00 PM 23.73 74.714 0.514 8.18 3.03 8.69
8/9/2022 5:45:00 PM 23.77 74.786 0.514 8.18 3.05 8.74
8/9/2022 6:00:00 PM 23.75 74.75 0.513 8.17 3.2 8.59
8/9/2022 6:15:00 PM 23.72 74.696 0.513 8.16 2.98 8.4
8/9/2022 6:30:00 PM 23.7 74.66 0.513 8.14 2.97 8.25
8/9/2022 6:45:00 PM 23.71 74.67799 0.513 8.13 3.27 8.19
8/9/2022 7:00:00 PM 23.71 74.67799 0.513 8.12 3.32 8.12
8/9/2022 7:15:00 PM 23.73 74.714 0.513 8.1 3.43 8.06
8/9/2022 7:30:00 PM 23.77 74.786 0.514 8.09 3.27 8.03
8/9/2022 7:45:00 PM 23.79 74.82201 0.514 8.08 3.37 7.92
8/9/2022 8:00:00 PM 23.81 74.858 0.515 8.06 3.57 7.82
8/9/2022 8:15:00 PM 23.83 74.894 0.515 8.04 3.61 7.71
8/9/2022 8:30:00 PM 23.86 74.948 0.515 8.02 5.02 7.64
8/9/2022 8:45:00 PM 23.89 75.002 0.516 8.01 4.83 7.56
8/9/2022 9:00:00 PM 23.93 75.074 0.516 7.99 5.56 7.5
8/9/2022 9:15:00 PM 23.96 75.128 0.516 7.98 5.47 7.45
8/9/2022 9:30:00 PM 23.98 75.164 0.517 7.96 5.79 7.41
8/9/2022 9:45:00 PM 23.99 75.182 0.517 7.95 5.63 7.38
8/9/2022 10:00:00 PM 23.99 75.182 0.518 7.94 5.66 7.35
8/9/2022 10:15:00 PM 23.97 75.146 0.518 7.93 5.41 7.32
8/9/2022 10:30:00 PM 23.95 75.11 0.518 7.93 5.49 7.32
8/9/2022 10:45:00 PM 23.92 75.056 0.518 7.92 6.02 7.32
8/9/2022 11:00:00 PM 23.88 74.984 0.518 7.92 5.61 7.29
8/9/2022 11:15:00 PM 23.84 74.912 0.518 7.91 5.89 7.31
8/9/2022 11:30:00 PM 23.8 74.84 0.518 7.91 6.22 7.3
8/9/2022 11:45:00 PM 23.75 74.75 0.518 7.9 6.72 7.31
8/10/2022 12:00:00 AM 23.69 74.642 0.518 7.9 6.53 7.32
8/10/2022 12:15:00 AM 23.61 74.498 0.518 7.9 6.95 7.34
8/10/2022 12:30:00 AM 23.52 74.336 0.518 7.89 7.1 7.36
8/10/2022 12:45:00 AM 23.42 74.156 0.519 7.89 7.39 7.38
8/10/2022 1:00:00 AM 23.32 73.976 0.519 7.89 7.56 7.42
8/10/2022 1:15:00 AM 23.21 73.778 0.519 7.88 7.64 7.45
8/10/2022 1:30:00 AM 23.1 73.58 0.519 7.88 7.74 7.47
8/10/2022 1:45:00 AM 22.99 73.382 0.519 7.88 8.08 7.51
8/10/2022 2:00:00 AM 22.88 73.184 0.519 7.88 8.18 7.54
8/10/2022 2:15:00 AM 22.77 72.986 0.52 7.88 8 7.57
8/10/2022 2:30:00 AM 22.66 72.788 0.52 7.88 8.68 7.6
8/10/2022 2:45:00 AM 22.55 72.59 0.52 7.88 8.11 7.62
8/10/2022 3:00:00 AM 22.44 72.392 0.52 7.87 8.73 7.65
8/10/2022 3:15:00 AM 22.32 72.176 0.52 7.87 10.29 7.67
8/10/2022 3:30:00 AM 22.2 71.96 0.521 7.87 10.17 7.71
8/10/2022 3:45:00 AM 22.07 71.726 0.521 7.87 9.97 7.75
8/10/2022 4:00:00 AM 21.95 71.51 0.521 7.87 10.14 7.78
8/10/2022 4:15:00 AM 21.83 71.294 0.521 7.87 10.47 7.82
8/10/2022 4:30:00 AM 21.71 71.078 0.52 7.86 10.88 7.85
8/10/2022 4:45:00 AM 21.6 70.88 0.521 7.86 10.8 7.88
8/10/2022 5:00:00 AM 21.47 70.646 0.521 7.86 11.08 7.91
8/10/2022 5:15:00 AM 21.35 70.43 0.521 7.86 11.25 7.94
8/10/2022 5:30:00 AM 21.23 70.214 0.521 7.86 10.6 7.98
8/10/2022 5:45:00 AM 21.12 70.016 0.522 7.86 11 8.01
8/10/2022 6:00:00 AM 21 69.8 0.522 7.86 11.18 8.04
8/10/2022 6:15:00 AM 20.89 69.602 0.522 7.86 9.81 8.07
8/10/2022 6:30:00 AM 20.78 69.404 0.522 7.86 9.19 8.12
8/10/2022 6:45:00 AM 20.68 69.224 0.523 7.87 8.7 8.16
8/10/2022 7:00:00 AM 20.57 69.026 0.523 7.87 8.32 8.22
8/10/2022 7:15:00 AM 20.46 68.828 0.524 7.87 7.29 8.27
8/10/2022 7:30:00 AM 20.37 68.666 0.524 7.87 6.9 8.32
8/10/2022 7:45:00 AM 20.27 68.486 0.525 7.87 6.79 8.38
8/10/2022 8:00:00 AM 20.19 68.342 0.525 7.88 6.2 8.43
8/10/2022 8:15:00 AM 20.12 68.216 0.526 7.88 5.55 8.5
8/10/2022 8:30:00 AM 20.07 68.126 0.526 7.89 5.37 8.57
8/10/2022 8:45:00 AM 20.05 68.09 0.526 7.9 4.79 8.73
8/10/2022 9:00:00 AM 20.08 68.144 0.526 7.92 4.45 8.95
8/10/2022 9:15:00 AM 20.12 68.216 0.526 7.94 4.38 9.14
8/10/2022 9:30:00 AM 20.13 68.234 0.527 7.96 4.39 9.3
8/10/2022 9:45:00 AM 20.11 68.198 0.527 7.98 4.33 9.42
8/10/2022 10:00:00 AM 20.12 68.216 0.527 7.99 3.72 9.56
8/10/2022 10:15:00 AM 20.14 68.252 0.527 8.01 3.65 9.7
8/10/2022 10:30:00 AM 20.21 68.378 0.527 8.03 3.43 9.88
8/10/2022 10:45:00 AM 20.23 68.414 0.527 8.05 3.95 9.99
8/10/2022 11:00:00 AM 20.33 68.594 0.526 8.07 4.63 10.18
8/10/2022 11:15:00 AM 20.44 68.792 0.526 8.09 3.41 10.23
8/10/2022 11:30:00 AM 20.52 68.936 0.526 8.11 4.05 10.32
8/10/2022 11:45:00 AM 20.64 69.152 0.525 8.13 3.3 10.46
8/10/2022 12:00:00 PM 20.83 69.494 0.524 8.15 2.75 10.6
8/10/2022 12:15:00 PM 20.88 69.584 0.524 8.17 2.99 10.64
8/10/2022 12:30:00 PM 20.87 69.566 0.524 8.18 3.27 10.61
8/10/2022 12:45:00 PM 20.98 69.764 0.523 8.2 2.98 10.69
8/10/2022 1:00:00 PM 20.97 69.746 0.523 8.21 3.01 10.58
8/10/2022 1:15:00 PM 21.17 70.106 0.522 8.23 2.88 10.74
8/10/2022 1:30:00 PM 21.43 70.574 0.521 8.24 2.8 10.83
8/10/2022 1:45:00 PM 21.43 70.574 0.521 8.25 3.35 10.66
8/10/2022 2:00:00 PM 21.86 71.348 0.52 8.27 3.74 10.85
8/10/2022 2:15:00 PM 21.97 71.546 0.519 8.28 3.46 10.76
8/10/2022 2:30:00 PM 22.23 72.014 0.518 8.3 2.79 10.84
8/10/2022 2:45:00 PM 22.42 72.356 0.517 8.32 2.87 10.86
8/10/2022 3:00:00 PM 22.57 72.626 0.516 8.32 3.1 10.74
8/10/2022 3:15:00 PM 22.55 72.59 0.515 8.33 2.33 10.55
8/10/2022 3:30:00 PM 22.46 72.42799 0.515 8.32 2.58 10.31
8/10/2022 3:45:00 PM 22.4 72.32 0.514 8.32 2.78 10.11
8/10/2022 4:00:00 PM 22.42 72.356 0.513 8.32 3.01 10.03
8/10/2022 4:15:00 PM 22.5 72.5 0.513 8.31 2.7 9.89
8/10/2022 4:30:00 PM 22.57 72.626 0.512 8.31 4.5 9.84
8/10/2022 4:45:00 PM 22.55 72.59 0.511 8.31 2.8 9.69
8/10/2022 5:00:00 PM 22.59 72.662 0.511 8.3 3.3 9.57
8/10/2022 5:15:00 PM 22.61 72.698 0.51 8.3 2.96 9.41
8/10/2022 5:30:00 PM 22.63 72.734 0.509 8.29 2.81 9.26
8/10/2022 5:45:00 PM 22.64 72.752 0.509 8.28 2.66 9.13
8/10/2022 6:00:00 PM 22.59 72.662 0.508 8.26 2.59 8.94
8/10/2022 6:15:00 PM 22.61 72.698 0.507 8.26 3.17 8.91
8/10/2022 6:30:00 PM 22.6 72.68 0.507 8.24 3.31 8.8
8/10/2022 6:45:00 PM 22.58 72.644 0.506 8.23 3.35 8.72
8/10/2022 7:00:00 PM 22.56 72.608 0.506 8.22 4.25 8.63
8/10/2022 7:15:00 PM 22.56 72.608 0.506 8.21 3.11 8.53
8/10/2022 7:30:00 PM 22.56 72.608 0.506 8.19 3.24 8.41
8/10/2022 7:45:00 PM 22.54 72.57201 0.506 8.17 3.63 8.3
8/10/2022 8:00:00 PM 22.51 72.518 0.506 8.14 4.52 8.18
8/10/2022 8:15:00 PM 22.48 72.464 0.507 8.12 5.3 8.08
8/10/2022 8:30:00 PM 22.44 72.392 0.507 8.1 4.93 8
8/10/2022 8:45:00 PM 22.41 72.338 0.507 8.08 4.75 7.94
8/10/2022 9:00:00 PM 22.38 72.284 0.508 8.06 4.86 7.88
8/10/2022 9:15:00 PM 22.36 72.248 0.508 8.04 5.39 7.83
8/10/2022 9:30:00 PM 22.34 72.212 0.508 8.02 5.73 7.78
8/10/2022 9:45:00 PM 22.33 72.194 0.508 8.01 5.38 7.75
8/10/2022 10:00:00 PM 22.32 72.176 0.508 8 5.71 7.71
8/10/2022 10:15:00 PM 22.32 72.176 0.509 7.98 5.72 7.69
8/10/2022 10:30:00 PM 22.32 72.176 0.508 7.98 6.05 7.66
8/10/2022 10:45:00 PM 22.33 72.194 0.509 7.97 6.26 7.64
8/10/2022 11:00:00 PM 22.34 72.212 0.509 7.96 6.41 7.62
8/10/2022 11:15:00 PM 22.34 72.212 0.509 7.95 6.41 7.6
8/10/2022 11:30:00 PM 22.35 72.23 0.509 7.95 6.74 7.59
8/10/2022 11:45:00 PM 22.37 72.266 0.509 7.94 6.57 7.58
8/11/2022 12:00:00 AM 22.38 72.284 0.51 7.94 7.17 7.57
8/11/2022 12:15:00 AM 22.39 72.302 0.51 7.93 6.88 7.57
8/11/2022 12:30:00 AM 22.39 72.302 0.511 7.93 7.77 7.57
8/11/2022 12:45:00 AM 22.39 72.302 0.512 7.92 9.07 7.56
8/11/2022 1:00:00 AM 22.38 72.284 0.512 7.91 8.76 7.55
8/11/2022 1:15:00 AM 22.36 72.248 0.513 7.91 8.61 7.56
8/11/2022 1:30:00 AM 22.34 72.212 0.514 7.9 8.41 7.56
8/11/2022 1:45:00 AM 22.3 72.14 0.515 7.9 8.31 7.57
8/11/2022 2:00:00 AM 22.27 72.086 0.516 7.9 8.3 7.58
8/11/2022 2:15:00 AM 22.22 71.996 0.516 7.89 9.87 7.59
8/11/2022 2:30:00 AM 22.17 71.906 0.516 7.89 7.64 7.62
8/11/2022 2:45:00 AM 22.11 71.798 0.517 7.89 8.12 7.64
8/11/2022 3:00:00 AM 22.03 71.654 0.518 7.89 8.25 7.67
8/11/2022 3:15:00 AM 21.95 71.51 0.518 7.89 9.35 7.7
8/11/2022 3:30:00 AM 21.87 71.366 0.519 7.89 9.13 7.72
8/11/2022 3:45:00 AM 21.78 71.204 0.52 7.89 9.08 7.76
8/11/2022 4:00:00 AM 21.67 71.006 0.52 7.89 9.32 7.79
8/11/2022 4:15:00 AM 21.57 70.826 0.521 7.88 9.52 7.81
8/11/2022 4:30:00 AM 21.45 70.61 0.522 7.88 9.48 7.85
8/11/2022 4:45:00 AM 21.33 70.394 0.522 7.88 9.57 7.88
8/11/2022 5:00:00 AM 21.2 70.16 0.523 7.88 9.22 7.91
8/11/2022 5:15:00 AM 21.08 69.944 0.523 7.88 9.54 7.95
8/11/2022 5:30:00 AM 20.94 69.692 0.524 7.88 10.06 7.99
8/11/2022 5:45:00 AM 20.82 69.476 0.524 7.88 9.54 8.03
8/11/2022 6:00:00 AM 20.69 69.242 0.525 7.87 10.3 8.06
8/11/2022 6:15:00 AM 20.56 69.008 0.526 7.87 9.85 8.1
8/11/2022 6:30:00 AM 20.44 68.792 0.526 7.87 8.87 8.15
8/11/2022 6:45:00 AM 20.33 68.594 0.527 7.87 6.63 8.2
8/11/2022 7:00:00 AM 20.22 68.396 0.527 7.88 7.7 8.26
8/11/2022 7:15:00 AM 20.11 68.198 0.528 7.88 6.52 8.32
8/11/2022 7:30:00 AM 20 68 0.528 7.89 6.02 8.39
8/11/2022 7:45:00 AM 19.91 67.838 0.528 7.89 2213.55 8.46
8/11/2022 8:00:00 AM 19.83 67.694 0.528 7.9 5.24 8.51
8/11/2022 8:15:00 AM 19.75 67.55 0.528 7.9 4.82 8.57
8/11/2022 8:30:00 AM 19.7 67.46 0.528 7.91 4.79 8.63
8/11/2022 8:45:00 AM 19.65 67.37 0.528 7.92 7.72 8.68
8/11/2022 9:00:00 AM 19.63 67.334 0.528 7.92 3.36 8.79
8/11/2022 9:15:00 AM 19.62 67.316 0.528 7.93 3.13 8.87
8/11/2022 9:30:00 AM 19.63 67.334 0.528 7.95 3.27 8.99
8/11/2022 9:45:00 AM 19.63 67.334 0.528 7.96 3.38 9.08
8/11/2022 10:00:00 AM 19.72 67.496 0.527 7.98 3.33 9.26
8/11/2022 10:15:00 AM 19.76 67.568 0.527 7.99 2.91 9.41
8/11/2022 10:30:00 AM 19.75 67.55 0.527 8.01 2.63 9.54
8/11/2022 10:45:00 AM 19.86 67.748 0.527 8.03 3.72 9.66
8/11/2022 11:00:00 AM 19.92 67.856 0.527 8.04 3.31 9.66
8/11/2022 11:15:00 AM 20.01 68.018 0.527 8.05 2.85 9.72
8/11/2022 11:30:00 AM 20.15 68.27 0.527 8.06 2.77 9.79
8/11/2022 11:45:00 AM 20.33 68.594 0.526 8.08 2.36 9.88
8/11/2022 12:00:00 PM 20.51 68.918 0.526 8.09 2.65 9.96
8/11/2022 12:15:00 PM 20.72 69.296 0.526 8.11 2.58 10.07
8/11/2022 12:30:00 PM 20.95 69.71 0.526 8.13 2.83 10.17
8/11/2022 12:45:00 PM 21.15 70.07 0.526 8.14 2.96 10.25
8/11/2022 1:00:00 PM 21.36 70.448 0.525 8.16 2.32 10.34
8/11/2022 1:15:00 PM 21.56 70.808 0.525 8.17 2.78 10.43
8/11/2022 1:30:00 PM 21.63 70.934 0.524 8.19 3.12 10.45
8/11/2022 1:45:00 PM 21.8 71.24 0.524 8.2 2.24 10.48
8/11/2022 2:00:00 PM 21.93 71.474 0.523 8.21 2.43 10.47
8/11/2022 2:15:00 PM 22.09 71.762 0.523 8.23 2.16 10.44
8/11/2022 2:30:00 PM 22.28 72.104 0.522 8.24 2.16 10.42
8/11/2022 2:45:00 PM 22.44 72.392 0.522 8.25 2.75 10.39
8/11/2022 3:00:00 PM 22.58 72.644 0.521 8.26 3.33 10.32
8/11/2022 3:15:00 PM 22.71 72.878 0.52 8.27 2.25 10.25
8/11/2022 3:30:00 PM 22.85 73.13 0.519 8.28 2.55 10.16
8/11/2022 3:45:00 PM 22.97 73.346 0.518 8.28 2.19 10.07
8/11/2022 4:00:00 PM 23.06 73.508 0.517 8.29 2.94 9.93
8/11/2022 4:15:00 PM 23.17 73.706 0.516 8.29 2.46 9.83
8/11/2022 4:30:00 PM 23.24 73.832 0.516 8.29 2.1 9.72
8/11/2022 4:45:00 PM 23.35 74.03 0.514 8.3 3.15 9.69
8/11/2022 5:00:00 PM 23.4 74.12 0.514 8.3 2.31 9.56
8/11/2022 5:15:00 PM 23.4 74.12 0.513 8.29 2.34 9.38
8/11/2022 5:30:00 PM 23.36 74.048 0.513 8.29 2.39 9.19
8/11/2022 5:45:00 PM 23.37 74.066 0.513 8.28 3.44 9.04
8/11/2022 6:00:00 PM 23.36 74.048 0.512 8.27 3.59 8.91
8/11/2022 6:15:00 PM 23.33 73.994 0.512 8.25 3.35 8.75
8/11/2022 6:30:00 PM 23.29 73.922 0.512 8.24 3.1 8.61
8/11/2022 6:45:00 PM 23.26 73.868 0.512 8.23 3.48 8.51
8/11/2022 7:00:00 PM 23.22 73.796 0.511 8.21 3.16 8.39
8/11/2022 7:15:00 PM 23.18 73.724 0.512 8.2 3.15 8.28
8/11/2022 7:30:00 PM 23.13 73.634 0.512 8.18 3.39 8.18
8/11/2022 7:45:00 PM 23.07 73.526 0.512 8.17 3.45 8.1
8/11/2022 8:00:00 PM 23.01 73.418 0.512 8.15 3.39 8.01
8/11/2022 8:15:00 PM 22.95 73.31 0.513 8.13 4.06 7.94
8/11/2022 8:30:00 PM 22.89 73.202 0.513 8.11 3.59 7.87
8/11/2022 8:45:00 PM 22.85 73.13 0.513 8.1 4.07 7.8
8/11/2022 9:00:00 PM 22.82 73.076 0.514 8.08 4.18 7.75
8/11/2022 9:15:00 PM 22.79 73.022 0.514 8.06 5.05 7.69
8/11/2022 9:30:00 PM 22.77 72.986 0.515 8.05 5.08 7.65
8/11/2022 9:45:00 PM 22.74 72.932 0.515 8.03 5.93 7.62
8/11/2022 10:00:00 PM 22.72 72.896 0.515 8.02 5.59 7.6
8/11/2022 10:15:00 PM 22.7 72.86 0.515 8.01 5.63 7.59
8/11/2022 10:30:00 PM 22.67 72.806 0.516 8 7.98 7.57
8/11/2022 10:45:00 PM 22.66 72.788 0.516 7.99 6.69 7.56
8/11/2022 11:00:00 PM 22.65 72.77 0.516 7.98 5.52 7.55
8/11/2022 11:15:00 PM 22.62 72.716 0.516 7.97 6.92 7.54
8/11/2022 11:30:00 PM 22.6 72.68 0.517 7.97 6.37 7.54
8/11/2022 11:45:00 PM 22.56 72.608 0.517 7.96 6.16 7.53
8/12/2022 12:00:00 AM 22.51 72.518 0.517 7.95 5.94 7.53
8/12/2022 12:15:00 AM 22.46 72.42799 0.518 7.94 6.24 7.53
8/12/2022 12:30:00 AM 22.4 72.32 0.518 7.94 5.8 7.54
8/12/2022 12:45:00 AM 22.32 72.176 0.518 7.93 6.41 7.55
8/12/2022 1:00:00 AM 22.24 72.032 0.519 7.93 6.31 7.57
8/12/2022 1:15:00 AM 22.15 71.87 0.519 7.92 6.58 7.59
8/12/2022 1:30:00 AM 22.06 71.708 0.519 7.92 6.93 7.61
8/12/2022 1:45:00 AM 21.96 71.528 0.52 7.92 7.1 7.64
8/12/2022 2:00:00 AM 21.85 71.33 0.52 7.91 6.65 7.66
8/12/2022 2:15:00 AM 21.75 71.15 0.52 7.91 7.09 7.68
8/12/2022 2:30:00 AM 21.64 70.952 0.52 7.91 6.95 7.72
8/12/2022 2:45:00 AM 21.52 70.736 0.52 7.91 7.36 7.74
8/12/2022 3:00:00 AM 21.39 70.502 0.521 7.91 7.24 7.78
8/12/2022 3:15:00 AM 21.26 70.268 0.521 7.91 7.09 7.82
8/12/2022 3:30:00 AM 21.13 70.034 0.521 7.91 7.62 7.84
8/12/2022 3:45:00 AM 20.99 69.782 0.521 7.91 7.78 7.89
8/12/2022 4:00:00 AM 20.85 69.53 0.522 7.91 7.92 7.94
8/12/2022 4:15:00 AM 20.69 69.242 0.522 7.91 8.57 7.99
8/12/2022 4:30:00 AM 20.54 68.972 0.522 7.91 7.94 8.03
8/12/2022 4:45:00 AM 20.39 68.702 0.523 7.91 8.39 8.08
8/12/2022 5:00:00 AM 20.23 68.414 0.523 7.91 8.2 8.13
8/12/2022 5:15:00 AM 20.07 68.126 0.523 7.91 8.54 8.17
8/12/2022 5:30:00 AM 19.9 67.82 0.524 7.91 8.49 8.22
8/12/2022 5:45:00 AM 19.74 67.532 0.524 7.91 8.91 8.26
8/12/2022 6:00:00 AM 19.57 67.226 0.524 7.91 8.17 8.3
8/12/2022 6:15:00 AM 19.41 66.938 0.525 7.91 7.53 8.34
8/12/2022 6:30:00 AM 19.25 66.65 0.525 7.91 7.05 8.4
8/12/2022 6:45:00 AM 19.1 66.38 0.525 7.91 6.7 8.46
8/12/2022 7:00:00 AM 18.97 66.146 0.525 7.92 6.12 8.54
8/12/2022 7:15:00 AM 18.84 65.912 0.526 7.92 5.71 8.6
8/12/2022 7:30:00 AM 18.72 65.696 0.526 7.92 5.09 8.64
8/12/2022 7:45:00 AM 18.62 65.516 0.526 7.93 4.62 8.7
8/12/2022 8:00:00 AM 18.52 65.336 0.527 7.93 4.53 8.75
8/12/2022 8:15:00 AM 18.45 65.21 0.527 7.93 3.87 8.81
8/12/2022 8:30:00 AM 18.4 65.12 0.527 7.94 3.88 8.88
8/12/2022 8:45:00 AM 18.36 65.048 0.527 7.94 3.38 8.95
8/12/2022 9:00:00 AM 18.33 64.994 0.528 7.96 3.38 9.03
8/12/2022 9:15:00 AM 18.33 64.994 0.528 7.98 3.28 9.11
8/12/2022 9:30:00 AM 18.35 65.03 0.528 7.99 2.94 9.21
8/12/2022 9:45:00 AM 18.39 65.102 0.529 8 2.84 9.32
8/12/2022 10:00:00 AM 18.45 65.21 0.529 8.02 2.73 9.43
8/12/2022 10:15:00 AM 18.52 65.336 0.529 8.02 2.72 9.52
8/12/2022 10:30:00 AM 18.59 65.462 0.529 8.03 3.43 9.6
8/12/2022 10:45:00 AM 18.67 65.606 0.529 8.04 2.77 9.68
8/12/2022 11:00:00 AM 18.76 65.768 0.53 8.05 2.55 9.78
8/12/2022 11:15:00 AM 18.89 66.002 0.53 8.06 2.43 9.87
8/12/2022 11:30:00 AM 19.02 66.236 0.529 8.07 2.43 9.96
8/12/2022 11:45:00 AM 19.16 66.488 0.529 8.09 2.54 10.06
8/12/2022 12:00:00 PM 19.31 66.758 0.528 8.11 2.5 10.19
8/12/2022 12:15:00 PM 19.5 67.1 0.528 8.12 2.45 10.29
8/12/2022 12:30:00 PM 19.66 67.388 0.528 8.13 2.42 10.37
8/12/2022 12:45:00 PM 19.94 67.892 0.528 8.16 2.31 10.54
8/12/2022 1:00:00 PM 20.17 68.306 0.527 8.17 2.37 10.65
8/12/2022 1:15:00 PM 20.35 68.63 0.527 8.19 2.41 10.7
8/12/2022 1:30:00 PM 20.32 68.576 0.526 8.2 2.37 10.61
8/12/2022 1:45:00 PM 20.55 68.99 0.526 8.21 2.51 10.69
8/12/2022 2:00:00 PM 20.63 69.134 0.525 8.22 2.48 10.64
8/12/2022 2:15:00 PM 20.84 69.512 0.525 8.24 2.43 10.69
8/12/2022 2:30:00 PM 21.01 69.818 0.524 8.25 2.4 10.68
8/12/2022 2:45:00 PM 21.16 70.088 0.523 8.26 2.41 10.65
8/12/2022 3:00:00 PM 21.28 70.304 0.523 8.27 2.27 10.6
8/12/2022 3:15:00 PM 21.41 70.538 0.522 8.28 2.41 10.53
8/12/2022 3:30:00 PM 21.53 70.754 0.521 8.28 2.44 10.42
8/12/2022 3:45:00 PM -99999.99 -179968 -99999.99 -99999.99 -99999.99 -99999.99
8/12/2022 4:00:00 PM 21.66 70.988 0.52 8.29 2.48 10.15
8/12/2022 4:15:00 PM 21.73 71.114 0.519 8.29 2.65 9.99
8/12/2022 4:30:00 PM 21.79 71.222 0.518 8.29 2.62 9.9
8/12/2022 4:45:00 PM 21.81 71.258 0.518 8.29 2.58 9.77
8/12/2022 5:00:00 PM 21.82 71.276 0.517 8.29 2.52 9.65
8/12/2022 5:15:00 PM 21.79 71.222 0.516 8.29 2.59 9.49
8/12/2022 5:30:00 PM 21.75 71.15 0.516 8.28 2.58 9.33
8/12/2022 5:45:00 PM 21.75 71.15 0.515 8.27 2.54 9.22
8/12/2022 6:00:00 PM 21.69 71.042 0.515 8.27 2.61 9.08
8/12/2022 6:15:00 PM 21.61 70.898 0.515 8.25 2.51 8.94
8/12/2022 6:30:00 PM 21.61 70.898 0.514 8.25 2.7 8.88
8/12/2022 6:45:00 PM 21.57 70.826 0.514 8.24 2.86 8.78
8/12/2022 7:00:00 PM 21.51 70.718 0.514 8.23 2.63 8.69
8/12/2022 7:15:00 PM 21.46 70.628 0.514 8.21 2.8 8.61
8/12/2022 7:30:00 PM 21.4 70.52 0.514 8.2 3 8.53
8/12/2022 7:45:00 PM 21.32 70.376 0.514 8.19 2.91 8.46
8/12/2022 8:00:00 PM 21.23 70.214 0.514 8.17 3.19 8.4
8/12/2022 8:15:00 PM 21.13 70.034 0.514 8.16 3.25 8.32
8/12/2022 8:30:00 PM 21.03 69.854 0.514 8.14 3.57 8.27
8/12/2022 8:45:00 PM 20.93 69.674 0.514 8.12 4.38 8.22
8/12/2022 9:00:00 PM 20.84 69.512 0.515 8.11 4.42 8.19
8/12/2022 9:15:00 PM 20.75 69.35 0.515 8.09 4.98 8.15
8/12/2022 9:30:00 PM 20.65 69.17 0.515 8.08 4.74 8.13
8/12/2022 9:45:00 PM 20.57 69.026 0.515 8.07 5.43 8.11
8/12/2022 10:00:00 PM 20.48 68.864 0.516 8.05 6.11 8.1
8/12/2022 10:15:00 PM 20.4 68.72 0.516 8.05 6 8.09
8/12/2022 10:30:00 PM 20.3 68.54 0.517 8.04 6.23 8.09
8/12/2022 10:45:00 PM 20.22 68.396 0.517 8.03 6.03 8.09
8/12/2022 11:00:00 PM 20.13 68.234 0.518 8.02 6.06 8.09
8/12/2022 11:15:00 PM 20.03 68.054 0.518 8.01 6.12 8.1
8/12/2022 11:30:00 PM 19.94 67.892 0.519 8 6.59 8.11
8/12/2022 11:45:00 PM 19.83 67.694 0.519 8 6.49 8.12
8/13/2022 12:00:00 AM 19.72 67.496 0.52 7.99 6.1 8.14
8/13/2022 12:15:00 AM 19.62 67.316 0.52 7.98 5.87 8.16
8/13/2022 12:30:00 AM 19.5 67.1 0.52 7.98 6.07 8.18
8/13/2022 12:45:00 AM 19.39 66.902 0.521 7.97 6.15 8.2
8/13/2022 1:00:00 AM 19.27 66.686 0.521 7.97 6.42 8.22
8/13/2022 1:15:00 AM 19.15 66.47 0.521 7.96 5.81 8.25
8/13/2022 1:30:00 AM 19.02 66.236 0.522 7.96 6.02 8.29
8/13/2022 1:45:00 AM 18.9 66.02 0.522 7.96 5.83 8.32
8/13/2022 2:00:00 AM 18.77 65.786 0.522 7.95 6.43 8.36
8/13/2022 2:15:00 AM 18.64 65.552 0.522 7.95 6.38 8.39
8/13/2022 2:30:00 AM 18.5 65.3 0.522 7.95 6.17 8.43
8/13/2022 2:45:00 AM 18.36 65.048 0.523 7.95 6.14 8.46
8/13/2022 3:00:00 AM 18.21 64.778 0.523 7.94 6.24 8.5
8/13/2022 3:15:00 AM 18.08 64.544 0.523 7.94 6.08 8.54
8/13/2022 3:30:00 AM 17.93 64.274 0.523 7.94 6.95 8.58
8/13/2022 3:45:00 AM 17.79 64.022 0.524 7.94 7.4 8.62
8/13/2022 4:00:00 AM 17.66 63.788 0.524 7.94 7.11 8.67
8/13/2022 4:15:00 AM 17.51 63.518 0.524 7.94 7.5 8.72
8/13/2022 4:30:00 AM 17.37 63.266 0.525 7.94 7.31 8.76
8/13/2022 4:45:00 AM 17.22 62.996 0.525 7.95 7.42 8.8
8/13/2022 5:00:00 AM 17.07 62.726 0.525 7.95 7.72 8.86
8/13/2022 5:15:00 AM 16.92 62.456 0.526 7.96 7.42 8.91
8/13/2022 5:30:00 AM 16.77 62.186 0.526 7.96 7.1 8.95
8/13/2022 5:45:00 AM 16.62 61.916 0.526 7.96 6.68 9
8/13/2022 6:00:00 AM 16.47 61.646 0.527 7.97 6.77 9.05
8/13/2022 6:15:00 AM 16.33 61.394 0.527 7.97 6.36 9.09
8/13/2022 6:30:00 AM 16.18 61.124 0.527 7.97 6.06 9.15
8/13/2022 6:45:00 AM 16.06 60.908 0.527 7.98 5.24 9.2
8/13/2022 7:00:00 AM 15.92 60.656 0.527 7.98 4.92 9.26
8/13/2022 7:15:00 AM 15.8 60.44 0.527 7.99 4.43 9.32
8/13/2022 7:30:00 AM 15.7 60.26 0.527 7.99 4.1 9.37
8/13/2022 7:45:00 AM 15.6 60.08 0.528 7.99 3.77 9.43
8/13/2022 8:00:00 AM 15.53 59.954 0.528 8 3.52 9.49
8/13/2022 8:15:00 AM 15.47 59.846 0.528 8 3.46 9.55
8/13/2022 8:30:00 AM 15.44 59.792 0.528 8.01 3.1 9.61
8/13/2022 8:45:00 AM 15.43 59.774 0.529 8.01 3.13 9.68
8/13/2022 9:00:00 AM 15.45 59.81 0.529 8.02 2.86 9.75
8/13/2022 9:15:00 AM 15.49 59.882 0.529 8.02 2.72 9.83
8/13/2022 9:30:00 AM 15.54 59.972 0.529 8.03 2.65 9.93
8/13/2022 9:45:00 AM 15.63 60.134 0.53 8.03 2.6 10.02
8/13/2022 10:00:00 AM 15.73 60.314 0.53 8.04 2.5 10.12
8/13/2022 10:15:00 AM 15.83 60.494 0.531 8.05 2.51 10.2
8/13/2022 10:30:00 AM 15.94 60.692 0.531 8.05 2.41 10.27
8/13/2022 10:45:00 AM 16.07 60.926 0.531 8.06 2.4 10.34
8/13/2022 11:00:00 AM 16.21 61.178 0.531 8.07 2.28 10.42
8/13/2022 11:15:00 AM 16.37 61.466 0.531 8.08 2.26 10.5
8/13/2022 11:30:00 AM 16.53 61.754 0.531 8.1 2.3 10.56
8/13/2022 11:45:00 AM 16.72 62.096 0.531 8.11 2.37 10.64
8/13/2022 12:00:00 PM 16.93 62.474 0.531 8.12 2.36 10.73
8/13/2022 12:15:00 PM 17.18 62.924 0.53 8.14 2.38 10.81
8/13/2022 12:30:00 PM 17.44 63.392 0.53 8.15 2.35 10.91
8/13/2022 12:45:00 PM 17.71 63.878 0.529 8.17 2.42 10.99
8/13/2022 1:00:00 PM 17.96 64.328 0.529 8.18 2.35 11.04
8/13/2022 1:15:00 PM 18.19 64.742 0.528 8.19 2.57 11.07
8/13/2022 1:30:00 PM 18.37 65.066 0.528 8.2 2.34 11.08
8/13/2022 1:45:00 PM 18.57 65.426 0.528 8.21 2.79 11.08
8/13/2022 2:00:00 PM 18.77 65.786 0.527 8.23 2.48 11.08
8/13/2022 2:15:00 PM 18.94 66.092 0.527 8.24 2.37 11.05
8/13/2022 2:30:00 PM 19.11 66.398 0.526 8.25 2.3 11.02
8/13/2022 2:45:00 PM 19.3 66.74 0.526 8.26 2.33 10.97
8/13/2022 3:00:00 PM 19.5 67.1 0.525 8.27 2.34 10.9
8/13/2022 3:15:00 PM 19.65 67.37 0.525 8.27 2.34 10.82
8/13/2022 3:30:00 PM 19.79 67.622 0.524 8.28 2.34 10.72
8/13/2022 3:45:00 PM 19.96 67.92799 0.523 8.29 2.41 10.61
8/13/2022 4:00:00 PM 20.08 68.144 0.522 8.29 2.45 10.47
8/13/2022 4:15:00 PM 20.17 68.306 0.521 8.29 2.48 10.33
8/13/2022 4:30:00 PM 20.28 68.504 0.521 8.3 2.47 10.22
8/13/2022 4:45:00 PM 20.36 68.648 0.52 8.3 2.57 10.1
8/13/2022 5:00:00 PM 20.42 68.756 0.519 8.3 2.56 9.96
8/13/2022 5:15:00 PM 20.43 68.774 0.519 8.29 2.61 9.8
8/13/2022 5:30:00 PM 20.44 68.792 0.518 8.29 2.71 9.66
8/13/2022 5:45:00 PM 20.46 68.828 0.518 8.28 2.49 9.52
8/13/2022 6:00:00 PM 20.46 68.828 0.517 8.27 2.78 9.39
8/13/2022 6:15:00 PM 20.44 68.792 0.517 8.26 2.66 9.26
8/13/2022 6:30:00 PM 20.42 68.756 0.517 8.25 2.66 9.14
8/13/2022 6:45:00 PM 20.37 68.666 0.516 8.24 2.77 9.02
8/13/2022 7:00:00 PM 20.32 68.576 0.516 8.23 3.01 8.93
8/13/2022 7:15:00 PM 20.28 68.504 0.516 8.22 2.92 8.84
8/13/2022 7:30:00 PM 20.24 68.432 0.516 8.2 2.93 8.77
8/13/2022 7:45:00 PM 20.2 68.36 0.516 8.19 3.25 8.7
8/13/2022 8:00:00 PM 20.14 68.252 0.516 8.18 3.14 8.63
8/13/2022 8:15:00 PM 20.08 68.144 0.516 8.16 3.2 8.55
8/13/2022 8:30:00 PM 20.02 68.036 0.517 8.14 3.63 8.49
8/13/2022 8:45:00 PM 19.95 67.91 0.517 8.13 4.08 8.44
8/13/2022 9:00:00 PM 19.88 67.784 0.517 8.11 4.37 8.39
8/13/2022 9:15:00 PM 19.82 67.676 0.517 8.1 4.8 8.36
8/13/2022 9:30:00 PM 19.77 67.586 0.517 8.09 5.35 8.33
8/13/2022 9:45:00 PM 19.71 67.478 0.518 8.07 5.15 8.3
8/13/2022 10:00:00 PM 19.67 67.406 0.518 8.06 5.58 8.28
8/13/2022 10:15:00 PM 19.62 67.316 0.518 8.05 5.24 8.26
8/13/2022 10:30:00 PM 19.57 67.226 0.519 8.04 6.62 8.25
8/13/2022 10:45:00 PM 19.53 67.154 0.519 8.03 5.9 8.24
8/13/2022 11:00:00 PM 19.49 67.082 0.519 8.02 6.38 8.24
8/13/2022 11:15:00 PM 19.45 67.01 0.52 8.01 6.21 8.23
8/13/2022 11:30:00 PM 19.41 66.938 0.52 8.01 5.92 8.23
8/13/2022 11:45:00 PM 19.37 66.866 0.52 8 5.91 8.24
8/14/2022 12:00:00 AM 19.33 66.794 0.521 8 5.98 8.25
8/14/2022 12:15:00 AM 19.28 66.704 0.521 7.99 5.98 8.25
8/14/2022 12:30:00 AM 19.23 66.614 0.521 7.98 5.87 8.26
8/14/2022 12:45:00 AM 19.17 66.506 0.522 7.98 6.21 8.27
8/14/2022 1:00:00 AM 19.12 66.416 0.522 7.97 6.4 8.29
8/14/2022 1:15:00 AM 19.05 66.29 0.523 7.97 6.14 8.3
8/14/2022 1:30:00 AM 18.99 66.182 0.523 7.97 6.03 8.31
8/14/2022 1:45:00 AM 18.92 66.056 0.523 7.96 6.27 8.34
8/14/2022 2:00:00 AM 18.85 65.93 0.524 7.96 5.98 8.35
8/14/2022 2:15:00 AM 18.78 65.804 0.524 7.95 6.06 8.37
8/14/2022 2:30:00 AM 18.7 65.66 0.524 7.95 6.14 8.38
8/14/2022 2:45:00 AM 18.62 65.516 0.524 7.95 6.25 8.4
8/14/2022 3:00:00 AM 18.53 65.354 0.524 7.95 6.54 8.43
8/14/2022 3:15:00 AM 18.44 65.192 0.525 7.94 6.55 8.47
8/14/2022 3:30:00 AM 18.35 65.03 0.525 7.94 6.71 8.5
8/14/2022 3:45:00 AM 18.25 64.85 0.525 7.94 6.72 8.53
8/14/2022 4:00:00 AM 18.14 64.652 0.526 7.94 6.47 8.56
8/14/2022 4:15:00 AM 18.03 64.454 0.526 7.94 6.9 8.6
8/14/2022 4:30:00 AM 17.91 64.238 0.526 7.94 7.02 8.64
8/14/2022 4:45:00 AM 17.78 64.004 0.527 7.94 7.04 8.68
8/14/2022 5:00:00 AM 17.66 63.788 0.527 7.94 7.02 8.72
8/14/2022 5:15:00 AM 17.53 63.554 0.527 7.94 6.93 8.77
8/14/2022 5:30:00 AM 17.41 63.338 0.528 7.94 6.95 8.81
8/14/2022 5:45:00 AM 17.29 63.122 0.528 7.94 6.77 8.85
8/14/2022 6:00:00 AM 17.18 62.924 0.528 7.94 6.84 8.88
8/14/2022 6:15:00 AM 17.05 62.69 0.528 7.94 6.39 8.92
8/14/2022 6:30:00 AM 16.92 62.456 0.528 7.94 5.65 8.97
8/14/2022 6:45:00 AM 16.8 62.24 0.528 7.94 5.35 9.02
8/14/2022 7:00:00 AM 16.68 62.024 0.528 7.95 4.91 9.07
8/14/2022 7:15:00 AM 16.57 61.826 0.528 7.95 4.62 9.13
8/14/2022 7:30:00 AM 16.47 61.646 0.528 7.95 4.28 9.19
8/14/2022 7:45:00 AM 16.38 61.484 0.528 7.95 4.01 9.24
8/14/2022 8:00:00 AM 16.31 61.358 0.528 7.96 3.82 9.3
8/14/2022 8:15:00 AM 16.25 61.25 0.528 7.96 3.37 9.36
8/14/2022 8:30:00 AM 16.21 61.178 0.527 7.97 3.17 9.42
8/14/2022 8:45:00 AM 16.21 61.178 0.528 7.97 2.98 9.5
8/14/2022 9:00:00 AM 16.21 61.178 0.528 7.98 2.93 9.56
8/14/2022 9:15:00 AM 16.25 61.25 0.528 7.99 2.77 9.64
8/14/2022 9:30:00 AM 16.31 61.358 0.528 8 2.66 9.73
8/14/2022 9:45:00 AM 16.38 61.484 0.529 8.01 2.59 9.82
8/14/2022 10:00:00 AM 16.49 61.682 0.529 8.02 2.51 9.93
8/14/2022 10:15:00 AM 16.59 61.862 0.529 8.03 2.42 10.02
8/14/2022 10:30:00 AM 16.71 62.078 0.529 8.04 2.57 10.09
8/14/2022 10:45:00 AM 16.84 62.312 0.529 8.05 2.48 10.17
8/14/2022 11:00:00 AM 16.98 62.564 0.529 8.06 2.36 10.25
8/14/2022 11:15:00 AM 17.14 62.852 0.529 8.07 2.34 10.32
8/14/2022 11:30:00 AM 17.31 63.158 0.529 8.09 2.42 10.4
8/14/2022 11:45:00 AM 17.48 63.464 0.529 8.1 2.32 10.48
8/14/2022 12:00:00 PM 17.7 63.86 0.529 8.12 2.28 10.58
8/14/2022 12:15:00 PM 17.94 64.292 0.528 8.13 2.51 10.67
8/14/2022 12:30:00 PM 18.23 64.814 0.528 8.15 2.31 10.78
8/14/2022 12:45:00 PM 18.5 65.3 0.527 8.17 2.34 10.86
8/14/2022 1:00:00 PM 18.71 65.67799 0.527 8.18 2.36 10.91
8/14/2022 1:15:00 PM 18.95 66.11 0.527 8.19 2.32 10.96
8/14/2022 1:30:00 PM 19.15 66.47 0.526 8.21 2.38 10.98
8/14/2022 1:45:00 PM 19.35 66.83 0.526 8.22 3.91 11
8/14/2022 2:00:00 PM 19.43 66.974 0.526 8.23 2.87 10.92
8/14/2022 2:15:00 PM 19.56 67.208 0.525 8.24 2.82 10.92
8/14/2022 2:30:00 PM 19.74 67.532 0.525 8.25 2.55 10.93
8/14/2022 2:45:00 PM 19.87 67.766 0.524 8.26 2.44 10.86
8/14/2022 3:00:00 PM 20.09 68.162 0.523 8.27 2.42 10.85
8/14/2022 3:15:00 PM 20.23 68.414 0.523 8.28 2.51 10.78
8/14/2022 3:30:00 PM 20.39 68.702 0.522 8.29 2.44 10.71
8/14/2022 3:45:00 PM 20.52 68.936 0.521 8.3 2.55 10.64
8/14/2022 4:00:00 PM 20.62 69.116 0.52 8.3 2.67 10.52
8/14/2022 4:15:00 PM 20.68 69.224 0.519 8.31 2.53 10.38
8/14/2022 4:30:00 PM 20.8 69.44 0.518 8.31 2.45 10.28
8/14/2022 4:45:00 PM 20.95 69.71 0.517 8.32 2.57 10.21
8/14/2022 5:00:00 PM 21.05 69.89 0.516 8.32 2.47 10.12
8/14/2022 5:15:00 PM 21.05 69.89 0.516 8.32 2.57 9.97
8/14/2022 5:30:00 PM 21 69.8 0.515 8.32 2.64 9.81
8/14/2022 5:45:00 PM 21 69.8 0.515 8.31 2.74 9.69
8/14/2022 6:00:00 PM 21 69.8 0.514 8.31 2.68 9.59
8/14/2022 6:15:00 PM 20.99 69.782 0.514 8.3 2.72 9.49
8/14/2022 6:30:00 PM 20.98 69.764 0.513 8.3 2.72 9.39
8/14/2022 6:45:00 PM 20.96 69.728 0.513 8.29 2.73 9.24
8/14/2022 7:00:00 PM 20.94 69.692 0.513 8.27 2.81 9.07
8/14/2022 7:15:00 PM 20.89 69.602 0.513 8.26 2.94 8.91
8/14/2022 7:30:00 PM 20.83 69.494 0.513 8.24 2.99 8.79
8/14/2022 7:45:00 PM 20.78 69.404 0.513 8.23 3.39 8.69
8/14/2022 8:00:00 PM 20.73 69.314 0.512 8.21 4 8.59
8/14/2022 8:15:00 PM 20.67 69.206 0.513 8.19 3.38 8.51
8/14/2022 8:30:00 PM 20.61 69.098 0.513 8.18 3.75 8.43
8/14/2022 8:45:00 PM 20.54 68.972 0.513 8.16 4.1 8.37
8/14/2022 9:00:00 PM 20.48 68.864 0.513 8.15 4.3 8.31
8/14/2022 9:15:00 PM 20.42 68.756 0.513 8.13 4.95 8.26
8/14/2022 9:30:00 PM 20.38 68.684 0.514 8.12 4.9 8.23
8/14/2022 9:45:00 PM 20.34 68.612 0.514 8.1 5.37 8.2
8/14/2022 10:00:00 PM 20.31 68.558 0.514 8.09 5.49 8.17
8/14/2022 10:15:00 PM 20.28 68.504 0.515 8.08 5.84 8.15
8/14/2022 10:30:00 PM 20.25 68.45 0.515 8.06 5.58 8.12
8/14/2022 10:45:00 PM 20.23 68.414 0.516 8.05 6.07 8.1
8/14/2022 11:00:00 PM 20.19 68.342 0.517 8.04 6.1 8.1
8/14/2022 11:15:00 PM 20.16 68.288 0.518 8.03 5.87 8.09
8/14/2022 11:30:00 PM 20.13 68.234 0.518 8.02 6.21 8.08
8/14/2022 11:45:00 PM 20.08 68.144 0.519 8.01 6.12 8.08
8/15/2022 12:00:00 AM 20.04 68.07201 0.52 8 6.51 8.08
8/15/2022 12:15:00 AM 19.99 67.982 0.52 7.99 6.2 8.09
8/15/2022 12:30:00 AM 19.93 67.874 0.52 7.98 6.61 8.1
8/15/2022 12:45:00 AM 19.88 67.784 0.521 7.98 6.24 8.11
8/15/2022 1:00:00 AM 19.83 67.694 0.522 7.97 6.19 8.12
8/15/2022 1:15:00 AM 19.78 67.604 0.522 7.97 6.53 8.13
8/15/2022 1:30:00 AM 19.72 67.496 0.523 7.96 6.16 8.15
8/15/2022 1:45:00 AM 19.67 67.406 0.523 7.96 6.23 8.17
8/15/2022 2:00:00 AM 19.6 67.28 0.524 7.96 7.21 8.18
8/15/2022 2:15:00 AM 19.52 67.136 0.524 7.95 8.66 8.19
8/15/2022 2:30:00 AM 19.45 67.01 0.525 7.95 7.33 8.23
8/15/2022 2:45:00 AM 19.36 66.848 0.525 7.95 7.14 8.26
8/15/2022 3:00:00 AM 19.27 66.686 0.526 7.95 7.47 8.28
8/15/2022 3:15:00 AM 19.18 66.524 0.526 7.94 7.28 8.31
8/15/2022 3:30:00 AM 19.08 66.344 0.527 7.94 7.37 8.35
8/15/2022 3:45:00 AM 18.98 66.164 0.527 7.94 7.18 8.37
8/15/2022 4:00:00 AM 18.88 65.984 0.528 7.94 7.45 8.41
8/15/2022 4:15:00 AM 18.78 65.804 0.528 7.94 7.2 8.44
8/15/2022 4:30:00 AM 18.67 65.606 0.529 7.94 6.97 8.48
8/15/2022 4:45:00 AM 18.57 65.426 0.529 7.94 7.2 8.52
8/15/2022 5:00:00 AM 18.46 65.228 0.529 7.94 7.62 8.56
8/15/2022 5:15:00 AM 18.36 65.048 0.529 7.94 7.14 8.6
8/15/2022 5:30:00 AM 18.26 64.868 0.528 7.94 7.49 8.61
8/15/2022 5:45:00 AM 18.16 64.688 0.528 7.94 7.08 8.63
8/15/2022 6:00:00 AM 18.06 64.508 0.529 7.94 6.91 8.66
8/15/2022 6:15:00 AM 17.97 64.346 0.529 7.93 6.79 8.69
8/15/2022 6:30:00 AM 17.88 64.184 0.529 7.93 6.16 8.71
8/15/2022 6:45:00 AM 17.79 64.022 0.529 7.93 5.76 8.74
8/15/2022 7:00:00 AM 17.71 63.878 0.529 7.93 5.42 8.78
8/15/2022 7:15:00 AM 17.63 63.734 0.528 7.93 4.62 8.81
8/15/2022 7:30:00 AM 17.56 63.608 0.528 7.93 4.53 8.85
8/15/2022 7:45:00 AM 17.5 63.5 0.527 7.93 4.16 8.9
8/15/2022 8:00:00 AM 17.47 63.446 0.526 7.94 4.22 8.99
8/15/2022 8:15:00 AM 17.45 63.41 0.526 7.94 3.91 9.1
8/15/2022 8:30:00 AM 17.42 63.356 0.526 7.95 3.51 9.18
8/15/2022 8:45:00 AM 17.39 63.302 0.526 7.95 3.54 9.23
8/15/2022 9:00:00 AM 17.37 63.266 0.526 7.96 3.21 9.3
8/15/2022 9:15:00 AM 17.39 63.302 0.526 7.97 4.26 9.49
8/15/2022 9:30:00 AM 17.43 63.374 0.526 7.99 2.99 9.7
8/15/2022 9:45:00 AM 17.48 63.464 0.525 8.01 2.8 9.88
8/15/2022 10:00:00 AM 17.58 63.644 0.524 8.03 2.96 10.1
8/15/2022 10:15:00 AM 17.67 63.806 0.524 8.05 2.81 10.27
8/15/2022 10:30:00 AM 17.74 63.932 0.523 8.07 2.73 10.41
8/15/2022 10:45:00 AM 17.83 64.094 0.523 8.09 2.74 10.56
8/15/2022 11:00:00 AM 17.88 64.184 0.522 8.11 2.78 10.63
8/15/2022 11:15:00 AM 17.93 64.274 0.522 8.12 2.64 10.74
8/15/2022 11:30:00 AM 18.07 64.526 0.521 8.14 2.6 10.89
8/15/2022 11:45:00 AM 18.14 64.652 0.521 8.16 2.59 10.98
8/15/2022 12:00:00 PM 18.28 64.904 0.52 8.18 2.65 11.06
8/15/2022 12:15:00 PM 18.36 65.048 0.52 8.19 2.61 11.13
8/15/2022 12:30:00 PM 18.39 65.102 0.52 8.21 2.59 11.14
8/15/2022 12:45:00 PM 18.55 65.39 0.519 8.22 2.64 11.26
8/15/2022 1:00:00 PM 18.6 65.48 0.519 8.23 2.67 11.21
8/15/2022 1:15:00 PM 18.68 65.624 0.519 8.24 2.7 11.18
8/15/2022 1:30:00 PM 18.78 65.804 0.518 8.26 2.48 11.2
8/15/2022 1:45:00 PM 18.68 65.624 0.518 8.25 2.47 10.93
8/15/2022 2:00:00 PM 18.65 65.57 0.518 8.25 2.4 10.7
8/15/2022 2:15:00 PM 18.68 65.624 0.518 8.25 2.58 10.69
8/15/2022 2:30:00 PM 18.71 65.67799 0.518 8.25 2.61 10.68
8/15/2022 2:45:00 PM 18.84 65.912 0.517 8.27 2.46 10.87
8/15/2022 3:00:00 PM 18.99 66.182 0.516 8.29 2.61 10.88
8/15/2022 3:15:00 PM 18.99 66.182 0.515 8.29 2.92 10.64
8/15/2022 3:30:00 PM 18.98 66.164 0.515 8.28 2.44 10.41
8/15/2022 3:45:00 PM 18.96 66.128 0.515 8.27 2.53 10.21
8/15/2022 4:00:00 PM 18.99 66.182 0.514 8.27 2.45 10.16
8/15/2022 4:15:00 PM 19.06 66.308 0.513 8.27 2.49 10.19
8/15/2022 4:30:00 PM 19.14 66.452 0.512 8.28 3.1 10.25
8/15/2022 4:45:00 PM 19.21 66.578 0.511 8.28 2.6 10.27
8/15/2022 5:00:00 PM 19.25 66.65 0.511 8.29 2.56 10.27
8/15/2022 5:15:00 PM 19.27 66.686 0.511 8.28 2.85 10.19
8/15/2022 5:30:00 PM 19.29 66.722 0.51 8.28 2.86 10.12
8/15/2022 5:45:00 PM 19.3 66.74 0.51 8.27 2.94 9.96
8/15/2022 6:00:00 PM 19.32 66.776 0.51 8.26 2.73 9.83
8/15/2022 6:15:00 PM 19.36 66.848 0.51 8.25 2.82 9.67
8/15/2022 6:30:00 PM 19.39 66.902 0.51 8.24 3.16 9.49
8/15/2022 6:45:00 PM 19.39 66.902 0.511 8.21 2.86 9.28
8/15/2022 7:00:00 PM 19.39 66.902 0.511 8.19 3.16 9.12
8/15/2022 7:15:00 PM 19.39 66.902 0.511 8.18 3.23 9
8/15/2022 7:30:00 PM 19.39 66.902 0.512 8.17 3.13 8.91
8/15/2022 7:45:00 PM 19.39 66.902 0.512 8.16 3.04 8.84
8/15/2022 8:00:00 PM 19.4 66.92 0.511 8.15 3.23 8.78
8/15/2022 8:15:00 PM 19.41 66.938 0.511 8.14 3.6 8.71
8/15/2022 8:30:00 PM 19.43 66.974 0.511 8.13 3.78 8.64
8/15/2022 8:45:00 PM 19.44 66.992 0.512 8.12 4.47 8.59
8/15/2022 9:00:00 PM 19.44 66.992 0.512 8.1 4.82 8.54
8/15/2022 9:15:00 PM 19.44 66.992 0.513 8.09 5.12 8.5
8/15/2022 9:30:00 PM 19.43 66.974 0.513 8.08 5.8 8.47
8/15/2022 9:45:00 PM 19.42 66.956 0.514 8.07 5.36 8.46
8/15/2022 10:00:00 PM 19.4 66.92 0.514 8.06 5.67 8.43
8/15/2022 10:15:00 PM 19.36 66.848 0.514 8.05 5.53 8.42
8/15/2022 10:30:00 PM 19.32 66.776 0.515 8.05 5.65 8.41
8/15/2022 10:45:00 PM 19.28 66.704 0.515 8.03 5.88 8.4
8/15/2022 11:00:00 PM 19.24 66.632 0.516 8.03 6.15 8.39
8/15/2022 11:15:00 PM 19.19 66.542 0.516 8.01 10.63 8.39
8/15/2022 11:30:00 PM 19.14 66.452 0.517 8.01 6.67 8.4
8/15/2022 11:45:00 PM 19.08 66.344 0.517 8 7.41 8.41
8/16/2022 12:00:00 AM 19.02 66.236 0.517 7.99 7.81 8.42
8/16/2022 12:15:00 AM 18.96 66.128 0.518 7.99 7.36 8.43
8/16/2022 12:30:00 AM 18.89 66.002 0.518 7.98 7.54 8.44
8/16/2022 12:45:00 AM 18.82 65.876 0.519 7.98 7.62 8.45
8/16/2022 1:00:00 AM 18.75 65.75 0.519 7.97 7.06 8.46
8/16/2022 1:15:00 AM 18.67 65.606 0.519 7.97 7 8.48
8/16/2022 1:30:00 AM 18.6 65.48 0.52 7.96 7.12 8.5
8/16/2022 1:45:00 AM 18.52 65.336 0.52 7.96 6.95 8.51
8/16/2022 2:00:00 AM 18.45 65.21 0.52 7.95 7.59 8.52
8/16/2022 2:15:00 AM 18.37 65.066 0.52 7.95 7.01 8.54
8/16/2022 2:30:00 AM 18.29 64.922 0.52 7.95 6.68 8.55
8/16/2022 2:45:00 AM 18.21 64.778 0.521 7.94 7.04 8.57
8/16/2022 3:00:00 AM 18.13 64.634 0.521 7.94 7.57 8.59
8/16/2022 3:15:00 AM 18.05 64.49 0.522 7.94 7.58 8.6
8/16/2022 3:30:00 AM 17.96 64.328 0.522 7.93 7.9 8.62
8/16/2022 3:45:00 AM 17.86 64.148 0.523 7.93 7.91 8.64
8/16/2022 4:00:00 AM 17.76 63.968 0.523 7.93 7.97 8.67
8/16/2022 4:15:00 AM 17.66 63.788 0.523 7.93 7.56 8.7
8/16/2022 4:30:00 AM 17.56 63.608 0.523 7.93 8.17 8.73
8/16/2022 4:45:00 AM 17.46 63.428 0.524 7.92 7.57 8.76
8/16/2022 5:00:00 AM 17.37 63.266 0.523 7.92 7.21 8.79
8/16/2022 5:15:00 AM 17.27 63.086 0.524 7.93 7.17 8.82
8/16/2022 5:30:00 AM 17.18 62.924 0.524 7.93 7.06 8.85
8/16/2022 5:45:00 AM 17.09 62.762 0.524 7.93 7.27 8.88
8/16/2022 6:00:00 AM 17 62.6 0.524 7.93 7.4 8.91
8/16/2022 6:15:00 AM 16.92 62.456 0.524 7.93 6.96 8.94
8/16/2022 6:30:00 AM 16.85 62.33 0.524 7.93 6.18 8.97
8/16/2022 6:45:00 AM 16.78 62.204 0.524 7.93 6.12 9
8/16/2022 7:00:00 AM 16.71 62.078 0.524 7.93 5.62 9.06
8/16/2022 7:15:00 AM 16.66 61.988 0.524 7.93 5.12 9.12
8/16/2022 7:30:00 AM 16.61 61.898 0.524 7.94 4.45 9.17
8/16/2022 7:45:00 AM 16.58 61.844 0.524 7.95 4.54 9.25
8/16/2022 8:00:00 AM 16.57 61.826 0.523 7.95 4.08 9.33
8/16/2022 8:15:00 AM 16.56 61.808 0.523 7.96 3.97 9.42
8/16/2022 8:30:00 AM 16.55 61.79 0.523 7.97 3.84 9.51
8/16/2022 8:45:00 AM 16.56 61.808 0.523 7.97 3.56 9.6
8/16/2022 9:00:00 AM 16.61 61.898 0.523 7.99 3.38 9.77
8/16/2022 9:15:00 AM 16.69 62.042 0.523 8 3.47 9.97
8/16/2022 9:30:00 AM 16.74 62.132 0.523 8.02 3.11 10.11
8/16/2022 9:45:00 AM 16.85 62.33 0.522 8.04 2.98 10.26
8/16/2022 10:00:00 AM 16.96 62.528 0.522 8.06 2.99 10.33
8/16/2022 10:15:00 AM 17 62.6 0.522 8.07 2.89 10.35
8/16/2022 10:30:00 AM 17.09 62.762 0.522 8.08 2.8 10.49
8/16/2022 10:45:00 AM 17.17 62.906 0.521 8.1 2.85 10.64
8/16/2022 11:00:00 AM 17.29 63.122 0.521 8.12 2.86 10.79
8/16/2022 11:15:00 AM 17.42 63.356 0.521 8.14 2.78 10.91
8/16/2022 11:30:00 AM 17.52 63.536 0.521 8.15 3.12 10.95
8/16/2022 11:45:00 AM 17.71 63.878 0.52 8.17 2.75 11.04
8/16/2022 12:00:00 PM 17.88 64.184 0.52 8.18 2.61 11.13
8/16/2022 12:15:00 PM 18 64.4 0.519 8.2 2.7 11.21
8/16/2022 12:30:00 PM 18.26 64.868 0.519 8.22 2.57 11.35
8/16/2022 12:45:00 PM 18.36 65.048 0.518 8.24 2.68 11.31
8/16/2022 1:00:00 PM 18.72 65.696 0.518 8.25 2.64 11.41
8/16/2022 1:15:00 PM 18.78 65.804 0.517 8.27 2.68 11.38
8/16/2022 1:30:00 PM 19.05 66.29 0.517 8.28 2.77 11.5
8/16/2022 1:45:00 PM 19.16 66.488 0.516 8.3 2.67 11.49
8/16/2022 2:00:00 PM 19.25 66.65 0.516 8.3 3.49 11.38
8/16/2022 2:15:00 PM 19.48 67.064 0.515 8.32 2.74 11.4
8/16/2022 2:30:00 PM 19.67 67.406 0.514 8.33 2.73 11.34
8/16/2022 2:45:00 PM 19.84 67.712 0.514 8.33 2.61 11.24
8/16/2022 3:00:00 PM 20.04 68.07201 0.513 8.34 2.44 11.15
8/16/2022 3:15:00 PM 20.23 68.414 0.513 8.34 2.65 11.02
8/16/2022 3:30:00 PM 20.34 68.612 0.512 8.35 2.39 10.86
8/16/2022 3:45:00 PM 20.43 68.774 0.511 8.35 2.58 10.75
8/16/2022 4:00:00 PM 20.52 68.936 0.511 8.35 2.75 10.59
8/16/2022 4:15:00 PM 20.6 69.08 0.51 8.35 2.63 10.43
8/16/2022 4:30:00 PM 20.65 69.17 0.51 8.35 2.63 10.29
8/16/2022 4:45:00 PM 20.73 69.314 0.509 8.35 2.67 10.17
8/16/2022 5:00:00 PM 20.76 69.368 0.509 8.35 2.62 9.98
8/16/2022 5:15:00 PM 20.76 69.368 0.508 8.34 2.75 9.79
8/16/2022 5:30:00 PM 20.75 69.35 0.507 8.33 2.73 9.63
8/16/2022 5:45:00 PM 20.7 69.26 0.507 8.32 2.58 9.5
8/16/2022 6:00:00 PM 20.69 69.242 0.507 8.31 2.7 9.37
8/16/2022 6:15:00 PM 20.66 69.188 0.507 8.3 2.87 9.26
8/16/2022 6:30:00 PM 20.63 69.134 0.507 8.29 2.78 9.14
8/16/2022 6:45:00 PM 20.6 69.08 0.507 8.28 2.85 9.01
8/16/2022 7:00:00 PM 20.57 69.026 0.507 8.26 3.2 8.89
8/16/2022 7:15:00 PM 20.53 68.954 0.507 8.25 2.96 8.8
8/16/2022 7:30:00 PM 20.49 68.882 0.507 8.23 2.82 8.71
8/16/2022 7:45:00 PM 20.43 68.774 0.507 8.22 2.92 8.62
8/16/2022 8:00:00 PM 20.36 68.648 0.507 8.2 3.04 8.54
8/16/2022 8:15:00 PM 20.29 68.522 0.508 8.18 3.38 8.47
8/16/2022 8:30:00 PM 20.22 68.396 0.508 8.17 3.68 8.41
8/16/2022 8:45:00 PM 20.16 68.288 0.509 8.15 3.91 8.35
8/16/2022 9:00:00 PM 20.1 68.18 0.509 8.13 3.95 8.3
8/16/2022 9:15:00 PM 20.04 68.07201 0.51 8.11 5.61 8.2
8/16/2022 9:30:00 PM 19.99 67.982 0.51 8.1 5.58 8.18
8/16/2022 9:45:00 PM 19.94 67.892 0.511 8.08 6.33 8.14
8/16/2022 10:00:00 PM 19.88 67.784 0.512 8.07 6.2 8.16
8/16/2022 10:15:00 PM 19.83 67.694 0.512 8.06 5.99 8.08
8/16/2022 10:30:00 PM 19.78 67.604 0.513 8.05 6.59 8.12
8/16/2022 10:45:00 PM 19.72 67.496 0.514 8.04 6.54 8.07
8/16/2022 11:00:00 PM 19.66 67.388 0.514 8.03 6.84 8.07
8/16/2022 11:15:00 PM 19.6 67.28 0.515 8.02 6.39 8.12
8/16/2022 11:30:00 PM 19.54 67.172 0.515 8.01 6.78 8.05
8/16/2022 11:45:00 PM 19.47 67.046 0.515 8.01 6.52 8.13
8/17/2022 12:00:00 AM 19.41 66.938 0.516 8 6.71 8.12
8/17/2022 12:15:00 AM 19.36 66.848 0.516 8 7.06 8.16
8/17/2022 12:30:00 AM 19.29 66.722 0.517 7.99 6.26 8.18
8/17/2022 12:45:00 AM 19.22 66.596 0.517 7.98 6.32 8.19
8/17/2022 1:00:00 AM 19.16 66.488 0.518 7.98 6.57 8.21
8/17/2022 1:15:00 AM 19.09 66.362 0.518 7.97 6.91 8.24
8/17/2022 1:30:00 AM 19.01 66.218 0.519 7.97 7.19 8.23
8/17/2022 1:45:00 AM 18.92 66.056 0.52 7.97 6.94 8.27
8/17/2022 2:00:00 AM 18.82 65.876 0.52 7.96 6.94 8.28
8/17/2022 2:15:00 AM 18.74 65.732 0.52 7.96 7.6 8.32
8/17/2022 2:30:00 AM 18.65 65.57 0.521 7.96 7.14 8.32
8/17/2022 2:45:00 AM 18.56 65.408 0.521 7.96 7.27 8.35
8/17/2022 3:00:00 AM 18.47 65.246 0.522 7.95 7.26 8.39
8/17/2022 3:15:00 AM 18.37 65.066 0.522 7.95 7.27 8.41
8/17/2022 3:30:00 AM 18.27 64.886 0.523 7.95 6.42 8.45
8/17/2022 3:45:00 AM 18.17 64.706 0.523 7.95 7.3 8.47
8/17/2022 4:00:00 AM 18.05 64.49 0.524 7.95 7.05 8.51
8/17/2022 4:15:00 AM 17.95 64.31 0.524 7.95 7.96 8.54
8/17/2022 4:30:00 AM 17.83 64.094 0.525 7.95 7.49 8.59
8/17/2022 4:45:00 AM 17.71 63.878 0.525 7.95 6.72 8.61
8/17/2022 5:00:00 AM 17.58 63.644 0.526 7.95 7.45 8.66
8/17/2022 5:15:00 AM 17.46 63.428 0.526 7.95 7.1 8.7
8/17/2022 5:30:00 AM 17.34 63.212 0.527 7.95 7.48 8.74
8/17/2022 5:45:00 AM 17.22 62.996 0.527 7.95 6.74 8.78
8/17/2022 6:00:00 AM 17.1 62.78 0.527 7.95 6.71 8.79
8/17/2022 6:15:00 AM 16.99 62.582 0.527 7.95 6.41 8.84
8/17/2022 6:30:00 AM 16.87 62.366 0.528 7.95 5.95 8.89
8/17/2022 6:45:00 AM 16.76 62.168 0.528 7.95 5.67 8.95
8/17/2022 7:00:00 AM 16.65 61.97 0.528 7.95 4.9 9
8/17/2022 7:15:00 AM 16.56 61.808 0.528 7.95 4.86 9.07
8/17/2022 7:30:00 AM 16.48 61.664 0.528 7.96 4.44 9.16
8/17/2022 7:45:00 AM 16.39 61.502 0.528 7.96 4.13 9.21
8/17/2022 8:00:00 AM 16.33 61.394 0.527 7.96 3.88 9.27
8/17/2022 8:15:00 AM 16.31 61.358 0.527 7.97 3.48 9.39
8/17/2022 8:30:00 AM 16.28 61.304 0.527 7.98 3.3 9.42
8/17/2022 8:45:00 AM 16.29 61.322 0.527 7.98 3.26 9.52
8/17/2022 9:00:00 AM 16.31 61.358 0.527 7.99 3.33 9.58
8/17/2022 9:15:00 AM 16.33 61.394 0.527 8 2.92 9.66
8/17/2022 9:30:00 AM 16.38 61.484 0.527 8.01 3.03 9.75
8/17/2022 9:45:00 AM 16.45 61.61 0.527 8.02 2.92 9.86
8/17/2022 10:00:00 AM 16.54 61.772 0.527 8.03 2.81 9.98
8/17/2022 10:15:00 AM 16.64 61.952 0.527 8.04 2.8 10.08
8/17/2022 10:30:00 AM 16.75 62.15 0.526 8.06 2.84 10.17
8/17/2022 10:45:00 AM 16.88 62.384 0.526 8.07 2.96 10.31
8/17/2022 11:00:00 AM 17.03 62.654 0.526 8.09 2.76 10.51
8/17/2022 11:15:00 AM 17.21 62.978 0.525 8.11 2.88 10.68
8/17/2022 11:30:00 AM 17.36 63.248 0.525 8.14 2.7 10.89
8/17/2022 11:45:00 AM 17.39 63.302 0.524 8.15 2.89 10.92
8/17/2022 12:00:00 PM 17.49 63.482 0.524 8.17 2.64 10.97
8/17/2022 12:15:00 PM 17.51 63.518 0.524 8.18 2.8 10.93
8/17/2022 12:30:00 PM 17.51 63.518 0.524 8.19 2.66 10.96
8/17/2022 12:45:00 PM 17.64 63.752 0.523 8.2 2.62 11.12
8/17/2022 1:00:00 PM 17.81 64.058 0.523 8.22 2.69 11.24
8/17/2022 1:15:00 PM 17.83 64.094 0.522 8.24 2.73 11.28
8/17/2022 1:30:00 PM 17.91 64.238 0.522 8.25 2.65 11.29
8/17/2022 1:45:00 PM 18.25 64.85 0.522 8.27 2.73 11.46
8/17/2022 2:00:00 PM 18.04 64.472 0.522 8.26 2.59 10.96
8/17/2022 2:15:00 PM 18.06 64.508 0.522 8.25 2.6 10.67
8/17/2022 2:30:00 PM 17.99 64.382 0.523 8.24 2.59 10.36
8/17/2022 2:45:00 PM 17.89 64.202 0.523 8.22 2.6 10.11
8/17/2022 3:00:00 PM 17.87 64.166 0.522 8.22 2.59 9.98
8/17/2022 3:15:00 PM 17.88 64.184 0.521 8.22 2.7 9.99
8/17/2022 3:30:00 PM 17.91 64.238 0.521 8.23 2.58 10.05
8/17/2022 3:45:00 PM 17.97 64.346 0.52 8.24 2.85 10.18
8/17/2022 4:00:00 PM 18.02 64.436 0.519 8.25 2.76 10.21
8/17/2022 4:15:00 PM 18.05 64.49 0.518 8.26 2.61 10.21
8/17/2022 4:30:00 PM 18.08 64.544 0.517 8.26 2.59 10.14
8/17/2022 4:45:00 PM 18.13 64.634 0.516 8.27 2.54 10.15
8/17/2022 5:00:00 PM 18.21 64.778 0.515 8.28 2.6 10.17
8/17/2022 5:15:00 PM 18.3 64.94 0.514 8.28 2.69 10.22
8/17/2022 5:30:00 PM 18.45 65.21 0.513 8.29 3.06 10.25
8/17/2022 5:45:00 PM 18.56 65.408 0.513 8.29 2.93 10.17
8/17/2022 6:00:00 PM 18.59 65.462 0.513 8.28 2.83 9.98
8/17/2022 6:15:00 PM 18.59 65.462 0.513 8.27 3.24 9.78
8/17/2022 6:30:00 PM 18.6 65.48 0.513 8.25 3.01 9.62
8/17/2022 6:45:00 PM 18.6 65.48 0.513 8.24 2.89 9.47
8/17/2022 7:00:00 PM 18.62 65.516 0.513 8.23 3.04 9.35
8/17/2022 7:15:00 PM 18.65 65.57 0.512 8.23 3.37 9.26
8/17/2022 7:30:00 PM 18.7 65.66 0.513 8.22 3.14 9.16
8/17/2022 7:45:00 PM 18.72 65.696 0.513 8.2 3.32 9.05
8/17/2022 8:00:00 PM 18.74 65.732 0.514 8.18 3.48 8.95
8/17/2022 8:15:00 PM 18.75 65.75 0.514 8.17 3.91 8.85
8/17/2022 8:30:00 PM 18.76 65.768 0.515 8.15 4.02 8.78
8/17/2022 8:45:00 PM 18.77 65.786 0.515 8.14 4.36 8.71
8/17/2022 9:00:00 PM 18.78 65.804 0.515 8.12 4.48 8.66
8/17/2022 9:15:00 PM 18.79 65.82201 0.515 8.11 4.95 8.61
8/17/2022 9:30:00 PM 18.78 65.804 0.516 8.1 5.93 8.56
8/17/2022 9:45:00 PM 18.77 65.786 0.516 8.09 5.78 8.53
8/17/2022 10:00:00 PM 18.75 65.75 0.517 8.08 5.55 8.51
8/17/2022 10:15:00 PM 18.73 65.714 0.518 8.06 5.64 8.49
8/17/2022 10:30:00 PM 18.71 65.67799 0.518 8.05 6.01 8.48
8/17/2022 10:45:00 PM 18.67 65.606 0.518 8.04 6.66 8.48
8/17/2022 11:00:00 PM 18.63 65.534 0.519 8.04 7.14 8.48
8/17/2022 11:15:00 PM 18.59 65.462 0.519 8.03 7.51 8.48
8/17/2022 11:30:00 PM 18.52 65.336 0.519 8.02 7.2 8.5
8/17/2022 11:45:00 PM 18.44 65.192 0.519 8.02 7.32 8.51
8/18/2022 12:00:00 AM 18.37 65.066 0.519 8.01 6.86 8.53
8/18/2022 12:15:00 AM 18.29 64.922 0.52 8.01 6.84 8.55
8/18/2022 12:30:00 AM 18.2 64.76 0.52 8 6.52 8.58
8/18/2022 12:45:00 AM 18.11 64.598 0.52 8 7.03 8.6
8/18/2022 1:00:00 AM 18.02 64.436 0.52 8 7.69 8.62
8/18/2022 1:15:00 AM 17.93 64.274 0.521 7.99 7.42 8.64
8/18/2022 1:30:00 AM 17.84 64.112 0.521 7.99 7.07 8.65
8/18/2022 1:45:00 AM 17.76 63.968 0.521 7.99 6.89 8.67
8/18/2022 2:00:00 AM 17.68 63.824 0.521 7.98 8.3 8.69
8/18/2022 2:15:00 AM 17.6 63.68 0.521 7.98 8.21 8.68
8/18/2022 2:30:00 AM 17.52 63.536 0.521 7.98 8.03 8.68
8/18/2022 2:45:00 AM 17.44 63.392 0.521 7.97 7.36 8.74
8/18/2022 3:00:00 AM 17.37 63.266 0.521 7.97 7.53 8.75
8/18/2022 3:15:00 AM 17.29 63.122 0.521 7.97 7.79 8.77
8/18/2022 3:30:00 AM 17.21 62.978 0.521 7.96 7.83 8.79
8/18/2022 3:45:00 AM 17.13 62.834 0.521 7.96 7.89 8.8
8/18/2022 4:00:00 AM 17.05 62.69 0.521 7.96 8.27 8.82
8/18/2022 4:15:00 AM 16.96 62.528 0.521 7.96 8.45 8.84
8/18/2022 4:30:00 AM 16.87 62.366 0.522 7.96 7.86 8.87
8/18/2022 4:45:00 AM 16.78 62.204 0.522 7.95 8.6 8.9
8/18/2022 5:00:00 AM 16.68 62.024 0.523 7.95 8.61 8.92
8/18/2022 5:15:00 AM 16.58 61.844 0.523 7.95 9.55 8.94
8/18/2022 5:30:00 AM 16.48 61.664 0.524 7.95 8.76 8.98
8/18/2022 5:45:00 AM 16.38 61.484 0.524 7.95 8.05 9.01
8/18/2022 6:00:00 AM 16.28 61.304 0.525 7.95 8.07 9.03
8/18/2022 6:15:00 AM 16.18 61.124 0.525 7.95 7.33 9.07
8/18/2022 6:30:00 AM 16.08 60.944 0.526 7.95 6.51 9.12
8/18/2022 6:45:00 AM 15.99 60.782 0.526 7.95 6.06 9.15
8/18/2022 7:00:00 AM 15.9 60.62 0.526 7.95 5.76 9.21
8/18/2022 7:15:00 AM 15.82 60.476 0.526 7.96 5.29 9.26
8/18/2022 7:30:00 AM 15.75 60.35 0.526 7.96 4.75 9.3
8/18/2022 7:45:00 AM 15.68 60.224 0.526 7.96 4.41 9.36
8/18/2022 8:00:00 AM 15.63 60.134 0.526 7.97 4.09 9.41
8/18/2022 8:15:00 AM 15.59 60.062 0.526 7.97 3.94 9.46
8/18/2022 8:30:00 AM 15.57 60.026 0.526 7.98 3.71 9.52
8/18/2022 8:45:00 AM 15.57 60.026 0.526 7.99 3.48 9.58
8/18/2022 9:00:00 AM 15.59 60.062 0.526 7.99 3.4 9.66
8/18/2022 9:15:00 AM 15.63 60.134 0.526 8 3.33 9.73
8/18/2022 9:30:00 AM 15.69 60.242 0.526 8.01 3.29 9.82
8/18/2022 9:45:00 AM 15.77 60.386 0.527 8.02 3.38 9.92
8/18/2022 10:00:00 AM 15.89 60.602 0.527 8.03 3.19 10.03
8/18/2022 10:15:00 AM 15.99 60.782 0.527 8.04 3.16 10.11
8/18/2022 10:30:00 AM 16.1 60.98 0.527 8.05 3.09 10.2
8/18/2022 10:45:00 AM 16.24 61.232 0.527 8.07 3.14 10.28
8/18/2022 11:00:00 AM 16.38 61.484 0.526 8.08 2.84 10.38
8/18/2022 11:15:00 AM 16.54 61.772 0.526 8.09 2.89 10.46
8/18/2022 11:30:00 AM 16.69 62.042 0.526 8.11 2.91 10.54
8/18/2022 11:45:00 AM 16.88 62.384 0.525 8.12 2.85 10.63
8/18/2022 12:00:00 PM 17.08 62.744 0.525 8.13 2.77 10.72
8/18/2022 12:15:00 PM 17.35 63.23 0.524 8.15 2.81 10.84
8/18/2022 12:30:00 PM 17.61 63.698 0.524 8.17 2.8 10.94
8/18/2022 12:45:00 PM 17.89 64.202 0.523 8.19 2.73 11.03
8/18/2022 1:00:00 PM 18.15 64.67 0.523 8.2 2.75 11.09
8/18/2022 1:15:00 PM 18.36 65.048 0.522 8.22 2.72 11.12
8/18/2022 1:30:00 PM 18.53 65.354 0.522 8.23 2.77 11.12
8/18/2022 1:45:00 PM 18.76 65.768 0.521 8.24 2.74 11.13
8/18/2022 2:00:00 PM 18.97 66.146 0.521 8.25 2.75 11.15
8/18/2022 2:15:00 PM 18.89 66.002 0.521 8.26 2.61 10.9
8/18/2022 2:30:00 PM 19.18 66.524 0.52 8.27 2.74 11.02
8/18/2022 2:45:00 PM 19.26 66.668 0.52 8.27 2.75 10.91
8/18/2022 3:00:00 PM 19.45 67.01 0.519 8.28 3.14 10.87
8/18/2022 3:15:00 PM 19.66 67.388 0.518 8.3 2.75 10.84
8/18/2022 3:30:00 PM 19.75 67.55 0.517 8.3 2.85 10.7
8/18/2022 3:45:00 PM 19.76 67.568 0.516 8.3 2.69 10.52
8/18/2022 4:00:00 PM 19.82 67.676 0.516 8.3 2.84 10.36
8/18/2022 4:15:00 PM 19.98 67.964 0.515 8.3 2.59 10.28
8/18/2022 4:30:00 PM 20.11 68.198 0.514 8.31 2.76 10.17
8/18/2022 4:45:00 PM 20.26 68.468 0.513 8.31 3.03 10.09
8/18/2022 5:00:00 PM 20.33 68.594 0.512 8.31 2.68 9.97
8/18/2022 5:15:00 PM 20.44 68.792 0.511 8.31 2.94 9.87
8/18/2022 5:30:00 PM 20.49 68.882 0.51 8.32 2.94 9.78
8/18/2022 5:45:00 PM 20.47 68.846 0.51 8.3 3.14 9.56
8/18/2022 6:00:00 PM 20.48 68.864 0.51 8.29 3.09 9.34
8/18/2022 6:15:00 PM 20.51 68.918 0.509 8.28 3.25 9.24
8/18/2022 6:30:00 PM 20.54 68.972 0.509 8.27 3.27 9.14
8/18/2022 6:45:00 PM 20.59 69.062 0.508 8.27 3.37 9.07
8/18/2022 7:00:00 PM 20.62 69.116 0.508 8.26 3.73 9.02
8/18/2022 7:15:00 PM 20.61 69.098 0.508 8.25 3.52 8.88
8/18/2022 7:30:00 PM 20.58 69.044 0.508 8.23 3.45 8.75
8/18/2022 7:45:00 PM 20.54 68.972 0.509 8.21 3.3 8.63
8/18/2022 8:00:00 PM 20.49 68.882 0.509 8.19 3.46 8.51
8/18/2022 8:15:00 PM 20.44 68.792 0.51 8.17 3.87 8.43
8/18/2022 8:30:00 PM 20.4 68.72 0.51 8.15 4.3 8.34
8/18/2022 8:45:00 PM 20.36 68.648 0.51 8.13 4.84 8.28
8/18/2022 9:00:00 PM 20.33 68.594 0.511 8.11 5.27 8.22
8/18/2022 9:15:00 PM 20.3 68.54 0.511 8.1 5.72 8.16
8/18/2022 9:30:00 PM 20.28 68.504 0.512 8.08 5.81 8.12
8/18/2022 9:45:00 PM 20.25 68.45 0.512 8.06 6.25 8.05
8/18/2022 10:00:00 PM 20.24 68.432 0.512 8.05 6.11 8.03
8/18/2022 10:15:00 PM 20.23 68.414 0.513 8.04 6.96 8.01
8/18/2022 10:30:00 PM 20.21 68.378 0.513 8.03 6.98 7.99
8/18/2022 10:45:00 PM 20.19 68.342 0.514 8.02 6.96 7.97
8/18/2022 11:00:00 PM 20.16 68.288 0.514 8.01 7.23 7.94
8/18/2022 11:15:00 PM 20.13 68.234 0.515 8 9.1 7.94
8/18/2022 11:30:00 PM 20.09 68.162 0.516 7.98 8.43 7.94
8/18/2022 11:45:00 PM 20.05 68.09 0.517 7.98 7.65 7.93
8/19/2022 12:00:00 AM 19.98 67.964 0.517 7.97 7.12 7.95
8/19/2022 12:15:00 AM 19.92 67.856 0.518 7.97 7.23 7.97
8/19/2022 12:30:00 AM 19.85 67.73 0.518 7.96 7.01 7.98
8/19/2022 12:45:00 AM 19.77 67.586 0.519 7.96 6.76 8
8/19/2022 1:00:00 AM 19.7 67.46 0.519 7.95 7.01 8.02
8/19/2022 1:15:00 AM 19.62 67.316 0.519 7.95 6.75 8.04
8/19/2022 1:30:00 AM 19.53 67.154 0.52 7.95 7.7 8.05
8/19/2022 1:45:00 AM 19.44 66.992 0.52 7.94 8.34 8.07
8/19/2022 2:00:00 AM 19.35 66.83 0.52 7.94 8.55 8.1
8/19/2022 2:15:00 AM 19.26 66.668 0.521 7.94 8.72 8.14
8/19/2022 2:30:00 AM 19.15 66.47 0.521 7.94 9.05 8.18
8/19/2022 2:45:00 AM 19.05 66.29 0.522 7.94 8.95 8.22
8/19/2022 3:00:00 AM 18.93 66.074 0.522 7.94 9.4 8.26
8/19/2022 3:15:00 AM 18.81 65.858 0.522 7.94 9.11 8.29
8/19/2022 3:30:00 AM 18.69 65.642 0.523 7.94 9.03 8.33
8/19/2022 3:45:00 AM 18.57 65.426 0.523 7.94 9.04 8.38
8/19/2022 4:00:00 AM 18.45 65.21 0.524 7.94 10.02 8.43
8/19/2022 4:15:00 AM 18.32 64.976 0.524 7.94 9.82 8.46
8/19/2022 4:30:00 AM 18.2 64.76 0.525 7.94 9.61 8.5
8/19/2022 4:45:00 AM 18.07 64.526 0.525 7.94 9.59 8.54
8/19/2022 5:00:00 AM 17.94 64.292 0.526 7.94 8.42 8.57
8/19/2022 5:15:00 AM 17.81 64.058 0.526 7.94 10.04 8.62
8/19/2022 5:30:00 AM 17.68 63.824 0.526 7.94 9.27 8.66
8/19/2022 5:45:00 AM 17.55 63.59 0.527 7.94 8.83 8.71
8/19/2022 6:00:00 AM 17.42 63.356 0.527 7.94 9.22 8.76
8/19/2022 6:15:00 AM 17.3 63.14 0.527 7.94 8.64 8.8
8/19/2022 6:30:00 AM 17.18 62.924 0.527 7.94 10.19 8.84
8/19/2022 6:45:00 AM 17.06 62.708 0.527 7.94 6.8 8.89
8/19/2022 7:00:00 AM 16.94 62.492 0.527 7.95 6.3 8.95
8/19/2022 7:15:00 AM 16.84 62.312 0.526 7.95 5.61 9.01
8/19/2022 7:30:00 AM 16.74 62.132 0.526 7.95 5.17 9.07
8/19/2022 7:45:00 AM 16.66 61.988 0.526 7.96 6.06 9.12
8/19/2022 8:00:00 AM 16.58 61.844 0.526 7.96 4.96 9.17
8/19/2022 8:15:00 AM 16.52 61.736 0.527 7.96 4.41 9.25
8/19/2022 8:30:00 AM 16.49 61.682 0.527 7.97 3.83 9.31
8/19/2022 8:45:00 AM 16.47 61.646 0.527 7.97 3.97 9.38
8/19/2022 9:00:00 AM 16.47 61.646 0.527 7.98 3.5 9.46
8/19/2022 9:15:00 AM 16.49 61.682 0.528 7.99 3.56 9.55
8/19/2022 9:30:00 AM 16.53 61.754 0.528 8 3.15 9.63
8/19/2022 9:45:00 AM 16.59 61.862 0.528 8 3.19 9.75
8/19/2022 10:00:00 AM 16.69 62.042 0.528 8.02 3.08 9.88
8/19/2022 10:15:00 AM 16.79 62.222 0.528 8.03 2.96 9.97
8/19/2022 10:30:00 AM 16.9 62.42 0.528 8.04 2.98 10.06
8/19/2022 10:45:00 AM 17.05 62.69 0.528 8.05 4.63 10.17
8/19/2022 11:00:00 AM 17.19 62.942 0.528 8.06 3.13 10.24
8/19/2022 11:15:00 AM 17.36 63.248 0.527 8.08 3 10.33
8/19/2022 11:30:00 AM 17.54 63.572 0.527 8.09 2.9 10.43
8/19/2022 11:45:00 AM 17.74 63.932 0.527 8.11 2.96 10.55
8/19/2022 12:00:00 PM 17.95 64.31 0.527 8.13 3.09 10.66
8/19/2022 12:15:00 PM 18.21 64.778 0.526 8.15 2.98 10.78
8/19/2022 12:30:00 PM 18.53 65.354 0.525 8.17 2.85 10.88
8/19/2022 12:45:00 PM 18.84 65.912 0.525 8.19 2.97 11.01
8/19/2022 1:00:00 PM 19.06 66.308 0.524 8.2 2.87 11.04
8/19/2022 1:15:00 PM 19.31 66.758 0.524 8.21 2.99 11.08
8/19/2022 1:30:00 PM 19.53 67.154 0.523 8.23 2.88 11.11
8/19/2022 1:45:00 PM 19.72 67.496 0.522 8.24 2.74 11.13
8/19/2022 2:00:00 PM 19.93 67.874 0.522 8.26 2.96 11.14
8/19/2022 2:15:00 PM 20 68 0.522 8.26 2.72 11
8/19/2022 2:30:00 PM 20.2 68.36 0.521 8.27 2.79 11.02
8/19/2022 2:45:00 PM 20.38 68.684 0.52 8.28 3.2 10.99
8/19/2022 3:00:00 PM 20.51 68.918 0.519 8.29 2.86 10.92
8/19/2022 3:15:00 PM 20.65 69.17 0.518 8.3 2.99 10.84
8/19/2022 3:30:00 PM 20.71 69.278 0.518 8.3 3.08 10.7
8/19/2022 3:45:00 PM 20.82 69.476 0.517 8.31 2.95 10.66
8/19/2022 4:00:00 PM 20.94 69.692 0.516 8.31 2.93 10.56
8/19/2022 4:15:00 PM 21.09 69.962 0.515 8.32 2.91 10.4
8/19/2022 4:30:00 PM 21.23 70.214 0.514 8.32 2.89 10.28
8/19/2022 4:45:00 PM 21.35 70.43 0.514 8.32 3.04 10.17
8/19/2022 5:00:00 PM 21.43 70.574 0.513 8.32 3.15 10.09
8/19/2022 5:15:00 PM 21.35 70.43 0.513 8.31 3.06 9.8
8/19/2022 5:30:00 PM 21.31 70.358 0.513 8.3 3.09 9.58
8/19/2022 5:45:00 PM 21.31 70.358 0.512 8.28 3.03 9.37
8/19/2022 6:00:00 PM 21.35 70.43 0.512 8.28 3.44 9.28
8/19/2022 6:15:00 PM 21.4 70.52 0.511 8.27 3.71 9.21
8/19/2022 6:30:00 PM 21.43 70.574 0.511 8.27 3.25 9.12
8/19/2022 6:45:00 PM 21.43 70.574 0.51 8.26 3.32 9.01
8/19/2022 7:00:00 PM 21.43 70.574 0.51 8.24 3.87 8.89
8/19/2022 7:15:00 PM 21.39 70.502 0.51 8.23 3.82 8.75
8/19/2022 7:30:00 PM 21.36 70.448 0.509 8.21 3.94 8.61
8/19/2022 7:45:00 PM 21.33 70.394 0.509 8.2 3.78 8.51
8/19/2022 8:00:00 PM 21.3 70.34 0.509 8.18 3.81 8.39
8/19/2022 8:15:00 PM 21.28 70.304 0.509 8.16 3.8 8.32
8/19/2022 8:30:00 PM 21.26 70.268 0.51 8.15 4.62 8.24
8/19/2022 8:45:00 PM 21.23 70.214 0.51 8.13 4.78 8.17
8/19/2022 9:00:00 PM 21.21 70.17799 0.511 8.11 5.09 8.09
8/19/2022 9:15:00 PM 21.2 70.16 0.511 8.09 5.55 8.04
8/19/2022 9:30:00 PM 21.19 70.142 0.512 8.08 6.08 7.98
8/19/2022 9:45:00 PM 21.2 70.16 0.512 8.06 5.71 7.94
8/19/2022 10:00:00 PM 21.21 70.17799 0.513 8.05 6.32 7.9
8/19/2022 10:15:00 PM 21.23 70.214 0.514 8.04 6.27 7.87
8/19/2022 10:30:00 PM 21.24 70.232 0.515 8.03 6.16 7.84
8/19/2022 10:45:00 PM 21.25 70.25 0.515 8.02 7.09 7.82
8/19/2022 11:00:00 PM 21.26 70.268 0.516 8.01 6.05 7.79
8/19/2022 11:15:00 PM 21.26 70.268 0.517 8 6.89 7.79
8/19/2022 11:30:00 PM 21.26 70.268 0.519 7.99 8.04 7.78
8/19/2022 11:45:00 PM 21.25 70.25 0.519 7.97 7.26 7.76
8/20/2022 12:00:00 AM 21.24 70.232 0.52 7.97 6.86 7.77
8/20/2022 12:15:00 AM 21.21 70.17799 0.521 7.96 8.41 7.76
8/20/2022 12:30:00 AM 21.18 70.124 0.522 7.96 7.89 7.78
8/20/2022 12:45:00 AM 21.15 70.07 0.522 7.95 7.68 7.78
8/20/2022 1:00:00 AM 21.12 70.016 0.523 7.95 7.68 7.8
8/20/2022 1:15:00 AM 21.08 69.944 0.523 7.94 7.54 7.82
8/20/2022 1:30:00 AM 21.04 69.872 0.524 7.94 7.91 7.84
8/20/2022 1:45:00 AM 20.99 69.782 0.524 7.94 7.46 7.86
8/20/2022 2:00:00 AM 20.94 69.692 0.525 7.93 9.08 7.87
8/20/2022 2:15:00 AM 20.87 69.566 0.525 7.93 7.83 7.9
8/20/2022 2:30:00 AM 20.81 69.458 0.525 7.93 8.62 7.92
8/20/2022 2:45:00 AM 20.74 69.332 0.525 7.93 8.85 7.93
8/20/2022 3:00:00 AM 20.66 69.188 0.526 7.93 8.53 7.96
8/20/2022 3:15:00 AM 20.58 69.044 0.526 7.93 8.43 7.99
8/20/2022 3:30:00 AM 20.5 68.9 0.527 7.93 8.25 8.01
8/20/2022 3:45:00 AM 20.42 68.756 0.527 7.92 8.46 8.04
8/20/2022 4:00:00 AM 20.33 68.594 0.528 7.92 8.19 8.07
8/20/2022 4:15:00 AM 20.23 68.414 0.528 7.92 8.79 8.11
8/20/2022 4:30:00 AM 20.13 68.234 0.529 7.92 8.76 8.13
8/20/2022 4:45:00 AM 20.03 68.054 0.529 7.92 8.37 8.16
8/20/2022 5:00:00 AM 19.92 67.856 0.529 7.92 8.95 8.21
8/20/2022 5:15:00 AM 19.8 67.64 0.53 7.92 8.82 8.24
8/20/2022 5:30:00 AM 19.69 67.442 0.53 7.92 8.2 8.27
8/20/2022 5:45:00 AM 19.57 67.226 0.53 7.92 8.53 8.31
8/20/2022 6:00:00 AM 19.45 67.01 0.53 7.92 7.97 8.34
8/20/2022 6:15:00 AM 19.34 66.812 0.531 7.92 8.04 8.37
8/20/2022 6:30:00 AM 19.22 66.596 0.531 7.92 7.5 8.41
8/20/2022 6:45:00 AM 19.11 66.398 0.531 7.92 7.15 8.46
8/20/2022 7:00:00 AM 19.02 66.236 0.531 7.92 7.19 8.51
8/20/2022 7:15:00 AM 18.93 66.074 0.53 7.92 6.42 8.57
8/20/2022 7:30:00 AM 18.86 65.948 0.53 7.93 5.82 8.66
8/20/2022 7:45:00 AM 18.8 65.84 0.53 7.93 5.98 8.73
8/20/2022 8:00:00 AM 18.76 65.768 0.53 7.94 5.32 8.84
8/20/2022 8:15:00 AM 18.72 65.696 0.53 7.95 4.68 8.94
8/20/2022 8:30:00 AM 18.69 65.642 0.53 7.96 4.42 9.02
8/20/2022 8:45:00 AM 18.67 65.606 0.529 7.97 4.1 9.15
8/20/2022 9:00:00 AM 18.67 65.606 0.529 7.98 4.48 9.3
8/20/2022 9:15:00 AM 18.67 65.606 0.529 7.99 3.85 9.45
8/20/2022 9:30:00 AM 18.71 65.67799 0.528 8 3.78 9.64
8/20/2022 9:45:00 AM 18.78 65.804 0.528 8.02 3.51 9.81
8/20/2022 10:00:00 AM 18.84 65.912 0.528 8.04 3.37 9.99
8/20/2022 10:15:00 AM 18.91 66.038 0.527 8.06 3.39 10.1
8/20/2022 10:30:00 AM 19.06 66.308 0.527 8.09 3.49 10.28
8/20/2022 10:45:00 AM 19.21 66.578 0.526 8.1 3.26 10.38
8/20/2022 11:00:00 AM 19.27 66.686 0.526 8.11 3.42 10.36
8/20/2022 11:15:00 AM 19.36 66.848 0.526 8.12 3.19 10.35
8/20/2022 11:30:00 AM 19.63 67.334 0.526 8.14 3.21 10.47
8/20/2022 11:45:00 AM 19.81 67.658 0.525 8.16 3.14 10.52
8/20/2022 12:00:00 PM 19.91 67.838 0.525 8.17 3.15 10.56
8/20/2022 12:15:00 PM 20.19 68.342 0.525 8.19 3.14 10.65
8/20/2022 12:30:00 PM 20.46 68.828 0.524 8.21 3.16 10.77
8/20/2022 12:45:00 PM 20.45 68.81 0.524 8.21 3.51 10.65
8/20/2022 1:00:00 PM 20.64 69.152 0.524 8.23 3.17 10.69
8/20/2022 1:15:00 PM 20.85 69.53 0.524 8.24 3.41 10.75
8/20/2022 1:30:00 PM 20.71 69.278 0.524 8.24 3.3 10.58
8/20/2022 1:45:00 PM 20.96 69.728 0.523 8.25 3.5 10.7
8/20/2022 2:00:00 PM 21 69.8 0.523 8.26 3.15 10.66
8/20/2022 2:15:00 PM 21.13 70.034 0.523 8.27 7.81 10.72
8/20/2022 2:30:00 PM 21.4 70.52 0.522 8.29 4.58 10.77
8/20/2022 2:45:00 PM 21.54 70.772 0.522 8.29 3.95 10.7
8/20/2022 3:00:00 PM 21.87 71.366 0.52 8.31 4.11 10.82
8/20/2022 3:15:00 PM 21.92 71.456 0.52 8.31 3.58 10.59
8/20/2022 3:30:00 PM 22.12 71.816 0.52 8.32 3.42 10.61
8/20/2022 3:45:00 PM 22.2 71.96 0.519 8.32 3.4 10.42
8/20/2022 4:00:00 PM 22.31 72.158 0.519 8.32 3.43 10.27
8/20/2022 4:15:00 PM 22.37 72.266 0.519 8.31 3.28 10.1
8/20/2022 4:30:00 PM 22.44 72.392 0.519 8.31 3.93 9.99
8/20/2022 4:45:00 PM 22.44 72.392 0.518 8.31 3.38 9.84
8/20/2022 5:00:00 PM 22.37 72.266 0.518 8.3 3.62 9.63
8/20/2022 5:15:00 PM 22.36 72.248 0.518 8.29 3.48 9.52
8/20/2022 5:30:00 PM 22.36 72.248 0.518 8.29 3.41 9.41
8/20/2022 5:45:00 PM 22.32 72.176 0.518 8.28 3.58 9.26
8/20/2022 6:00:00 PM 22.26 72.068 0.518 8.27 3.58 9.1
8/20/2022 6:15:00 PM 22.18 71.924 0.518 8.25 3.75 8.94
8/20/2022 6:30:00 PM 22.1 71.78 0.518 8.24 3.58 8.79
8/20/2022 6:45:00 PM 22.02 71.636 0.519 8.22 3.57 8.65
8/20/2022 7:00:00 PM 21.94 71.492 0.519 8.2 3.77 8.54
8/20/2022 7:15:00 PM 21.88 71.384 0.52 8.19 3.82 8.44
8/20/2022 7:30:00 PM 21.82 71.276 0.52 8.17 3.73 8.33
8/20/2022 7:45:00 PM 21.77 71.186 0.521 8.15 4.05 8.26
8/20/2022 8:00:00 PM 21.71 71.078 0.521 8.13 3.92 8.18
8/20/2022 8:15:00 PM 21.65 70.97 0.521 8.12 6.57 8.1
8/20/2022 8:30:00 PM 21.58 70.844 0.522 8.1 5.16 8.05
8/20/2022 8:45:00 PM 21.52 70.736 0.521 8.09 5.47 8
8/20/2022 9:00:00 PM 21.47 70.646 0.521 8.08 6.11 7.95
8/20/2022 9:15:00 PM 21.42 70.556 0.522 8.06 6.71 7.91
8/20/2022 9:30:00 PM 21.37 70.466 0.522 8.05 6.35 7.88
8/20/2022 9:45:00 PM 21.33 70.394 0.522 8.04 6.48 7.85
8/20/2022 10:00:00 PM 21.29 70.32201 0.522 8.03 6.65 7.82
8/20/2022 10:15:00 PM 21.25 70.25 0.523 8.01 7.09 7.81
8/20/2022 10:30:00 PM 21.21 70.17799 0.523 8.01 6.59 7.79
8/20/2022 10:45:00 PM 21.17 70.106 0.523 8 7.07 7.78
8/20/2022 11:00:00 PM 21.13 70.034 0.523 7.99 6.86 7.79
8/20/2022 11:15:00 PM 21.09 69.962 0.523 7.99 6.69 7.8
8/20/2022 11:30:00 PM 21.05 69.89 0.523 7.98 6.85 7.82
8/20/2022 11:45:00 PM 21 69.8 0.523 7.98 6.79 7.82
8/21/2022 12:00:00 AM 20.95 69.71 0.523 7.97 7.39 7.83
8/21/2022 12:15:00 AM 20.9 69.62 0.523 7.97 8.39 7.84
8/21/2022 12:30:00 AM 20.85 69.53 0.523 7.97 8.11 7.84
8/21/2022 12:45:00 AM 20.79 69.422 0.524 7.96 7.65 7.86
8/21/2022 1:00:00 AM 20.73 69.314 0.524 7.96 7.61 7.86
8/21/2022 1:15:00 AM 20.67 69.206 0.524 7.95 7.85 7.87
8/21/2022 1:30:00 AM 20.61 69.098 0.525 7.95 8.84 7.88
8/21/2022 1:45:00 AM 20.54 68.972 0.525 7.94 7.87 7.89
8/21/2022 2:00:00 AM 20.48 68.864 0.526 7.94 9.11 7.9
8/21/2022 2:15:00 AM 20.4 68.72 0.526 7.94 9.64 7.92
8/21/2022 2:30:00 AM 20.33 68.594 0.526 7.93 8 7.94
8/21/2022 2:45:00 AM 20.26 68.468 0.527 7.93 8.91 7.95
8/21/2022 3:00:00 AM 20.17 68.306 0.527 7.93 9.02 7.98
8/21/2022 3:15:00 AM 20.09 68.162 0.527 7.93 8.54 8
8/21/2022 3:30:00 AM 20.01 68.018 0.527 7.93 8.92 8.04
8/21/2022 3:45:00 AM 19.93 67.874 0.527 7.93 8.98 8.08
8/21/2022 4:00:00 AM 19.84 67.712 0.527 7.93 9.09 8.11
8/21/2022 4:15:00 AM 19.75 67.55 0.528 7.93 9.05 8.15
8/21/2022 4:30:00 AM 19.65 67.37 0.528 7.93 9.26 8.18
8/21/2022 4:45:00 AM 19.56 67.208 0.528 7.93 9.69 8.22
8/21/2022 5:00:00 AM 19.46 67.028 0.529 7.93 9.07 8.25
8/21/2022 5:15:00 AM 19.36 66.848 0.529 7.93 9.32 8.29
8/21/2022 5:30:00 AM 19.25 66.65 0.53 7.93 8.79 8.33
8/21/2022 5:45:00 AM 19.14 66.452 0.53 7.93 9.19 8.37
8/21/2022 6:00:00 AM 19.03 66.254 0.53 7.93 8.71 8.4
8/21/2022 6:15:00 AM 18.92 66.056 0.53 7.93 8.58 8.44
8/21/2022 6:30:00 AM 18.83 65.894 0.53 7.93 8.19 8.48
8/21/2022 6:45:00 AM 18.73 65.714 0.531 7.93 7.94 8.53
8/21/2022 7:00:00 AM 18.65 65.57 0.531 7.94 7.31 8.59
8/21/2022 7:15:00 AM 18.58 65.444 0.531 7.94 6.77 8.69
8/21/2022 7:30:00 AM 18.52 65.336 0.531 7.95 6.23 8.8
8/21/2022 7:45:00 AM 18.47 65.246 0.531 7.96 5.73 8.87
8/21/2022 8:00:00 AM 18.43 65.174 0.531 7.96 5.09 8.94
8/21/2022 8:15:00 AM 18.39 65.102 0.531 7.97 5 9.01
8/21/2022 8:30:00 AM 18.36 65.048 0.531 7.98 4.62 9.09
8/21/2022 8:45:00 AM 18.34 65.012 0.531 7.98 4.59 9.17
8/21/2022 9:00:00 AM 18.35 65.03 0.531 7.99 4.26 9.31
8/21/2022 9:15:00 AM 18.39 65.102 0.531 8.01 3.82 9.49
8/21/2022 9:30:00 AM 18.44 65.192 0.53 8.03 3.83 9.68
8/21/2022 9:45:00 AM 18.51 65.318 0.53 8.05 3.81 9.83
8/21/2022 10:00:00 AM 18.66 65.588 0.529 8.07 3.77 10.03
8/21/2022 10:15:00 AM 18.72 65.696 0.529 8.09 3.66 10.12
8/21/2022 10:30:00 AM 18.85 65.93 0.529 8.11 3.64 10.27
8/21/2022 10:45:00 AM 18.98 66.164 0.528 8.13 3.39 10.42
8/21/2022 11:00:00 AM 19.08 66.344 0.528 8.14 3.44 10.47
8/21/2022 11:15:00 AM 19.1 66.38 0.527 8.15 3.2 10.43
8/21/2022 11:30:00 AM 19.14 66.452 0.527 8.17 3.35 10.51
8/21/2022 11:45:00 AM 19.29 66.722 0.527 8.18 3.2 10.68
8/21/2022 12:00:00 PM 19.44 66.992 0.526 8.2 3.2 10.77
8/21/2022 12:15:00 PM 19.62 67.316 0.526 8.22 3.3 10.87
8/21/2022 12:30:00 PM 19.73 67.514 0.525 8.23 3.32 10.92
8/21/2022 12:45:00 PM 19.89 67.802 0.525 8.25 3.29 10.95
8/21/2022 1:00:00 PM 20.13 68.234 0.524 8.26 3.34 11.05
8/21/2022 1:15:00 PM 20.16 68.288 0.523 8.28 3.08 11.03
8/21/2022 1:30:00 PM 20.41 68.738 0.523 8.3 3.05 11.18
8/21/2022 1:45:00 PM 20.61 69.098 0.522 8.31 3.11 11.22
8/21/2022 2:00:00 PM 20.82 69.476 0.521 8.32 3.15 11.27
8/21/2022 2:15:00 PM 20.82 69.476 0.521 8.32 3.25 11.06
8/21/2022 2:30:00 PM 20.91 69.638 0.521 8.33 10.09 10.93
8/21/2022 2:45:00 PM 20.95 69.71 0.521 8.32 17.16 10.79
8/21/2022 3:00:00 PM 20.92 69.656 0.521 8.33 4.42 10.71
8/21/2022 3:15:00 PM 21.03 69.854 0.52 8.34 3.92 10.79
8/21/2022 3:30:00 PM 21.06 69.908 0.52 8.34 4.22 10.64
8/21/2022 3:45:00 PM 21.12 70.016 0.519 8.34 7.8 10.52
8/21/2022 4:00:00 PM 21.16 70.088 0.519 8.35 5.16 10.47
8/21/2022 4:15:00 PM 21.22 70.196 0.518 8.35 4.73 10.42
8/21/2022 4:30:00 PM 21.25 70.25 0.518 8.35 4.52 10.25
8/21/2022 4:45:00 PM 21.23 70.214 0.518 8.34 4.02 10.07
8/21/2022 5:00:00 PM 21.2 70.16 0.518 8.33 3.86 9.9
8/21/2022 5:15:00 PM 21.18 70.124 0.517 8.32 3.94 9.7
8/21/2022 5:30:00 PM 21.15 70.07 0.517 8.31 4.11 9.5
8/21/2022 5:45:00 PM 21.15 70.07 0.517 8.3 3.74 9.36
8/21/2022 6:00:00 PM 21.19 70.142 0.517 8.29 4.09 9.29
8/21/2022 6:15:00 PM 21.22 70.196 0.517 8.28 3.81 9.22
8/21/2022 6:30:00 PM 21.25 70.25 0.517 8.27 4.07 9.12
8/21/2022 6:45:00 PM 21.25 70.25 0.517 8.26 4.11 8.97
8/21/2022 7:00:00 PM 21.23 70.214 0.518 8.24 4.22 8.81
8/21/2022 7:15:00 PM 21.21 70.17799 0.518 8.22 4.17 8.66
8/21/2022 7:30:00 PM 21.19 70.142 0.518 8.2 4.12 8.55
8/21/2022 7:45:00 PM 21.17 70.106 0.518 8.19 4.46 8.44
8/21/2022 8:00:00 PM 21.15 70.07 0.518 8.17 4.42 8.35
8/21/2022 8:15:00 PM 21.13 70.034 0.518 8.15 5.31 8.28
8/21/2022 8:30:00 PM 21.12 70.016 0.518 8.14 5.29 8.21
8/21/2022 8:45:00 PM 21.11 69.998 0.518 8.13 6.15 8.15
8/21/2022 9:00:00 PM 21.1 69.98 0.518 8.11 6.7 8.09
8/21/2022 9:15:00 PM 21.09 69.962 0.519 8.1 6.43 8.04
8/21/2022 9:30:00 PM 21.09 69.962 0.519 8.08 6.65 8
8/21/2022 9:45:00 PM 21.09 69.962 0.519 8.07 7.14 7.97
8/21/2022 10:00:00 PM 21.1 69.98 0.52 8.06 6.73 7.94
8/21/2022 10:15:00 PM 21.11 69.998 0.52 8.05 8.59 7.9
8/21/2022 10:30:00 PM 21.12 70.016 0.52 8.04 6.77 7.87
8/21/2022 10:45:00 PM 21.13 70.034 0.52 8.03 6.95 7.85
8/21/2022 11:00:00 PM 21.14 70.052 0.521 8.02 7.71 7.83
8/21/2022 11:15:00 PM 21.15 70.07 0.521 8.01 7.62 7.82
8/21/2022 11:30:00 PM 21.16 70.088 0.521 8 7.72 7.81
8/21/2022 11:45:00 PM 21.15 70.07 0.522 7.99 7.7 7.8
8/22/2022 12:00:00 AM 21.15 70.07 0.522 7.98 7.6 7.8
8/22/2022 12:15:00 AM 21.15 70.07 0.522 7.97 7.92 7.8
8/22/2022 12:30:00 AM 21.14 70.052 0.522 7.97 7.95 7.8
8/22/2022 12:45:00 AM 21.12 70.016 0.523 7.96 8.07 7.79
8/22/2022 1:00:00 AM 21.09 69.962 0.523 7.96 8.18 7.8
8/22/2022 1:15:00 AM 21.07 69.926 0.523 7.95 8.26 7.82
8/22/2022 1:30:00 AM 21.03 69.854 0.524 7.95 8.31 7.83
8/22/2022 1:45:00 AM 20.98 69.764 0.524 7.95 8 7.85
8/22/2022 2:00:00 AM 20.93 69.674 0.524 7.95 8.62 7.87
8/22/2022 2:15:00 AM 20.86 69.548 0.525 7.94 8.79 7.88
8/22/2022 2:30:00 AM 20.79 69.422 0.525 7.94 9.89 7.9
8/22/2022 2:45:00 AM 20.71 69.278 0.526 7.94 8.65 7.92
8/22/2022 3:00:00 AM 20.63 69.134 0.526 7.94 8.99 7.95
8/22/2022 3:15:00 AM 20.56 69.008 0.527 7.94 10.43 7.98
8/22/2022 3:30:00 AM 20.48 68.864 0.527 7.94 8.6 8
8/22/2022 3:45:00 AM 20.39 68.702 0.528 7.94 8.72 8.02
8/22/2022 4:00:00 AM 20.32 68.576 0.528 7.94 8.63 8.05
8/22/2022 4:15:00 AM 20.24 68.432 0.529 7.94 9.13 8.07
8/22/2022 4:30:00 AM 20.17 68.306 0.529 7.94 10.17 8.09
8/22/2022 4:45:00 AM 20.09 68.162 0.53 7.93 9.38 8.11
8/22/2022 5:00:00 AM 20.02 68.036 0.53 7.93 9.72 8.13
8/22/2022 5:15:00 AM 19.95 67.91 0.53 7.93 9.55 8.16
8/22/2022 5:30:00 AM 19.87 67.766 0.53 7.93 10.09 8.17
8/22/2022 5:45:00 AM 19.8 67.64 0.531 7.93 9.53 8.19
8/22/2022 6:00:00 AM 19.72 67.496 0.531 7.93 9.61 8.22
8/22/2022 6:15:00 AM 19.65 67.37 0.531 7.92 9.78 8.25
8/22/2022 6:30:00 AM 19.58 67.244 0.531 7.92 8.94 8.26
8/22/2022 6:45:00 AM 19.51 67.118 0.531 7.92 8.71 8.29
8/22/2022 7:00:00 AM 19.45 67.01 0.531 7.92 7.4 8.32
8/22/2022 7:15:00 AM 19.38 66.884 0.531 7.92 7.24 8.37
8/22/2022 7:30:00 AM 19.34 66.812 0.531 7.92 6.25 8.43
8/22/2022 7:45:00 AM 19.29 66.722 0.531 7.93 6.26 8.51
8/22/2022 8:00:00 AM 19.26 66.668 0.531 7.93 5.43 8.58
8/22/2022 8:15:00 AM 19.21 66.578 0.531 7.93 5.52 8.59
8/22/2022 8:30:00 AM 19.17 66.506 0.531 7.93 4.93 8.59
8/22/2022 8:45:00 AM 19.14 66.452 0.531 7.93 4.72 8.62
8/22/2022 9:00:00 AM 19.11 66.398 0.531 7.93 5.01 8.69
8/22/2022 9:15:00 AM 19.09 66.362 0.531 7.94 4.24 8.73
8/22/2022 9:30:00 AM 19.05 66.29 0.531 7.94 4.36 8.71
8/22/2022 9:45:00 AM 19.09 66.362 0.531 7.96 5.29 8.95
8/22/2022 10:00:00 AM 19.15 66.47 0.53 7.98 3.8 9.19
8/22/2022 10:15:00 AM 19.3 66.74 0.529 8 3.9 9.44
8/22/2022 10:30:00 AM 19.38 66.884 0.529 8.03 4.02 9.6
8/22/2022 10:45:00 AM 19.49 67.082 0.528 8.05 4.05 9.76
8/22/2022 11:00:00 AM 19.51 67.118 0.528 8.07 3.73 9.79
8/22/2022 11:15:00 AM 19.54 67.172 0.528 8.07 3.66 9.73
8/22/2022 11:30:00 AM 19.52 67.136 0.527 8.07 3.6 9.61
8/22/2022 11:45:00 AM 19.51 67.118 0.527 8.08 3.79 9.71
8/22/2022 12:00:00 PM 19.52 67.136 0.526 8.09 3.78 9.84
8/22/2022 12:15:00 PM 19.47 67.046 0.526 8.09 3.62 9.77
8/22/2022 12:30:00 PM 19.66 67.388 0.525 8.11 3.69 10.03
8/22/2022 12:45:00 PM 19.7 67.46 0.525 8.12 3.87 10.05
8/22/2022 1:00:00 PM 19.74 67.532 0.525 8.13 3.87 10.03
8/22/2022 1:15:00 PM 19.68 67.424 0.525 8.12 3.69 9.77
8/22/2022 1:30:00 PM 20.14 68.252 0.524 8.15 3.68 10.17
8/22/2022 1:45:00 PM 20.37 68.666 0.523 8.17 3.72 10.27
8/22/2022 2:00:00 PM 20.39 68.702 0.522 8.18 3.6 10.25
8/22/2022 2:15:00 PM 20.53 68.954 0.522 8.2 3.66 10.31
8/22/2022 2:30:00 PM 20.53 68.954 0.522 8.2 3.6 10.18
8/22/2022 2:45:00 PM 20.55 68.99 0.521 8.21 7.64 10.27
8/22/2022 3:00:00 PM 20.47 68.846 0.521 8.21 3.54 10.09
8/22/2022 3:15:00 PM 20.48 68.864 0.521 8.21 3.53 9.96
8/22/2022 3:30:00 PM 20.46 68.828 0.521 8.2 3.57 9.82
8/22/2022 3:45:00 PM 20.45 68.81 0.521 8.2 3.63 9.76
8/22/2022 4:00:00 PM 20.54 68.972 0.521 8.21 3.58 9.85
8/22/2022 4:15:00 PM 20.59 69.062 0.521 8.22 3.58 9.89
8/22/2022 4:30:00 PM 20.56 69.008 0.521 8.22 3.62 9.84
8/22/2022 4:45:00 PM 20.53 68.954 0.521 8.22 3.53 9.74
8/22/2022 5:00:00 PM 20.57 69.026 0.521 8.22 3.85 9.81
8/22/2022 5:15:00 PM 20.59 69.062 0.521 8.22 3.67 9.7
8/22/2022 5:30:00 PM 20.58 69.044 0.521 8.21 3.82 9.51
8/22/2022 5:45:00 PM 20.61 69.098 0.521 8.2 3.74 9.38
8/22/2022 6:00:00 PM 20.65 69.17 0.52 8.19 3.76 9.27
8/22/2022 6:15:00 PM 20.69 69.242 0.497 8.19 13.66 9
8/22/2022 6:30:00 PM 20.62 69.116 0.46 8.18 16.02 8.85
8/22/2022 6:45:00 PM 20.55 68.99 0.45 8.16 24.02 8.72
8/22/2022 7:00:00 PM 20.54 68.972 0.456 8.13 18.43 8.63
8/22/2022 7:15:00 PM 20.52 68.936 0.461 8.11 19.5 8.55
8/22/2022 7:30:00 PM 20.51 68.918 0.463 8.09 21.99 8.44
8/22/2022 7:45:00 PM 20.5 68.9 0.462 8.08 19.74 8.36
8/22/2022 8:00:00 PM 20.48 68.864 0.453 8.05 28.27 8.27
8/22/2022 8:15:00 PM 20.47 68.846 0.45 8.02 42.8 8.2
8/22/2022 8:30:00 PM 20.51 68.918 0.452 8 70.76 8.13
8/22/2022 8:45:00 PM 20.56 69.008 0.456 7.98 79.87 8.09
8/22/2022 9:00:00 PM 20.67 69.206 0.462 7.95 124.34 8.03
8/22/2022 9:15:00 PM 20.77 69.386 0.467 7.91 155.06 7.93
8/22/2022 9:30:00 PM 20.76 69.368 0.47 7.88 142.49 7.92
8/22/2022 9:45:00 PM 20.67 69.206 0.48 7.87 127.31 7.96
8/22/2022 10:00:00 PM 20.49 68.882 0.474 7.85 132.41 7.97
8/22/2022 10:15:00 PM 20.27 68.486 0.444 7.79 173.9 7.84
8/22/2022 10:30:00 PM 20.08 68.144 0.415 7.69 223.19 7.55
8/22/2022 10:45:00 PM 19.94 67.892 0.397 7.6 240.57 7.28
8/22/2022 11:00:00 PM 19.81 67.658 0.381 7.54 220.63 7.18
8/22/2022 11:15:00 PM 19.68 67.424 0.368 7.52 197.77 7.15
8/22/2022 11:30:00 PM 19.57 67.226 0.361 7.49 186.77 7.13
8/22/2022 11:45:00 PM 19.47 67.046 0.359 7.48 165.92 7.12
8/23/2022 12:00:00 AM 19.38 66.884 0.361 7.48 151.05 7.14
8/23/2022 12:15:00 AM 19.3 66.74 0.364 7.49 134.93 7.2
8/23/2022 12:30:00 AM 19.23 66.614 0.365 7.49 124.68 7.3
8/23/2022 12:45:00 AM 19.17 66.506 0.365 7.5 119.7 7.4
8/23/2022 1:00:00 AM 19.13 66.434 0.362 7.51 112.25 7.47
8/23/2022 1:15:00 AM 19.09 66.362 0.356 7.51 108.97 7.52
8/23/2022 1:30:00 AM 19.07 66.326 0.35 7.5 103.38 7.54
8/23/2022 1:45:00 AM 19.06 66.308 0.344 7.49 99.45 7.53
8/23/2022 2:00:00 AM 19.07 66.326 0.339 7.48 105.36 7.5
8/23/2022 2:15:00 AM 19.07 66.326 0.334 7.48 110.75 7.48
8/23/2022 2:30:00 AM 19.07 66.326 0.33 7.47 111.06 7.46
8/23/2022 2:45:00 AM 19.06 66.308 0.325 7.47 109.65 7.47
8/23/2022 3:00:00 AM 19.05 66.29 0.321 7.46 109.45 7.49
8/23/2022 3:15:00 AM 19.02 66.236 0.318 7.47 106.89 7.52
8/23/2022 3:30:00 AM 18.99 66.182 0.315 7.47 97.1 7.56
8/23/2022 3:45:00 AM 18.96 66.128 0.312 7.47 91.73 7.61
8/23/2022 4:00:00 AM 18.93 66.074 0.309 7.48 81.82 7.65
8/23/2022 4:15:00 AM 18.9 66.02 0.306 7.48 76.81 7.68
8/23/2022 4:30:00 AM 18.86 65.948 0.303 7.48 70.58 7.72
8/23/2022 4:45:00 AM 18.83 65.894 0.3 7.49 67.31 7.75
8/23/2022 5:00:00 AM 18.8 65.84 0.298 7.49 61.71 7.77
8/23/2022 5:15:00 AM 18.77 65.786 0.296 7.48 57.84 7.78
8/23/2022 5:30:00 AM 18.73 65.714 0.294 7.48 56.39 7.8
8/23/2022 5:45:00 AM 18.69 65.642 0.294 7.48 54.38 7.81
8/23/2022 6:00:00 AM 18.64 65.552 0.294 7.48 53.51 7.83
8/23/2022 6:15:00 AM 18.6 65.48 0.295 7.49 51.83 7.85
8/23/2022 6:30:00 AM 18.56 65.408 0.297 7.49 50.67 7.85
8/23/2022 6:45:00 AM 18.52 65.336 0.299 7.49 47.5 7.88
8/23/2022 7:00:00 AM 18.5 65.3 0.302 7.49 46.55 7.9
8/23/2022 7:15:00 AM 18.48 65.264 0.305 7.5 42.46 7.93
8/23/2022 7:30:00 AM 18.46 65.228 0.308 7.5 40.75 7.95
8/23/2022 7:45:00 AM 18.44 65.192 0.311 7.51 37.47 7.99
8/23/2022 8:00:00 AM 18.44 65.192 0.315 7.52 36.17 8.04
8/23/2022 8:15:00 AM 18.43 65.174 0.318 7.52 33.24 8.09
8/23/2022 8:30:00 AM 18.44 65.192 0.322 7.53 31.38 8.16
8/23/2022 8:45:00 AM 18.45 65.21 0.326 7.54 29.3 8.23
8/23/2022 9:00:00 AM 18.47 65.246 0.33 7.56 27.96 8.29
8/23/2022 9:15:00 AM 18.51 65.318 0.334 7.57 26.53 8.39
8/23/2022 9:30:00 AM 18.54 65.372 0.338 7.58 25.54 8.46
8/23/2022 9:45:00 AM 18.59 65.462 0.343 7.6 24.27 8.55
8/23/2022 10:00:00 AM 18.62 65.516 0.347 7.62 23.98 8.62
8/23/2022 10:15:00 AM 18.67 65.606 0.351 7.64 22.48 8.71
8/23/2022 10:30:00 AM 18.74 65.732 0.356 7.66 21.88 8.83
8/23/2022 10:45:00 AM 18.8 65.84 0.36 7.69 21.15 8.92
8/23/2022 11:00:00 AM 18.89 66.002 0.365 7.71 19.94 9.06
8/23/2022 11:15:00 AM 19.05 66.29 0.37 7.73 18.61 9.1
8/23/2022 11:30:00 AM 19.1 66.38 0.375 7.75 18.45 9.2
8/23/2022 11:45:00 AM 19.3 66.74 0.379 7.77 17.24 9.28
8/23/2022 12:00:00 PM 19.46 67.028 0.384 7.79 16.79 9.37
8/23/2022 12:15:00 PM 19.71 67.478 0.389 7.82 16.43 9.5
8/23/2022 12:30:00 PM 19.93 67.874 0.393 7.85 15.68 9.63
8/23/2022 12:45:00 PM 20.07 68.126 0.398 7.87 15.93 9.69
8/23/2022 1:00:00 PM 20.11 68.198 0.402 7.89 15.17 9.69
8/23/2022 1:15:00 PM 20.11 68.198 0.407 7.91 15.11 9.73
8/23/2022 1:30:00 PM 20.18 68.324 0.411 7.92 14.62 9.75
8/23/2022 1:45:00 PM 20.24 68.432 0.416 7.93 14.08 9.79
8/23/2022 2:00:00 PM 20.41 68.738 0.419 7.96 14.11 9.9
8/23/2022 2:15:00 PM 20.62 69.116 0.423 7.98 13.43 9.96
8/23/2022 2:30:00 PM 20.88 69.584 0.427 8 13.73 10.01
8/23/2022 2:45:00 PM 21.09 69.962 0.43 8.02 13.1 10.01
8/23/2022 3:00:00 PM 21.25 70.25 0.433 8.02 12.39 9.96
8/23/2022 3:15:00 PM 21.41 70.538 0.436 8.04 12.66 9.9
8/23/2022 3:30:00 PM 21.57 70.826 0.439 8.04 12.1 9.83
8/23/2022 3:45:00 PM 21.72 71.096 0.442 8.05 11.85 9.76
8/23/2022 4:00:00 PM 21.82 71.276 0.445 8.06 11.74 9.64
8/23/2022 4:15:00 PM 21.88 71.384 0.448 8.06 11.58 9.52
8/23/2022 4:30:00 PM 21.82 71.276 0.451 8.05 11.22 9.3
8/23/2022 4:45:00 PM 21.83 71.294 0.454 8.04 10.93 9.18
8/23/2022 5:00:00 PM 21.88 71.384 0.457 8.04 10.85 9.11
8/23/2022 5:15:00 PM 21.86 71.348 0.459 8.04 10.75 9.01
8/23/2022 5:30:00 PM 21.84 71.312 0.461 8.03 10.79 8.94
8/23/2022 5:45:00 PM 21.85 71.33 0.463 8.03 10.27 8.86
8/23/2022 6:00:00 PM 21.79 71.222 0.465 8.02 10.31 8.73
8/23/2022 6:15:00 PM 21.79 71.222 0.466 8.02 10.02 8.67
8/23/2022 6:30:00 PM 21.76 71.168 0.468 8.01 9.87 8.54
8/23/2022 6:45:00 PM 21.74 71.132 0.47 8 9.85 8.43
8/23/2022 7:00:00 PM 21.7 71.06 0.472 7.98 10.31 8.31
8/23/2022 7:15:00 PM 21.65 70.97 0.473 7.97 9.68 8.21
8/23/2022 7:30:00 PM 21.62 70.916 0.475 7.96 9.44 8.11
8/23/2022 7:45:00 PM 21.58 70.844 0.476 7.95 9.74 8.02
8/23/2022 8:00:00 PM 21.55 70.79 0.477 7.94 9.38 7.92
8/23/2022 8:15:00 PM 21.53 70.754 0.478 7.93 9.9 7.86
8/23/2022 8:30:00 PM 21.51 70.718 0.479 7.92 11.56 7.8
8/23/2022 8:45:00 PM 21.5 70.7 0.48 7.92 11.93 7.75
8/23/2022 9:00:00 PM 21.51 70.718 0.481 7.91 11.87 7.73
8/23/2022 9:15:00 PM 21.52 70.736 0.482 7.9 12.66 7.68
8/23/2022 9:30:00 PM 21.54 70.772 0.483 7.9 13.18 7.67
8/23/2022 9:45:00 PM 21.55 70.79 0.484 7.89 12.81 7.64
8/23/2022 10:00:00 PM 21.57 70.826 0.485 7.89 12.45 7.63
8/23/2022 10:15:00 PM 21.59 70.862 0.486 7.89 12.47 7.61
8/23/2022 10:30:00 PM 21.6 70.88 0.487 7.88 12.24 7.6
8/23/2022 10:45:00 PM 21.6 70.88 0.488 7.88 12.98 7.59
8/23/2022 11:00:00 PM 21.59 70.862 0.489 7.87 17.53 7.58
8/23/2022 11:15:00 PM 21.57 70.826 0.49 7.87 15.56 7.58
8/23/2022 11:30:00 PM 21.54 70.772 0.491 7.87 13.76 7.58
8/23/2022 11:45:00 PM 21.51 70.718 0.492 7.87 13.43 7.6
8/24/2022 12:00:00 AM 21.46 70.628 0.493 7.87 14.27 7.62
8/24/2022 12:15:00 AM 21.4 70.52 0.493 7.86 14.13 7.64
8/24/2022 12:30:00 AM 21.34 70.412 0.494 7.86 14.7 7.65
8/24/2022 12:45:00 AM 21.27 70.286 0.495 7.86 14.96 7.67
8/24/2022 1:00:00 AM 21.19 70.142 0.496 7.86 14.46 7.69
8/24/2022 1:15:00 AM 21.1 69.98 0.496 7.86 14.38 7.73
8/24/2022 1:30:00 AM 21 69.8 0.497 7.86 13.93 7.75
8/24/2022 1:45:00 AM 20.89 69.602 0.497 7.86 15.03 7.79
8/24/2022 2:00:00 AM 20.78 69.404 0.498 7.87 13.85 7.83
8/24/2022 2:15:00 AM 20.66 69.188 0.499 7.87 14.34 7.86
8/24/2022 2:30:00 AM 20.55 68.99 0.5 7.87 14.87 7.89
8/24/2022 2:45:00 AM 20.42 68.756 0.501 7.86 15.03 7.93
8/24/2022 3:00:00 AM 20.29 68.522 0.501 7.87 14.15 7.96
8/24/2022 3:15:00 AM 20.16 68.288 0.502 7.86 14.32 8
8/24/2022 3:30:00 AM 20.03 68.054 0.503 7.86 15.4 8.04
8/24/2022 3:45:00 AM 19.89 67.802 0.503 7.86 14.62 8.08
8/24/2022 4:00:00 AM 19.75 67.55 0.504 7.86 15.14 8.13
8/24/2022 4:15:00 AM 19.61 67.298 0.504 7.86 14.53 8.17
8/24/2022 4:30:00 AM 19.46 67.028 0.505 7.86 14.34 8.21
8/24/2022 4:45:00 AM 19.32 66.776 0.505 7.86 14.57 8.25
8/24/2022 5:00:00 AM 19.18 66.524 0.506 7.86 14.76 8.29
8/24/2022 5:15:00 AM 19.04 66.272 0.506 7.86 14.84 8.33
8/24/2022 5:30:00 AM 18.91 66.038 0.507 7.86 15.28 8.37
8/24/2022 5:45:00 AM 18.78 65.804 0.507 7.86 15.05 8.41
8/24/2022 6:00:00 AM 18.65 65.57 0.507 7.86 14.81 8.44
8/24/2022 6:15:00 AM 18.53 65.354 0.508 7.86 14.76 8.48
8/24/2022 6:30:00 AM 18.42 65.156 0.508 7.87 14.34 8.51
8/24/2022 6:45:00 AM 18.31 64.958 0.508 7.87 13.17 8.55
8/24/2022 7:00:00 AM 18.21 64.778 0.508 7.87 12.84 8.6
8/24/2022 7:15:00 AM 18.12 64.616 0.509 7.87 12.5 8.64
8/24/2022 7:30:00 AM 18.03 64.454 0.509 7.87 10.79 8.69
8/24/2022 7:45:00 AM 17.96 64.328 0.509 7.88 9.94 8.74
8/24/2022 8:00:00 AM 17.89 64.202 0.509 7.88 9.52 8.79
8/24/2022 8:15:00 AM 17.83 64.094 0.509 7.89 8.41 8.84
8/24/2022 8:30:00 AM 17.8 64.04 0.509 7.89 8.23 8.89
8/24/2022 8:45:00 AM 17.77 63.986 0.51 7.89 7.53 8.95
8/24/2022 9:00:00 AM 17.76 63.968 0.51 7.9 7.19 9.01
8/24/2022 9:15:00 AM 17.78 64.004 0.51 7.91 6.99 9.08
8/24/2022 9:30:00 AM 17.8 64.04 0.511 7.92 6.33 9.17
8/24/2022 9:45:00 AM 17.86 64.148 0.511 7.93 6.27 9.26
8/24/2022 10:00:00 AM 17.92 64.256 0.511 7.94 6.27 9.38
8/24/2022 10:15:00 AM 18.01 64.418 0.511 7.95 6.08 9.48
8/24/2022 10:30:00 AM 18.09 64.562 0.512 7.97 5.65 9.56
8/24/2022 10:45:00 AM 18.21 64.778 0.512 7.98 5.51 9.66
8/24/2022 11:00:00 AM 18.33 64.994 0.512 8 5.35 9.76
8/24/2022 11:15:00 AM 18.47 65.246 0.512 8.01 5.23 9.82
8/24/2022 11:30:00 AM 18.58 65.444 0.512 8.03 5.26 9.93
8/24/2022 11:45:00 AM 18.73 65.714 0.512 8.04 5.2 10.05
8/24/2022 12:00:00 PM 18.83 65.894 0.513 8.06 5.09 10.12
8/24/2022 12:15:00 PM 19.01 66.218 0.512 8.08 5.1 10.21
8/24/2022 12:30:00 PM 19.32 66.776 0.512 8.1 5.05 10.38
8/24/2022 12:45:00 PM 19.52 67.136 0.512 8.11 5.17 10.46
8/24/2022 1:00:00 PM 19.72 67.496 0.512 8.13 5.12 10.54
8/24/2022 1:15:00 PM 19.76 67.568 0.512 8.14 5.03 10.47
8/24/2022 1:30:00 PM 19.9 67.82 0.512 8.16 5.11 10.55
8/24/2022 1:45:00 PM 20.12 68.216 0.511 8.17 5.1 10.63
8/24/2022 2:00:00 PM 20.1 68.18 0.511 8.18 4.98 10.48
8/24/2022 2:15:00 PM 20.36 68.648 0.51 8.19 4.9 10.54
8/24/2022 2:30:00 PM 20.38 68.684 0.51 8.2 4.8 10.43
8/24/2022 2:45:00 PM 20.67 69.206 0.51 8.22 4.82 10.52
8/24/2022 3:00:00 PM 20.8 69.44 0.509 8.23 4.73 10.5
8/24/2022 3:15:00 PM 20.86 69.548 0.509 8.23 4.67 10.29
8/24/2022 3:30:00 PM 21.04 69.872 0.508 8.25 4.7 10.31
8/24/2022 3:45:00 PM 21.16 70.088 0.507 8.25 4.77 10.25
8/24/2022 4:00:00 PM 21.26 70.268 0.507 8.26 4.7 10.09
8/24/2022 4:15:00 PM 21.39 70.502 0.507 8.26 4.7 10.02
8/24/2022 4:30:00 PM 21.38 70.484 0.506 8.26 4.76 9.83
8/24/2022 4:45:00 PM 21.49 70.682 0.506 8.25 11.08 9.72
8/24/2022 5:00:00 PM 21.51 70.718 0.506 8.25 6.87 9.55
8/24/2022 5:15:00 PM 21.52 70.736 0.506 8.24 5.06 9.44
8/24/2022 5:30:00 PM 21.52 70.736 0.505 8.24 4.73 9.3
8/24/2022 5:45:00 PM 21.5 70.7 0.505 8.23 4.87 9.17
8/24/2022 6:00:00 PM 21.48 70.664 0.505 8.22 4.51 9.03
8/24/2022 6:15:00 PM 21.45 70.61 0.505 8.21 4.62 8.9
8/24/2022 6:30:00 PM 21.42 70.556 0.505 8.2 4.48 8.76
8/24/2022 6:45:00 PM 21.4 70.52 0.505 8.19 4.88 8.66
8/24/2022 7:00:00 PM 21.4 70.52 0.505 8.17 4.4 8.56
8/24/2022 7:15:00 PM 21.38 70.484 0.505 8.16 4.47 8.48
8/24/2022 7:30:00 PM 21.34 70.412 0.505 8.15 4.59 8.38
8/24/2022 7:45:00 PM 21.31 70.358 0.505 8.13 4.58 8.28
8/24/2022 8:00:00 PM 21.28 70.304 0.505 8.12 4.94 8.21
8/24/2022 8:15:00 PM 21.25 70.25 0.506 8.1 5.35 8.14
8/24/2022 8:30:00 PM 21.22 70.196 0.506 8.09 5.7 8.06
8/24/2022 8:45:00 PM 21.18 70.124 0.507 8.07 6.02 8
8/24/2022 9:00:00 PM 21.13 70.034 0.507 8.06 6.67 7.96
8/24/2022 9:15:00 PM 21.08 69.944 0.507 8.04 7.84 7.95
8/24/2022 9:30:00 PM 21.03 69.854 0.508 8.03 8.02 7.92
8/24/2022 9:45:00 PM 20.98 69.764 0.508 8.02 7.66 7.92
8/24/2022 10:00:00 PM 20.93 69.674 0.508 8.01 7.82 7.9
8/24/2022 10:15:00 PM 20.87 69.566 0.508 8.01 7.82 7.91
8/24/2022 10:30:00 PM 20.82 69.476 0.508 8 8.45 7.91
8/24/2022 10:45:00 PM 20.77 69.386 0.508 8 8.22 7.92
8/24/2022 11:00:00 PM 20.71 69.278 0.508 7.99 8.45 7.92
8/24/2022 11:15:00 PM 20.65 69.17 0.508 7.99 8.56 7.94
8/24/2022 11:30:00 PM 20.59 69.062 0.508 7.98 8.5 7.95
8/24/2022 11:45:00 PM 20.52 68.936 0.509 7.98 9.03 7.96
8/25/2022 12:00:00 AM 20.45 68.81 0.509 7.97 9.87 7.97
8/25/2022 12:15:00 AM 20.37 68.666 0.509 7.96 9.67 7.97
8/25/2022 12:30:00 AM 20.29 68.522 0.51 7.96 9.68 8
8/25/2022 12:45:00 AM 20.21 68.378 0.51 7.96 9.72 8.02
8/25/2022 1:00:00 AM 20.12 68.216 0.51 7.95 9.9 8.05
8/25/2022 1:15:00 AM 20.03 68.054 0.511 7.95 9.68 8.06
8/25/2022 1:30:00 AM 19.93 67.874 0.511 7.95 9.5 8.09
8/25/2022 1:45:00 AM 19.84 67.712 0.511 7.94 10.25 8.13
8/25/2022 2:00:00 AM 19.74 67.532 0.512 7.94 10.24 8.16
8/25/2022 2:15:00 AM 19.64 67.352 0.512 7.94 10.2 8.19
8/25/2022 2:30:00 AM 19.53 67.154 0.512 7.94 10.57 8.21
8/25/2022 2:45:00 AM 19.43 66.974 0.513 7.94 10.96 8.25
8/25/2022 3:00:00 AM 19.31 66.758 0.513 7.94 10.51 8.29
8/25/2022 3:15:00 AM 19.2 66.56 0.514 7.94 10.4 8.32
8/25/2022 3:30:00 AM 19.08 66.344 0.514 7.94 11.41 8.35
8/25/2022 3:45:00 AM 18.95 66.11 0.515 7.93 11.12 8.39
8/25/2022 4:00:00 AM 18.82 65.876 0.515 7.93 139.26 8.43
8/25/2022 4:15:00 AM 18.7 65.66 0.517 7.93 12.33 8.45
8/25/2022 4:30:00 AM 18.57 65.426 0.517 7.92 11.64 8.5
8/25/2022 4:45:00 AM 18.43 65.174 0.518 7.92 11.53 8.54
8/25/2022 5:00:00 AM 18.3 64.94 0.518 7.92 11.24 8.58
8/25/2022 5:15:00 AM 18.17 64.706 0.519 7.92 11.38 8.62
8/25/2022 5:30:00 AM 18.04 64.472 0.519 7.92 11.28 8.66
8/25/2022 5:45:00 AM 17.92 64.256 0.519 7.92 11.52 8.69
8/25/2022 6:00:00 AM 17.79 64.022 0.519 7.92 11.08 8.73
8/25/2022 6:15:00 AM 17.67 63.806 0.519 7.92 11.29 8.76
8/25/2022 6:30:00 AM 17.56 63.608 0.52 7.92 10 8.8
8/25/2022 6:45:00 AM 17.45 63.41 0.52 7.92 9.58 8.84
8/25/2022 7:00:00 AM 17.35 63.23 0.52 7.92 8.65 8.87
8/25/2022 7:15:00 AM 17.25 63.05 0.52 7.92 8.62 8.93
8/25/2022 7:30:00 AM 17.16 62.888 0.52 7.93 7.56 8.97
8/25/2022 7:45:00 AM 17.09 62.762 0.52 7.93 6.71 9.02
8/25/2022 8:00:00 AM 17.02 62.636 0.52 7.93 6.36 9.08
8/25/2022 8:15:00 AM 16.97 62.546 0.52 7.93 5.9 9.13
8/25/2022 8:30:00 AM 16.93 62.474 0.52 7.91 5.24 9.19
8/25/2022 8:45:00 AM 16.91 62.438 0.521 7.92 5.13 9.23
8/25/2022 9:00:00 AM 16.92 62.456 0.521 7.94 4.97 9.31
8/25/2022 9:15:00 AM 16.94 62.492 0.521 7.95 4.56 9.4
8/25/2022 9:30:00 AM 16.97 62.546 0.521 7.96 4.42 9.47
8/25/2022 9:45:00 AM 17.03 62.654 0.521 7.97 4.23 9.57
8/25/2022 10:00:00 AM 17.11 62.798 0.521 7.98 4.31 9.68
8/25/2022 10:15:00 AM 17.22 62.996 0.521 7.99 4.18 9.78
8/25/2022 10:30:00 AM 17.32